Provisional Data: Apalachin Creek near Apalachin, NY


Please select a monitoring station.
Please select start date.
Please select start date.

Toggle Unit: C/F Toggle Unit: C/F
Sample Time Temperature (C) Temperature (F) Specific Conductivity (mS/cm) pH   Turbidity (NTU+) DO (mg/L)
5/4/2021 12:00:00 AM 12.05 53.69 0.116 7.14 6.54 9.68
5/4/2021 12:15:00 AM 12.04 53.672 0.116 7.07 7.79 9.68
5/4/2021 12:30:00 AM 12.02 53.636 0.116 7.19 8 9.69
5/4/2021 12:45:00 AM 12.01 53.618 0.116 7.11 8.27 9.7
5/4/2021 1:00:00 AM 12 53.6 0.116 7.13 8.16 9.71
5/4/2021 1:15:00 AM 11.98 53.564 0.116 7.11 8.43 9.72
5/4/2021 1:30:00 AM 11.97 53.546 0.116 7.14 7.42 9.73
5/4/2021 1:45:00 AM 11.95 53.51 0.115 7.1 8.76 9.74
5/4/2021 2:00:00 AM 11.93 53.474 0.115 7.14 8.49 9.75
5/4/2021 2:15:00 AM 11.92 53.456 0.115 7.03 7.73 9.75
5/4/2021 2:30:00 AM 11.91 53.438 0.049 7.11 9.49 9.77
5/4/2021 2:45:00 AM 11.89 53.402 0.115 7.14 10 9.77
5/4/2021 3:00:00 AM 11.87 53.366 0.115 7.16 8.42 9.78
5/4/2021 3:15:00 AM 11.86 53.348 0.114 7.19 10.07 9.79
5/4/2021 3:30:00 AM 11.84 53.312 0.114 7.16 8.77 9.79
5/4/2021 3:45:00 AM 11.82 53.276 0.114 7.21 12.1 9.8
5/4/2021 4:00:00 AM 11.8 53.24 0.114 7.2 8.77 9.8
5/4/2021 4:15:00 AM 11.78 53.204 0.114 7.18 8.75 9.81
5/4/2021 4:30:00 AM 11.76 53.168 0.113 7.17 8.99 9.81
5/4/2021 4:45:00 AM 11.75 53.15 0.1 6.98 12.75 9.81
5/4/2021 5:00:00 AM 11.73 53.114 0.114 7.18 8.95 9.82
5/4/2021 5:15:00 AM 11.71 53.078 0.114 7.17 9.02 9.83
5/4/2021 5:30:00 AM 11.69 53.042 0.114 7.06 8.88 9.83
5/4/2021 5:45:00 AM 11.68 53.024 0.114 7.17 9.31 9.84
5/4/2021 6:00:00 AM 11.66 52.988 0.114 7.13 8.52 9.84
5/4/2021 6:15:00 AM 11.64 52.952 0.113 7.11 9.29 9.85
5/4/2021 6:30:00 AM 11.63 52.934 0.114 7.06 9.58 9.87
5/4/2021 6:45:00 AM 11.62 52.916 0.113 7.14 8.6 9.89
5/4/2021 7:00:00 AM 11.62 52.916 0.113 7.18 9.66 9.93
5/4/2021 7:15:00 AM 11.63 52.934 0.061 7.09 11.84 9.99
5/4/2021 7:30:00 AM 11.63 52.934 0.112 7.16 9.76 10.03
5/4/2021 7:45:00 AM 11.63 52.934 0.112 7.12 9.45 10.05
5/4/2021 8:00:00 AM 11.63 52.934 0.112 7.16 9.33 10.06
5/4/2021 8:15:00 AM 11.65 52.97 0.111 7.16 8.56 10.1
5/4/2021 8:30:00 AM 11.67 53.006 0.108 7.22 8.65 10.15
5/4/2021 8:45:00 AM 11.69 53.042 0.108 7.19 11.05 10.2
5/4/2021 9:00:00 AM 11.74 53.132 0.105 7.21 9.58 10.26
5/4/2021 9:15:00 AM 11.82 53.276 0.103 7.22 8.98 10.33
5/4/2021 9:30:00 AM 11.9 53.42 0.113 7.31 8.17 10.37
5/4/2021 9:45:00 AM 11.98 53.564 0.113 7.33 8.21 10.41
5/4/2021 10:00:00 AM 12.07 53.726 0.113 7.31 8.85 10.44
5/4/2021 10:15:00 AM 12.17 53.906 0.113 7.35 9.16 10.45
5/4/2021 10:30:00 AM 12.32 54.176 0.113 7.26 9.39 10.47
5/4/2021 10:45:00 AM 12.48 54.464 0.045 7.39 10.43 10.49
5/4/2021 11:00:00 AM 12.65 54.77 0.113 7.39 8.67 10.47
5/4/2021 11:15:00 AM 12.79 55.022 0.113 7.42 7.93 10.49
5/4/2021 11:30:00 AM 12.92 55.256 0.113 7.42 7.92 10.45
5/4/2021 11:45:00 AM 13.06 55.508 0.113 7.42 7.33 10.42
5/4/2021 12:00:00 PM 13.27 55.886 0.113 7.42 7.5 10.41
5/4/2021 12:15:00 PM 13.41 56.138 0.113 7.42 7.64 10.39
5/4/2021 12:30:00 PM 13.69 56.642 0.113 7.38 7.06 10.38
5/4/2021 12:45:00 PM 13.82 56.876 0.113 7.41 7.26 10.34
5/4/2021 1:00:00 PM 13.96 57.128 0.113 7.46 7.05 10.32
5/4/2021 1:15:00 PM 14.12 57.416 0.113 7.48 7.18 10.29
5/4/2021 1:30:00 PM 14.18 57.524 0.113 7.48 8.17 10.26
5/4/2021 1:45:00 PM 14.49 58.082 0.114 7.5 7.63 10.27
5/4/2021 2:00:00 PM 14.81 58.658 0.114 7.48 7.34 10.25
5/4/2021 2:15:00 PM 15.1 59.18 0.114 7.5 7.4 10.18
5/4/2021 2:30:00 PM 15.41 59.738 0.108 7.51 11.18 10.11
5/4/2021 2:45:00 PM 15.58 60.044 0.114 7.5 7.99 10.04
5/4/2021 3:00:00 PM 15.82 60.476 0.11 7.4 10.74 10.02
5/4/2021 3:15:00 PM 16 60.8 0.09 7.44 10.33 9.97
5/4/2021 3:30:00 PM 16.12 61.016 0.114 7.53 9.18 9.93
5/4/2021 3:45:00 PM 16.2 61.16 0.114 7.46 8.41 9.88
5/4/2021 4:00:00 PM 16.09 60.962 0.112 7.47 10.18 9.8
5/4/2021 4:15:00 PM 15.93 60.674 0.114 7.43 8.68 9.74
5/4/2021 4:30:00 PM 15.88 60.584 0.111 7.46 9.39 9.73
5/4/2021 4:45:00 PM 15.72 60.296 0.114 7.4 8.56 9.69
5/4/2021 5:00:00 PM 15.64 60.152 0.114 7.39 10.94 9.68
5/4/2021 5:15:00 PM 15.57 60.026 0.115 7.39 13.07 9.66
5/4/2021 5:30:00 PM 15.51 59.918 0.115 7.43 10.68 9.65
5/4/2021 5:45:00 PM 15.44 59.792 0.05 7.39 10.74 9.62
5/4/2021 6:00:00 PM 15.37 59.666 0.115 7.37 8.8 9.57
5/4/2021 6:15:00 PM 15.3 59.54 0.115 7.38 7.91 9.54
5/4/2021 6:30:00 PM 15.22 59.396 0.115 7.35 7.48 9.49
5/4/2021 6:45:00 PM 15.16 59.288 0.115 7.34 6.86 9.49
5/4/2021 7:00:00 PM 15.1 59.18 0.115 7.3 6.85 9.48
5/4/2021 7:15:00 PM 15.02 59.036 0.115 7.34 6.58 9.46
5/4/2021 7:30:00 PM 14.95 58.91 0.115 7.3 9.91 9.44
5/4/2021 7:45:00 PM 14.88 58.784 0.096 7.32 8.03 9.4
5/4/2021 8:00:00 PM 14.82 58.676 0.116 7.26 6.68 9.33
5/4/2021 8:15:00 PM 14.77 58.586 0.112 7.23 8.63 9.26
5/4/2021 8:30:00 PM 14.72 58.496 0.115 7.17 8.94 9.2
5/4/2021 8:45:00 PM 14.68 58.424 0.116 7.06 6.39 9.14
5/4/2021 9:00:00 PM 14.64 58.352 0.116 7.21 6.29 9.12
5/4/2021 9:15:00 PM 14.61 58.298 0.116 7.15 8.93 9.11
5/4/2021 9:30:00 PM 14.58 58.244 0.116 7.21 6.22 9.1
5/4/2021 9:45:00 PM 14.54 58.172 0.116 7.2 6.04 9.09
5/4/2021 10:00:00 PM 14.51 58.118 0.116 7.14 6.3 9.09
5/4/2021 10:15:00 PM 14.49 58.082 0.116 7.19 6.36 9.09
5/4/2021 10:30:00 PM 14.46 58.028 0.116 7.16 6.42 9.09
5/4/2021 10:45:00 PM 14.4 57.92 0.116 7.18 6.29 9.09
5/4/2021 11:00:00 PM 14.35 57.83 0.116 7.11 6.86 9.1
5/4/2021 11:15:00 PM 14.3 57.74 0.116 7.17 6.82 9.1
5/4/2021 11:30:00 PM 14.27 57.686 0.116 7.16 6.67 9.1
5/4/2021 11:45:00 PM 14.24 57.632 0.116 7.17 6.6 9.11
5/5/2021 12:00:00 AM 14.2 57.56 0.116 7.01 6.9 9.11
5/5/2021 12:15:00 AM 14.16 57.488 0.117 7.07 6.57 9.12
5/5/2021 12:30:00 AM 14.13 57.434 0.117 7.13 8.06 9.12
5/5/2021 12:45:00 AM 14.1 57.38 0.117 7.12 6.96 9.12
5/5/2021 1:00:00 AM 14.08 57.344 0.117 7.11 6.96 9.13
5/5/2021 1:15:00 AM 14.05 57.29 0.118 7.16 7.91 9.14
5/5/2021 1:30:00 AM 14.03 57.254 0.118 7.12 7.71 9.14
5/5/2021 1:45:00 AM 14.02 57.236 0.118 7.18 7.45 9.15
5/5/2021 2:00:00 AM 14 57.2 0.118 7.18 6.73 9.16
5/5/2021 2:15:00 AM 13.98 57.164 0.118 7.17 6.59 9.17
5/5/2021 2:30:00 AM 13.96 57.128 0.118 7.17 7.47 9.18
5/5/2021 2:45:00 AM 13.92 57.056 0.118 7.12 6.68 9.18
5/5/2021 3:00:00 AM 13.9 57.02 0.118 7.08 7.13 9.18
5/5/2021 3:15:00 AM 13.87 56.966 0.118 7.1 7.03 9.2
5/5/2021 3:30:00 AM 13.83 56.894 0.119 7.18 7.18 9.2
5/5/2021 3:45:00 AM 13.8 56.84 0.119 7.08 7.46 9.21
5/5/2021 4:00:00 AM 13.77 56.786 0.114 7.15 6.98 9.21
5/5/2021 4:15:00 AM 13.73 56.714 0.119 7.09 7.13 9.21
5/5/2021 4:30:00 AM 13.7 56.66 0.119 7.18 7.3 9.24
5/5/2021 4:45:00 AM 13.66 56.588 0.119 7.18 7.24 9.24
5/5/2021 5:00:00 AM 13.61 56.498 0.119 7.16 7.22 9.25
5/5/2021 5:15:00 AM 13.56 56.408 0.119 7.09 7.17 9.26
5/5/2021 5:30:00 AM 13.51 56.318 0.119 7.02 6.94 9.26
5/5/2021 5:45:00 AM 13.47 56.246 0.119 7.13 6.81 9.28
5/5/2021 6:00:00 AM 13.42 56.156 0.119 7.14 6.92 9.29
5/5/2021 6:15:00 AM 13.39 56.102 0.119 7.12 6.88 9.31
5/5/2021 6:30:00 AM 13.37 56.066 0.119 6.98 6.74 9.33
5/5/2021 6:45:00 AM 13.35 56.03 0.119 7.14 6.84 9.36
5/5/2021 7:00:00 AM 13.33 55.994 0.119 7.17 6.65 9.39
5/5/2021 7:15:00 AM 13.32 55.976 0.067 7.13 7.72 9.44
5/5/2021 7:30:00 AM 13.32 55.976 0.11 7.19 6.84 9.51
5/5/2021 7:45:00 AM 13.32 55.976 0.119 7.22 6.26 9.59
5/5/2021 8:00:00 AM 13.31 55.958 0.117 7.18 8.56 9.63
5/5/2021 8:15:00 AM 13.32 55.976 0.119 7.14 6.2 9.69
5/5/2021 8:30:00 AM 13.36 56.048 0.119 7.27 14.1 9.77
5/5/2021 8:45:00 AM 13.37 56.066 0.115 7.12 12.68 9.82
5/5/2021 9:00:00 AM 13.37 56.066 0.119 7.27 6.24 9.85
5/5/2021 9:15:00 AM 13.36 56.048 0.119 7.31 6.19 9.87
5/5/2021 9:30:00 AM 13.35 56.03 0.119 7.32 6.13 9.89
5/5/2021 9:45:00 AM 13.33 55.994 0.119 7.24 5.9 9.89
5/5/2021 10:00:00 AM 13.31 55.958 0.119 7.29 6.17 9.91
5/5/2021 10:15:00 AM 13.29 55.922 0.118 7.32 6.38 9.96
5/5/2021 10:30:00 AM 13.29 55.922 0.118 7.31 6.2 10.01
5/5/2021 10:45:00 AM 13.29 55.922 0.118 7.12 5.91 10.04
5/5/2021 11:00:00 AM 13.27 55.886 0.118 7.33 5.91 10.04
5/5/2021 11:15:00 AM 13.25 55.85 0.118 7.33 6.14 10.04
5/5/2021 11:30:00 AM 13.22 55.796 0.118 7.37 6.84 10.03
5/5/2021 11:45:00 AM 13.21 55.778 0.118 7.27 7.99 10.07
5/5/2021 12:00:00 PM 13.19 55.742 0.118 7.36 8.6 10.07
5/5/2021 12:15:00 PM 13.16 55.688 0.117 7.37 11.59 10.06
5/5/2021 12:30:00 PM 13.14 55.652 0.117 7.38 8.71 10.08
5/5/2021 12:45:00 PM 13.12 55.616 0.117 7.2 7.8 10.14
5/5/2021 1:00:00 PM 13.11 55.598 0.117 7.38 7.27 10.17
5/5/2021 1:15:00 PM 13.11 55.598 0.117 7.38 8.53 10.22
5/5/2021 1:30:00 PM 13.11 55.598 0.117 7.37 7.04 10.25
5/5/2021 1:45:00 PM 13.12 55.616 0.117 7.43 7.01 10.28
5/5/2021 2:00:00 PM 13.17 55.706 0.117 7.35 7.06 10.33
5/5/2021 2:15:00 PM 13.19 55.742 0.117 7.41 6.97 10.34
5/5/2021 2:30:00 PM 13.2 55.76 0.116 7.47 6.93 10.36
5/5/2021 2:45:00 PM 13.21 55.778 0.117 7.36 7.16 10.34
5/5/2021 3:00:00 PM 13.17 55.706 0.117 7.45 7.91 10.31
5/5/2021 3:15:00 PM 13.14 55.652 0.117 7.36 8.08 10.29
5/5/2021 3:30:00 PM 13.12 55.616 0.117 7.47 8.45 10.3
5/5/2021 3:45:00 PM 13.13 55.634 0.111 7.34 10.6 10.33
5/5/2021 4:00:00 PM 13.15 55.67 0.116 7.49 10.62 10.34
5/5/2021 4:15:00 PM 13.14 55.652 0.116 7.42 10.76 10.34
5/5/2021 4:30:00 PM 13.1 55.58 0.116 7.46 12.14 10.29
5/5/2021 4:45:00 PM 13.06 55.508 0.116 7.48 13.24 10.25
5/5/2021 5:00:00 PM 13.01 55.418 0.112 7.33 13.35 10.21
5/5/2021 5:15:00 PM 12.97 55.346 0.11 7.42 29.36 10.19
5/5/2021 5:30:00 PM 12.92 55.256 0.115 7.37 13.91 10.17
5/5/2021 5:45:00 PM 12.89 55.202 0.114 7.42 14.59 10.17
5/5/2021 6:00:00 PM 12.83 55.094 0.114 7.38 15.63 10.15
5/5/2021 6:15:00 PM 12.78 55.004 0.114 7.39 14.68 10.12
5/5/2021 6:30:00 PM 12.73 54.914 0.113 7.34 14.98 10.09
5/5/2021 6:45:00 PM 12.69 54.842 0.113 7.37 15.02 10.08
5/5/2021 7:00:00 PM 12.62 54.716 0.113 7.34 14.64 10.05
5/5/2021 7:15:00 PM 12.56 54.608 0.112 7.34 14.72 10.02
5/5/2021 7:30:00 PM 12.51 54.518 0.112 7.33 14.38 10
5/5/2021 7:45:00 PM 12.45 54.41 0.112 7.28 13.77 9.97
5/5/2021 8:00:00 PM 12.38 54.284 0.112 7.25 14.08 9.94
5/5/2021 8:15:00 PM 12.31 54.158 0.112 7.27 14.6 9.91
5/5/2021 8:30:00 PM 12.26 54.068 0.111 7.27 13.6 9.89
5/5/2021 8:45:00 PM 12.2 53.96 0.111 7.28 13.57 9.87
5/5/2021 9:00:00 PM 12.15 53.87 0.11 7.27 14.86 9.87
5/5/2021 9:15:00 PM 12.1 53.78 0.112 7.19 13.13 9.87
5/5/2021 9:30:00 PM 12.05 53.69 0.111 7.22 16 9.88
5/5/2021 9:45:00 PM 12 53.6 0.112 7.18 12.48 9.87
5/5/2021 10:00:00 PM 11.96 53.528 0.111 7.15 14.74 9.88
5/5/2021 10:15:00 PM 11.91 53.438 0.112 7.19 12.01 9.88
5/5/2021 10:30:00 PM 11.87 53.366 0.111 7.22 12.63 9.89
5/5/2021 10:45:00 PM 11.82 53.276 0.112 7.15 11.53 9.9
5/5/2021 11:00:00 PM 11.77 53.186 0.111 7.15 13.35 9.91
5/5/2021 11:15:00 PM 11.73 53.114 0.111 7.15 12.82 9.91
5/5/2021 11:30:00 PM 11.69 53.042 0.112 7.06 10.84 9.92
5/5/2021 11:45:00 PM 11.63 52.934 0.112 7.14 10.71 9.93
5/6/2021 12:00:00 AM 11.57 52.826 0.111 7.16 11.41 9.94
5/6/2021 12:15:00 AM 11.52 52.736 0.111 7.18 10.18 9.95
5/6/2021 12:30:00 AM 11.47 52.646 0.111 7.12 10.48 9.96
5/6/2021 12:45:00 AM 11.42 52.556 0.112 7.18 10.42 9.97
5/6/2021 1:00:00 AM 11.36 52.448 0.109 7.15 10.84 9.98
5/6/2021 1:15:00 AM 11.32 52.376 0.112 7.16 10.79 10
5/6/2021 1:30:00 AM 11.27 52.286 0.112 7.17 9.75 10.01
5/6/2021 1:45:00 AM 11.23 52.214 0.11 7.11 10.04 10.01
5/6/2021 2:00:00 AM 11.18 52.124 0.11 7.17 9.52 10.02
5/6/2021 2:15:00 AM 11.14 52.052 0.107 7.13 10.15 10.02
5/6/2021 2:30:00 AM 11.09 51.962 0.101 7.11 9.99 10.03
5/6/2021 2:45:00 AM 11.05 51.89 0.112 7.12 9.06 10.05
5/6/2021 3:00:00 AM 11 51.8 0.112 7.16 9.04 10.06
5/6/2021 3:15:00 AM 10.96 51.728 0.112 7.2 9.18 10.07
5/6/2021 3:30:00 AM 10.92 51.656 0.108 7.18 9.75 10.08
5/6/2021 3:45:00 AM 10.88 51.584 0.108 7.11 9.98 10.09
5/6/2021 4:00:00 AM 10.83 51.494 0.112 7.14 8.44 10.1
5/6/2021 4:15:00 AM 10.79 51.422 0.112 7.2 8.41 10.11
5/6/2021 4:30:00 AM 10.75 51.35 0.112 7.19 8.12 10.11
5/6/2021 4:45:00 AM 10.71 51.278 0.109 7.11 9.34 10.12
5/6/2021 5:00:00 AM 10.67 51.206 0.113 7.15 8.21 10.13
5/6/2021 5:15:00 AM 10.64 51.152 0.113 7.16 8.44 10.15
5/6/2021 5:30:00 AM 10.6 51.08 0.113 7.15 8.08 10.16
5/6/2021 5:45:00 AM 10.57 51.026 0.113 7.14 7.51 10.17
5/6/2021 6:00:00 AM 10.54 50.972 0.113 7.08 7.92 10.18
5/6/2021 6:15:00 AM 10.5 50.9 0.113 7.12 7.56 10.2
5/6/2021 6:30:00 AM 10.47 50.846 0.113 7.11 7.28 10.23
5/6/2021 6:45:00 AM 10.43 50.774 0.113 7.17 7.63 10.29
5/6/2021 7:00:00 AM 10.39 50.702 0.113 7.18 7.25 10.36
5/6/2021 7:15:00 AM 10.36 50.648 0.113 7.19 6.98 10.45
5/6/2021 7:30:00 AM 10.34 50.612 0.113 7.22 7.41 10.53
5/6/2021 7:45:00 AM 10.36 50.648 0.113 7.15 7.38 10.61
5/6/2021 8:00:00 AM 10.37 50.666 0.112 7.23 7.27 10.68
5/6/2021 8:15:00 AM 10.38 50.684 0.113 7.25 7.24 10.73
5/6/2021 8:30:00 AM 10.49 50.882 0.113 7.26 6.71 10.8
5/6/2021 8:45:00 AM 10.67 51.206 0.113 7.26 6.74 10.86
5/6/2021 9:00:00 AM 10.76 51.368 0.113 7.34 6.67 10.87
5/6/2021 9:15:00 AM 10.72 51.296 0.112 7.3 6.87 10.87
5/6/2021 9:30:00 AM 10.68 51.224 0.114 7.36 7.03 10.9
5/6/2021 9:45:00 AM 10.77 51.386 0.114 7.38 6.38 10.92
5/6/2021 10:00:00 AM 10.88 51.584 0.114 7.38 6.9 10.93
5/6/2021 10:15:00 AM 11.03 51.854 0.114 7.37 6.68 10.93
5/6/2021 10:30:00 AM 11.26 52.268 0.114 7.29 6.24 10.95
5/6/2021 10:45:00 AM 11.49 52.682 0.112 7.37 6.82 10.92
5/6/2021 11:00:00 AM 11.77 53.186 0.114 7.38 7.59 10.9
5/6/2021 11:15:00 AM 12.09 53.762 0.114 7.33 6.57 10.88
5/6/2021 11:30:00 AM 12.33 54.194 0.114 7.43 6.14 10.85
5/6/2021 11:45:00 AM 12.54 54.572 0.114 7.42 6.86 10.8
5/6/2021 12:00:00 PM 12.79 55.022 0.107 7.42 7.82 10.78
5/6/2021 12:15:00 PM 13.02 55.436 0.114 7.45 6.75 10.73
5/6/2021 12:30:00 PM 13.29 55.922 0.114 7.43 6.12 10.68
5/6/2021 12:45:00 PM 13.53 56.354 0.114 7.44 6 10.65
5/6/2021 1:00:00 PM 13.8 56.84 0.114 7.5 5.92 10.62
5/6/2021 1:15:00 PM 14.01 57.218 0.114 7.49 5.85 10.56
5/6/2021 1:30:00 PM 14.19 57.542 0.114 7.55 5.87 10.53
5/6/2021 1:45:00 PM 14.32 57.776 0.114 7.5 6.76 10.49
5/6/2021 2:00:00 PM 14.48 58.064 0.114 7.48 6.01 10.45
5/6/2021 2:15:00 PM 14.61 58.298 0.114 7.54 5.8 10.42
5/6/2021 2:30:00 PM 14.75 58.55 0.115 7.57 6.51 10.38
5/6/2021 2:45:00 PM 14.89 58.802 0.115 7.57 5.66 10.32
5/6/2021 3:00:00 PM 15.01 59.018 0.115 7.49 5.75 10.3
5/6/2021 3:15:00 PM 15.19 59.342 0.115 7.58 5.69 10.28
5/6/2021 3:30:00 PM 15.35 59.63 0.115 7.6 5.85 10.26
5/6/2021 3:45:00 PM 15.4 59.72 0.115 7.58 51.78 10.23
5/6/2021 4:00:00 PM 15.41 59.738 0.115 7.58 5.71 10.2
5/6/2021 4:15:00 PM 15.35 59.63 0.115 7.49 5.76 10.17
5/6/2021 4:30:00 PM 15.33 59.594 0.115 7.55 5.92 10.18
5/6/2021 4:45:00 PM 15.27 59.486 0.115 7.6 5.57 10.18
5/6/2021 5:00:00 PM 15.11 59.198 0.115 7.4 5.68 10.15
5/6/2021 5:15:00 PM 14.98 58.964 0.115 7.54 5.62 10.14
5/6/2021 5:30:00 PM 14.88 58.784 0.115 7.55 5.68 10.14
5/6/2021 5:45:00 PM 14.75 58.55 0.116 7.54 5.4 10.13
5/6/2021 6:00:00 PM 14.59 58.262 0.116 7.42 5.66 10.1
5/6/2021 6:15:00 PM 14.45 58.01 0.116 7.49 5.42 10.09
5/6/2021 6:30:00 PM 14.32 57.776 0.115 7.49 7.27 10.06
5/6/2021 6:45:00 PM 14.16 57.488 0.116 7.49 5.53 10.03
5/6/2021 7:00:00 PM 14.01 57.218 0.116 7.31 5.74 10
5/6/2021 7:15:00 PM 13.88 56.984 0.116 7.42 5.83 9.99
5/6/2021 7:30:00 PM 13.75 56.75 0.116 7.42 5.62 9.96
5/6/2021 7:45:00 PM 13.6 56.48 0.116 7.39 5.39 9.9
5/6/2021 8:00:00 PM 13.47 56.246 0.117 7.37 5.89 9.84
5/6/2021 8:15:00 PM 13.33 55.994 0.117 7.22 5.58 9.76
5/6/2021 8:30:00 PM 13.21 55.778 0.117 7.27 8.68 9.7
5/6/2021 8:45:00 PM 13.08 55.544 0.117 7.29 5.49 9.64
5/6/2021 9:00:00 PM 12.96 55.328 0.117 7.17 10.48 9.6
5/6/2021 9:15:00 PM 12.85 55.13 0.117 7.16 5.69 9.58
5/6/2021 9:30:00 PM 12.73 54.914 0.117 7.23 5.71 9.57
5/6/2021 9:45:00 PM 12.62 54.716 0.117 7.12 9.22 9.57
5/6/2021 10:00:00 PM 12.52 54.536 0.118 7.2 5.68 9.58
5/6/2021 10:15:00 PM 12.41 54.338 0.117 7.22 8.54 9.59
5/6/2021 10:30:00 PM 12.31 54.158 0.118 7.19 5.51 9.6
5/6/2021 10:45:00 PM 12.21 53.978 0.114 7.23 6.64 9.62
5/6/2021 11:00:00 PM 12.11 53.798 0.118 7.17 5.52 9.64
5/6/2021 11:15:00 PM 12.01 53.618 0.118 7.2 5.73 9.66
5/6/2021 11:30:00 PM 11.91 53.438 0.118 7.2 6.58 9.68
5/6/2021 11:45:00 PM 11.82 53.276 0.118 7.15 5.46 9.7
5/7/2021 12:00:00 AM 11.72 53.096 0.118 6.89 5.66 9.72
5/7/2021 12:15:00 AM 11.63 52.934 0.119 7.19 5.43 9.74
5/7/2021 12:30:00 AM 11.54 52.772 0.119 7.19 5.49 9.75
5/7/2021 12:45:00 AM 11.45 52.61 0.119 7.18 5.68 9.77
5/7/2021 1:00:00 AM 11.36 52.448 0.119 7.19 5.66 9.79
5/7/2021 1:15:00 AM 11.27 52.286 0.119 7.14 5.78 9.82
5/7/2021 1:30:00 AM 11.18 52.124 0.063 7.09 6.33 9.83
5/7/2021 1:45:00 AM 11.09 51.962 0.119 7.16 5.75 9.85
5/7/2021 2:00:00 AM 11.01 51.818 0.119 7.15 6.02 9.88
5/7/2021 2:15:00 AM 10.92 51.656 0.119 7.05 5.32 9.9
5/7/2021 2:30:00 AM 10.83 51.494 0.119 7.16 5.86 9.92
5/7/2021 2:45:00 AM 10.75 51.35 0.119 7.15 5.4 9.93
5/7/2021 3:00:00 AM 10.67 51.206 0.12 7.15 5.45 9.95
5/7/2021 3:15:00 AM 10.58 51.044 0.12 7.17 5.28 9.97
5/7/2021 3:30:00 AM 10.51 50.918 0.117 7.03 9.57 9.99
5/7/2021 3:45:00 AM 10.43 50.774 0.117 7.18 6.15 10.02
5/7/2021 4:00:00 AM 10.36 50.648 0.119 7.03 5.88 10.03
5/7/2021 4:15:00 AM 10.29 50.522 0.12 7.16 6.2 10.05
5/7/2021 4:30:00 AM 10.21 50.378 0.12 7.13 5.4 10.07
5/7/2021 4:45:00 AM 10.14 50.252 0.12 7.13 5.49 10.09
5/7/2021 5:00:00 AM 10.07 50.126 0.12 7.16 5.58 10.11
5/7/2021 5:15:00 AM 9.99 49.982 0.12 7.15 5.27 10.13
5/7/2021 5:30:00 AM 9.92 49.856 0.12 7.15 5.37 10.15
5/7/2021 5:45:00 AM 9.85 49.73 0.12 7.09 5.26 10.16
5/7/2021 6:00:00 AM 9.77 49.586 0.12 7.05 5.16 10.19
5/7/2021 6:15:00 AM 9.71 49.478 0.121 7.09 5.37 10.24
5/7/2021 6:30:00 AM 9.66 49.388 0.12 7.11 5.15 10.31
5/7/2021 6:45:00 AM 9.61 49.298 0.121 7.16 5.08 10.4
5/7/2021 7:00:00 AM 9.58 49.244 0.12 7 5.1 10.49
5/7/2021 7:15:00 AM 9.56 49.208 0.12 7.14 5.06 10.59
5/7/2021 7:30:00 AM 9.55 49.19 0.12 7.12 5.08 10.69
5/7/2021 7:45:00 AM 9.57 49.226 0.12 7.14 5.13 10.77
5/7/2021 8:00:00 AM 9.61 49.298 0.12 7.16 5.44 10.85
5/7/2021 8:15:00 AM 9.68 49.424 0.12 7.23 5.06 10.92
5/7/2021 8:30:00 AM 9.76 49.568 0.12 7.14 5.05 10.98
5/7/2021 8:45:00 AM 9.86 49.748 0.12 7.21 6.6 11.01
5/7/2021 9:00:00 AM 9.98 49.964 0.12 7.24 5.44 11.04
5/7/2021 9:15:00 AM 10.12 50.216 0.12 7.27 4.96 11.07
5/7/2021 9:30:00 AM 10.3 50.54 0.12 7.32 5.05 11.09
5/7/2021 9:45:00 AM 10.49 50.882 0.12 7.27 4.86 11.09
5/7/2021 10:00:00 AM 10.7 51.26 0.12 7.37 5.22 11.09
5/7/2021 10:15:00 AM 10.87 51.566 0.12 7.4 4.97 11.1
5/7/2021 10:30:00 AM 10.97 51.746 0.12 7.41 4.85 11.08
5/7/2021 10:45:00 AM 10.98 51.764 0.12 7.37 4.78 11.04
5/7/2021 11:00:00 AM 10.99 51.782 0.12 7.43 4.75 11.03
5/7/2021 11:15:00 AM 10.98 51.764 0.12 7.39 4.82 11
5/7/2021 11:30:00 AM 10.96 51.728 0.12 7.45 4.74 10.98
5/7/2021 11:45:00 AM 10.96 51.728 0.12 7.33 4.89 10.96
5/7/2021 12:00:00 PM 10.99 51.782 0.12 7.36 4.9 10.97
5/7/2021 12:15:00 PM 11.01 51.818 0.12 7.46 4.83 10.97
5/7/2021 12:30:00 PM 11.07 51.926 0.12 7.3 4.82 10.99
5/7/2021 12:45:00 PM 11.12 52.016 0.12 7.49 4.91 10.98
5/7/2021 1:00:00 PM 11.2 52.16 0.12 7.43 4.85 10.98
5/7/2021 1:15:00 PM 11.27 52.286 0.12 7.46 4.79 10.98
5/7/2021 1:30:00 PM 11.34 52.412 0.12 7.42 4.77 10.97
5/7/2021 1:45:00 PM 11.39 52.502 0.12 7.47 4.77 10.96
5/7/2021 2:00:00 PM 11.45 52.61 0.12 7.49 4.77 10.97
5/7/2021 2:15:00 PM 11.52 52.736 0.12 7.49 4.74 10.98
5/7/2021 2:30:00 PM 11.58 52.844 0.12 7.51 4.73 10.98
5/7/2021 2:45:00 PM 11.62 52.916 0.12 7.53 4.81 10.94
5/7/2021 3:00:00 PM 11.69 53.042 0.12 7.55 4.81 10.94
5/7/2021 3:15:00 PM 11.72 53.096 0.12 7.54 4.97 10.92
5/7/2021 3:30:00 PM 11.73 53.114 0.038 7.41 6.62 10.89
5/7/2021 3:45:00 PM 11.73 53.114 0.12 7.5 4.84 10.86
5/7/2021 4:00:00 PM 11.73 53.114 0.12 7.43 4.91 10.84
5/7/2021 4:15:00 PM 11.73 53.114 0.12 7.53 4.91 10.81
5/7/2021 4:30:00 PM 11.73 53.114 0.12 7.52 4.79 10.79
5/7/2021 4:45:00 PM 11.72 53.096 0.12 7.41 4.88 10.77
5/7/2021 5:00:00 PM 11.71 53.078 0.12 7.5 4.84 10.75
5/7/2021 5:15:00 PM 11.73 53.114 0.12 7.37 4.82 10.76
5/7/2021 5:30:00 PM 11.74 53.132 0.12 7.44 4.7 10.75
5/7/2021 5:45:00 PM 11.75 53.15 0.12 7.49 5.43 10.75
5/7/2021 6:00:00 PM 11.75 53.15 0.115 7.42 5.36 10.72
5/7/2021 6:15:00 PM 11.73 53.114 0.12 7.44 5.84 10.69
5/7/2021 6:30:00 PM 11.71 53.078 0.119 7.48 6.49 10.66
5/7/2021 6:45:00 PM 11.67 53.006 0.12 7.41 4.74 10.6
5/7/2021 7:00:00 PM 11.62 52.916 0.12 7.32 5.23 10.52
5/7/2021 7:15:00 PM 11.57 52.826 0.12 7.39 4.69 10.44
5/7/2021 7:30:00 PM 11.51 52.718 0.119 7.27 5.12 10.35
5/7/2021 7:45:00 PM 11.46 52.628 0.12 7.16 7.21 10.27
5/7/2021 8:00:00 PM 11.4 52.52 0.117 7.1 6.99 10.18
5/7/2021 8:15:00 PM 11.34 52.412 0.12 7.25 5.62 10.1
5/7/2021 8:30:00 PM 11.29 52.322 0.098 7.2 5.29 10.04
5/7/2021 8:45:00 PM 11.25 52.25 0.12 7.24 4.97 10
5/7/2021 9:00:00 PM 11.21 52.178 0.12 7.13 4.8 9.97
5/7/2021 9:15:00 PM 11.17 52.106 0.12 7.12 4.98 9.95
5/7/2021 9:30:00 PM 11.13 52.034 0.12 7.21 5.11 9.95
5/7/2021 9:45:00 PM 11.1 51.98 0.119 7.19 5.96 9.94
5/7/2021 10:00:00 PM 11.06 51.908 0.119 7.2 5.32 9.94
5/7/2021 10:15:00 PM 11.03 51.854 0.119 7.21 5.55 9.93
5/7/2021 10:30:00 PM 10.99 51.782 0.119 7.11 5.12 9.93
5/7/2021 10:45:00 PM 10.96 51.728 0.119 7.08 5.03 9.94
5/7/2021 11:00:00 PM 10.93 51.674 0.119 7.15 5.26 9.94
5/7/2021 11:15:00 PM 10.89 51.602 0.119 7.14 5.26 9.95
5/7/2021 11:30:00 PM 10.86 51.548 0.119 7.16 5.35 9.95
5/7/2021 11:45:00 PM 10.83 51.494 0.119 7.15 5.52 9.97
5/8/2021 12:00:00 AM 10.8 51.44 0.119 7.16 5.67 9.98
5/8/2021 12:15:00 AM 10.77 51.386 0.119 7.18 5.66 9.99
5/8/2021 12:30:00 AM 10.73 51.314 0.118 7.17 6.6 10.01
5/8/2021 12:45:00 AM 10.71 51.278 0.118 7.21 5.92 10.02
5/8/2021 1:00:00 AM 10.68 51.224 0.114 7.12 13.28 10.04
5/8/2021 1:15:00 AM 10.64 51.152 0.118 7.16 6.24 10.06
5/8/2021 1:30:00 AM 10.59 51.062 0.118 7.17 6.6 10.08
5/8/2021 1:45:00 AM 10.54 50.972 0.118 7.2 7.97 10.11
5/8/2021 2:00:00 AM 10.49 50.882 0.118 7.2 7.47 10.13
5/8/2021 2:15:00 AM 10.44 50.792 0.119 7.23 8.72 10.16
5/8/2021 2:30:00 AM 10.38 50.684 0.119 7.22 10.65 10.21
5/8/2021 2:45:00 AM 10.3 50.54 0.06 7.14 16.15 10.28
5/8/2021 3:00:00 AM 10.21 50.378 0.119 7.22 27.9 10.32
5/8/2021 3:15:00 AM 10.12 50.216 0.119 7.21 71.55 10.38
5/8/2021 3:30:00 AM 10.02 50.036 0.113 7.17 36.07 10.42
5/8/2021 3:45:00 AM 9.92 49.856 0.12 7.23 48.62 10.47
5/8/2021 4:00:00 AM 9.82 49.676 0.119 7.24 88.45 10.51
5/8/2021 4:15:00 AM 9.74 49.532 0.117 7.21 94.27 10.57
5/8/2021 4:30:00 AM 9.64 49.352 0.08 7.14 98.49 10.62
5/8/2021 4:45:00 AM 9.53 49.154 0.112 7.1 113.59 10.7
5/8/2021 5:00:00 AM 9.42 48.956 0.108 7.05 149.56 10.76
5/8/2021 5:15:00 AM 9.32 48.776 0.105 7.07 203.46 10.83
5/8/2021 5:30:00 AM 9.23 48.614 0.101 7.06 267.21 10.88
5/8/2021 5:45:00 AM 9.17 48.506 0.098 7.07 314.21 10.91
5/8/2021 6:00:00 AM 9.11 48.398 0.095 6.86 254.23 10.95
5/8/2021 6:15:00 AM 9.06 48.308 0.093 6.83 304.94 10.98
5/8/2021 6:30:00 AM 9.02 48.236 0.09 6.84 263.62 11.01
5/8/2021 6:45:00 AM 8.99 48.182 0.088 6.89 234.32 11.02
5/8/2021 7:00:00 AM 8.95 48.11 0.086 6.72 242.47 11.03
5/8/2021 7:15:00 AM 8.92 48.056 0.084 6.74 222.3 11.04
5/8/2021 7:30:00 AM 8.91 48.038 0.083 6.88 225.63 11.05
5/8/2021 7:45:00 AM 8.9 48.02 0.082 6.87 217.61 11.05
5/8/2021 8:00:00 AM 8.91 48.038 0.081 6.89 196.93 11.06
5/8/2021 8:15:00 AM 8.91 48.038 0.08 6.9 195.27 11.06
5/8/2021 8:30:00 AM 8.91 48.038 0.079 6.79 163 11.06
5/8/2021 8:45:00 AM 8.91 48.038 0.079 6.96 179.69 11.07
5/8/2021 9:00:00 AM 8.9 48.02 0.078 6.89 150.86 11.07
5/8/2021 9:15:00 AM 8.91 48.038 0.076 6.81 167.12 11.06
5/8/2021 9:30:00 AM 8.95 48.11 0.061 6.95 135.74 11.07
5/8/2021 9:45:00 AM 9.04 48.272 0.078 7.09 58.21 11.05
5/8/2021 10:00:00 AM 9.08 48.344 0.078 6.91 129.04 11.04
5/8/2021 10:15:00 AM 9.11 48.398 0.077 6.98 122.17 11.02
5/8/2021 10:30:00 AM 9.17 48.506 0.077 7.04 123.95 11.01
5/8/2021 10:45:00 AM 9.21 48.578 0.078 6.93 114 11
5/8/2021 11:00:00 AM 9.31 48.758 0.078 7.09 104.76 10.98
5/8/2021 11:15:00 AM 9.43 48.974 0.073 7 114.99 10.98
5/8/2021 11:30:00 AM 9.49 49.082 0.075 6.94 86.41 10.96
5/8/2021 11:45:00 AM 9.59 49.262 0.08 7.14 126.23 10.93
5/8/2021 12:00:00 PM 9.62 49.316 0.08 7.14 70.09 10.92
5/8/2021 12:15:00 PM 9.65 49.37 0.081 7.12 79.46 10.9
5/8/2021 12:30:00 PM 9.78 49.604 0.081 7.16 66.05 10.9
5/8/2021 12:45:00 PM 9.85 49.73 0.081 7.08 63.49 10.88
5/8/2021 1:00:00 PM 9.89 49.802 0.082 7.15 61.52 10.88
5/8/2021 1:15:00 PM 9.97 49.946 0.083 7.11 48.09 10.85
5/8/2021 1:30:00 PM 10.04 50.072 0.083 7.19 47.32 10.84
5/8/2021 1:45:00 PM 10.05 50.09 0.083 7.13 42.94 10.83
5/8/2021 2:00:00 PM 10.05 50.09 0.084 7.13 41.59 10.8
5/8/2021 2:15:00 PM 10.08 50.144 0.084 7.23 40.96 10.79
5/8/2021 2:30:00 PM 10.18 50.324 0.085 7.24 58.75 10.79
5/8/2021 2:45:00 PM 10.22 50.396 0.085 7.22 39.03 10.79
5/8/2021 3:00:00 PM 10.33 50.594 0.086 7.24 34.25 10.77
5/8/2021 3:15:00 PM 10.34 50.612 0.086 7.09 29.09 10.76
5/8/2021 3:30:00 PM 10.31 50.558 0.086 7.23 31.34 10.73
5/8/2021 3:45:00 PM 10.33 50.594 0.087 7.25 29.44 10.73
5/8/2021 4:00:00 PM 10.36 50.648 0.082 7.23 24.38 10.74
5/8/2021 4:15:00 PM 10.41 50.738 0.088 7.25 33.41 10.74
5/8/2021 4:30:00 PM 10.48 50.864 0.088 7.26 30.5 10.73
5/8/2021 4:45:00 PM 10.52 50.936 0.088 7.18 25.59 10.72
5/8/2021 5:00:00 PM 10.57 51.026 0.089 7.25 25.36 10.7
5/8/2021 5:15:00 PM 10.66 51.188 0.089 7.18 29.13 10.7
5/8/2021 5:30:00 PM 10.74 51.332 0.089 7.11 19.55 10.7
5/8/2021 5:45:00 PM 10.72 51.296 0.09 7.23 28.72 10.69
5/8/2021 6:00:00 PM 10.71 51.278 0.09 7.2 27.99 10.68
5/8/2021 6:15:00 PM 10.67 51.206 0.09 7.16 23.38 10.67
5/8/2021 6:30:00 PM 10.63 51.134 0.091 7.19 30.24 10.66
5/8/2021 6:45:00 PM 10.56 51.008 0.091 7.24 24.14 10.64
5/8/2021 7:00:00 PM 10.51 50.918 0.091 7.15 46.25 10.64
5/8/2021 7:15:00 PM 10.45 50.81 0.092 7.22 23.01 10.62
5/8/2021 7:30:00 PM 10.41 50.738 0.092 7.22 19.45 10.6
5/8/2021 7:45:00 PM 10.35 50.63 0.092 7.19 29.15 10.59
5/8/2021 8:00:00 PM 10.29 50.522 0.092 7.2 25.19 10.58
5/8/2021 8:15:00 PM 10.21 50.378 0.093 7.21 19.38 10.58
5/8/2021 8:30:00 PM 10.15 50.27 0.093 7.14 23.43 10.57
5/8/2021 8:45:00 PM 10.08 50.144 0.093 7.18 21.71 10.58
5/8/2021 9:00:00 PM 10.01 50.018 0.094 7.17 22.06 10.58
5/8/2021 9:15:00 PM 9.93 49.874 0.094 7.04 18.71 10.59
5/8/2021 9:30:00 PM 9.85 49.73 0.094 7.14 20.43 10.61
5/8/2021 9:45:00 PM 9.77 49.586 0.094 7.11 19.53 10.62
5/8/2021 10:00:00 PM 9.69 49.442 0.095 7.13 17.51 10.64
5/8/2021 10:15:00 PM 9.62 49.316 0.095 7.01 18.32 10.65
5/8/2021 10:30:00 PM 9.56 49.208 0.095 7.03 14.87 10.66
5/8/2021 10:45:00 PM 9.49 49.082 0.095 7.04 17.51 10.68
5/8/2021 11:00:00 PM 9.43 48.974 0.095 7.13 17.21 10.7
5/8/2021 11:15:00 PM 9.39 48.902 0.096 7.11 23.77 10.72
5/8/2021 11:30:00 PM 9.34 48.812 0.096 7.15 17.01 10.73
5/8/2021 11:45:00 PM 9.29 48.722 0.096 7.16 19.66 10.75
5/9/2021 12:00:00 AM 9.23 48.614 0.096 7.15 19.27 10.76
5/9/2021 12:15:00 AM 9.16 48.488 0.096 7.14 17.65 10.76
5/9/2021 12:30:00 AM 9.1 48.38 0.096 7.15 16.35 10.78
5/9/2021 12:45:00 AM 9.04 48.272 0.097 7.14 15.14 10.8
5/9/2021 1:00:00 AM 8.99 48.182 0.097 7.12 15.94 10.82
5/9/2021 1:15:00 AM 8.93 48.074 0.097 7.11 16.69 10.83
5/9/2021 1:30:00 AM 8.87 47.966 0.097 7.1 16.67 10.85
5/9/2021 1:45:00 AM 8.81 47.858 0.097 7.1 15.35 10.87
5/9/2021 2:00:00 AM 8.76 47.768 0.097 7.08 16.6 10.88
5/9/2021 2:15:00 AM 8.7 47.66 0.098 7.09 15.05 10.89
5/9/2021 2:30:00 AM 8.64 47.552 0.098 7.09 15.35 10.9
5/9/2021 2:45:00 AM 8.59 47.462 0.098 7.08 14.09 10.93
5/9/2021 3:00:00 AM 8.55 47.39 0.098 7.01 15.1 10.93
5/9/2021 3:15:00 AM 8.51 47.318 0.098 7.05 13.64 10.95
5/9/2021 3:30:00 AM 8.44 47.192 0.098 6.91 14.03 10.97
5/9/2021 3:45:00 AM 8.37 47.066 0.098 6.96 13.19 10.98
5/9/2021 4:00:00 AM 8.31 46.958 0.098 7.04 13.69 11
5/9/2021 4:15:00 AM 8.26 46.868 0.098 6.91 13.78 11.01
5/9/2021 4:30:00 AM 8.2 46.76 0.099 7.03 12.91 11.03
5/9/2021 4:45:00 AM 8.14 46.652 0.099 7.04 12.9 11.04
5/9/2021 5:00:00 AM 8.09 46.562 0.099 6.86 12.61 11.06
5/9/2021 5:15:00 AM 8.03 46.454 0.099 7.03 13.44 11.08
5/9/2021 5:30:00 AM 7.98 46.364 0.099 6.94 12.5 11.1
5/9/2021 5:45:00 AM 7.93 46.274 0.099 7.03 12.31 11.11
5/9/2021 6:00:00 AM 7.89 46.202 0.099 6.9 12.25 11.14
5/9/2021 6:15:00 AM 7.85 46.13 0.099 7.03 12.61 11.16
5/9/2021 6:30:00 AM 7.82 46.076 0.099 7.05 12.42 11.2
5/9/2021 6:45:00 AM 7.8 46.04 0.099 7.05 12.33 11.23
5/9/2021 7:00:00 AM 7.79 46.022 0.099 7.05 12.54 11.27
5/9/2021 7:15:00 AM 7.79 46.022 0.099 7.06 12.32 11.31
5/9/2021 7:30:00 AM 7.82 46.076 0.099 7.09 12.2 11.35
5/9/2021 7:45:00 AM 7.85 46.13 0.099 7.12 11.37 11.38
5/9/2021 8:00:00 AM 7.91 46.238 0.099 7.14 12 11.4
5/9/2021 8:15:00 AM 8.01 46.418 0.099 7.13 10.87 11.41
5/9/2021 8:30:00 AM 8.11 46.598 0.099 7.17 11.01 11.42
5/9/2021 8:45:00 AM 8.19 46.742 0.099 7.21 10.57 11.42
5/9/2021 9:00:00 AM 8.28 46.904 0.099 7.23 10.54 11.43
5/9/2021 9:15:00 AM 8.4 47.12 0.099 7.25 9.85 11.43
5/9/2021 9:30:00 AM 8.56 47.408 0.099 7.27 10.85 11.41
5/9/2021 9:45:00 AM 8.68 47.624 0.099 7.29 9.74 11.4
5/9/2021 10:00:00 AM 8.83 47.894 0.099 7.3 10.26 11.37
5/9/2021 10:15:00 AM 8.99 48.182 0.099 7.31 10.54 11.35
5/9/2021 10:30:00 AM 9.13 48.434 0.099 7.33 10.57 11.32
5/9/2021 10:45:00 AM 9.23 48.614 0.099 7.29 10.03 11.29
5/9/2021 11:00:00 AM 9.35 48.83 0.099 7.29 9.87 11.27
5/9/2021 11:15:00 AM 9.47 49.046 0.099 7.27 9.62 11.25
5/9/2021 11:30:00 AM 9.57 49.226 0.099 7.33 9.86 11.22
5/9/2021 11:45:00 AM 9.68 49.424 0.1 7.35 9.39 11.2
5/9/2021 12:00:00 PM 9.8 49.64 0.099 7.35 9.87 11.18
5/9/2021 12:15:00 PM 9.9 49.82 0.099 7.36 9.29 11.16
5/9/2021 12:30:00 PM 10.03 50.054 0.099 7.37 9.34 11.13
5/9/2021 12:45:00 PM 10.16 50.288 0.099 7.38 9.24 11.1
5/9/2021 1:00:00 PM 10.23 50.414 0.1 7.23 9.47 11.07
5/9/2021 1:15:00 PM 10.29 50.522 0.1 7.24 9.62 11.05
5/9/2021 1:30:00 PM 10.34 50.612 0.1 7.32 9.59 11.02
5/9/2021 1:45:00 PM 10.38 50.684 0.1 7.34 9.99 11
5/9/2021 2:00:00 PM 10.4 50.72 0.1 7.38 9.18 10.97
5/9/2021 2:15:00 PM 10.36 50.648 0.1 7.37 9.34 10.93
5/9/2021 2:30:00 PM 10.33 50.594 0.1 7.37 9.22 10.89
5/9/2021 2:45:00 PM 10.3 50.54 0.1 7.36 9.44 10.88
5/9/2021 3:00:00 PM 10.3 50.54 0.1 7.37 8.98 10.9
5/9/2021 3:15:00 PM 10.31 50.558 0.099 7.37 9.18 10.91
5/9/2021 3:30:00 PM 10.31 50.558 0.099 7.37 9.51 10.9
5/9/2021 3:45:00 PM 10.28 50.504 0.099 7.19 9.47 10.89
5/9/2021 4:00:00 PM 10.24 50.432 0.099 7.34 9.51 10.87
5/9/2021 4:15:00 PM 10.2 50.36 0.099 7.34 9.07 10.85
5/9/2021 4:30:00 PM 10.16 50.288 0.099 7.34 9.34 10.83
5/9/2021 4:45:00 PM 10.14 50.252 0.099 7.33 9.23 10.82
5/9/2021 5:00:00 PM 10.11 50.198 0.099 7.32 8.91 10.8
5/9/2021 5:15:00 PM 10.07 50.126 0.099 7.14 9.72 10.79
5/9/2021 5:30:00 PM 10.04 50.072 0.099 7.3 9.34 10.78
5/9/2021 5:45:00 PM 10 50 0.099 7.31 9.04 10.77
5/9/2021 6:00:00 PM 9.95 49.91 0.099 7.3 9.6 10.77
5/9/2021 6:15:00 PM 9.92 49.856 0.099 7.12 9.96 10.77
5/9/2021 6:30:00 PM 9.87 49.766 0.099 7.29 9.93 10.76
5/9/2021 6:45:00 PM 9.82 49.676 0.099 7.28 10.17 10.75
5/9/2021 7:00:00 PM 9.77 49.586 0.099 7.28 10.72 10.75
5/9/2021 7:15:00 PM 9.7 49.46 0.099 7.27 11.36 10.74
5/9/2021 7:30:00 PM 9.64 49.352 0.099 7.27 12.8 10.74
5/9/2021 7:45:00 PM 9.57 49.226 0.099 7.26 15.08 10.74
5/9/2021 8:00:00 PM 9.5 49.1 0.099 7.27 15.88 10.75
5/9/2021 8:15:00 PM 9.41 48.938 0.099 7.26 20.95 10.77
5/9/2021 8:30:00 PM 9.32 48.776 0.099 7.26 36.15 10.81
5/9/2021 8:45:00 PM 9.22 48.596 0.098 7.27 42.27 10.84
5/9/2021 9:00:00 PM 9.11 48.398 0.098 7.26 49.57 10.89
5/9/2021 9:15:00 PM 9 48.2 0.097 7.26 46.88 10.95
5/9/2021 9:30:00 PM 8.9 48.02 0.096 7.24 56.72 10.99
5/9/2021 9:45:00 PM 8.81 47.858 0.095 7.23 50.44 11.02
5/9/2021 10:00:00 PM 8.73 47.714 0.094 7.09 67.95 11.06
5/9/2021 10:15:00 PM 8.65 47.57 0.093 7.21 67.4 11.08
5/9/2021 10:30:00 PM 8.59 47.462 0.092 7.16 68.79 11.1
5/9/2021 10:45:00 PM 8.53 47.354 0.091 7.04 77.55 11.13
5/9/2021 11:00:00 PM 8.48 47.264 0.09 7.12 98.15 11.14
5/9/2021 11:15:00 PM 8.44 47.192 0.089 7.17 85.66 11.16
5/9/2021 11:30:00 PM 8.41 47.138 0.088 7.17 91.34 11.16
5/9/2021 11:45:00 PM 8.37 47.066 0.087 7.15 77.23 11.17
5/10/2021 12:00:00 AM 8.34 47.012 0.086 7.16 109.24 11.19
5/10/2021 12:15:00 AM 8.31 46.958 0.085 7.14 93.1 11.19
5/10/2021 12:30:00 AM 8.28 46.904 0.085 7.09 107.18 11.2
5/10/2021 12:45:00 AM 8.25 46.85 0.084 7.08 107.04 11.22
5/10/2021 1:00:00 AM 8.23 46.814 0.083 7.05 111.82 11.23
5/10/2021 1:15:00 AM 8.21 46.778 0.082 7.07 135.07 11.25
5/10/2021 1:30:00 AM 8.19 46.742 0.081 7.01 122.37 11.26
5/10/2021 1:45:00 AM 8.17 46.706 0.08 6.86 148.51 11.27
5/10/2021 2:00:00 AM 8.15 46.67 0.076 6.84 161.88 11.28
5/10/2021 2:15:00 AM 8.14 46.652 0.078 7.02 173 11.28
5/10/2021 2:30:00 AM 8.14 46.652 0.078 6.99 148.76 11.29
5/10/2021 2:45:00 AM 8.13 46.634 0.077 7.02 196.48 11.28
5/10/2021 3:00:00 AM 8.12 46.616 0.076 6.95 170.9 11.29
5/10/2021 3:15:00 AM 8.11 46.598 0.076 6.99 178.71 11.29
5/10/2021 3:30:00 AM 8.11 46.598 0.075 6.91 177.71 11.28
5/10/2021 3:45:00 AM 8.1 46.58 0.075 6.91 155.98 11.29
5/10/2021 4:00:00 AM 8.1 46.58 0.074 6.91 146.04 11.28
5/10/2021 4:15:00 AM 8.09 46.562 0.074 6.9 129.38 11.28
5/10/2021 4:30:00 AM 8.09 46.562 0.074 6.91 153.98 11.28
5/10/2021 4:45:00 AM 8.09 46.562 0.074 6.92 170.12 11.28
5/10/2021 5:00:00 AM 8.08 46.544 0.074 6.95 123.22 11.28
5/10/2021 5:15:00 AM 8.08 46.544 0.074 6.89 96.48 11.28
5/10/2021 5:30:00 AM 8.08 46.544 0.074 6.92 106.24 11.28
5/10/2021 5:45:00 AM 8.07 46.526 0.074 6.96 118.8 11.28
5/10/2021 6:00:00 AM 8.07 46.526 0.074 6.98 133.85 11.28
5/10/2021 6:15:00 AM 8.06 46.508 0.075 6.69 90.7 11.28
5/10/2021 6:30:00 AM 8.06 46.508 0.075 6.9 90.62 11.27
5/10/2021 6:45:00 AM 8.06 46.508 0.075 6.98 78.99 11.28
5/10/2021 7:00:00 AM 8.06 46.508 0.075 6.86 64.63 11.28
5/10/2021 7:15:00 AM 8.06 46.508 0.076 6.97 83.88 11.28
5/10/2021 7:30:00 AM 8.07 46.526 0.076 6.96 67.94 11.28
5/10/2021 7:45:00 AM 8.08 46.544 0.076 7 55.19 11.28
5/10/2021 8:00:00 AM 8.09 46.562 0.077 7.02 60.02 11.28
5/10/2021 8:15:00 AM 8.13 46.634 0.077 7.03 75.6 11.29
5/10/2021 8:30:00 AM 8.19 46.742 0.077 6.89 49.31 11.29
5/10/2021 8:45:00 AM 8.2 46.76 0.078 7.01 52.9 11.29
5/10/2021 9:00:00 AM 8.21 46.778 0.078 7.06 55.66 11.28
5/10/2021 9:15:00 AM 8.24 46.832 0.078 7.04 51.82 11.28
5/10/2021 9:30:00 AM 8.27 46.886 0.079 7.04 37.39 11.28
5/10/2021 9:45:00 AM 8.29 46.922 0.079 6.9 72.11 11.28
5/10/2021 10:00:00 AM 8.34 47.012 0.079 7.08 47.24 11.27
5/10/2021 10:15:00 AM 8.41 47.138 0.08 7.08 38.08 11.27
5/10/2021 10:30:00 AM 8.5 47.3 0.08 6.93 36.62 11.27
5/10/2021 10:45:00 AM 8.58 47.444 0.08 7.09 45.93 11.27
5/10/2021 11:00:00 AM 8.61 47.498 0.081 7.05 45.73 11.26
5/10/2021 11:15:00 AM 8.71 47.678 0.081 7.1 34.37 11.26
5/10/2021 11:30:00 AM 8.84 47.912 0.081 7.05 27.54 11.25
5/10/2021 11:45:00 AM 8.99 48.182 0.082 7.07 28.35 11.23
5/10/2021 12:00:00 PM 9.12 48.416 0.079 7.14 25.14 11.22
5/10/2021 12:15:00 PM 9.21 48.578 0.082 7.15 27.32 11.2
5/10/2021 12:30:00 PM 9.28 48.704 0.083 7.13 29.65 11.18
5/10/2021 12:45:00 PM 9.33 48.794 0.083 7.17 34.4 11.16
5/10/2021 1:00:00 PM 9.42 48.956 0.083 7.18 29.36 11.14
5/10/2021 1:15:00 PM 9.43 48.974 0.083 7.19 34.41 11.11
5/10/2021 1:30:00 PM 9.51 49.118 0.084 7.19 27.4 11.1
5/10/2021 1:45:00 PM 9.49 49.082 0.084 7.2 27.24 11.07
5/10/2021 2:00:00 PM 9.6 49.28 0.084 7.2 27.42 11.06
5/10/2021 2:15:00 PM 9.92 49.856 0.084 7.21 21.55 11.04
5/10/2021 2:30:00 PM 10.15 50.27 0.085 7.22 26 11
5/10/2021 2:45:00 PM 10.25 50.45 0.085 7.19 25.19 10.97
5/10/2021 3:00:00 PM 10.28 50.504 0.085 7.22 26.45 10.95
5/10/2021 3:15:00 PM 10.37 50.666 0.085 7.19 26.92 10.94
5/10/2021 3:30:00 PM 10.66 51.188 0.085 7.09 285.53 10.9
5/10/2021 3:45:00 PM 10.74 51.332 0.086 7.22 20.62 10.85
5/10/2021 4:00:00 PM 10.79 51.422 0.086 7.22 22.43 10.81
5/10/2021 4:15:00 PM 10.74 51.332 0.086 7.22 25.63 10.79
5/10/2021 4:30:00 PM 10.76 51.368 0.086 7.24 19.12 10.77
5/10/2021 4:45:00 PM 10.76 51.368 0.086 7.21 20.62 10.75
5/10/2021 5:00:00 PM 10.73 51.314 0.086 7 22.19 10.73
5/10/2021 5:15:00 PM 10.71 51.278 0.087 7.22 22.57 10.72
5/10/2021 5:30:00 PM 10.73 51.314 0.087 7.16 22.84 10.72
5/10/2021 5:45:00 PM 10.78 51.404 0.087 7.22 17.78 10.72
5/10/2021 6:00:00 PM 10.8 51.44 0.087 7.23 18.67 10.71
5/10/2021 6:15:00 PM 10.81 51.458 0.087 7.18 19.85 10.69
5/10/2021 6:30:00 PM 10.75 51.35 0.087 7.23 18.09 10.69
5/10/2021 6:45:00 PM 10.71 51.278 0.087 7.22 20.26 10.67
5/10/2021 7:00:00 PM 10.63 51.134 0.088 7.2 19.3 10.67
5/10/2021 7:15:00 PM 10.56 51.008 0.088 7.2 19.85 10.65
5/10/2021 7:30:00 PM 10.5 50.9 0.088 7.15 19.59 10.65
5/10/2021 7:45:00 PM 10.41 50.738 0.088 7.17 20.69 10.65
5/10/2021 8:00:00 PM 10.31 50.558 0.088 7.17 18.97 10.64
5/10/2021 8:15:00 PM 10.22 50.396 0.088 7.18 18.77 10.63
5/10/2021 8:30:00 PM 10.13 50.234 0.089 7.17 14.65 10.63
5/10/2021 8:45:00 PM 10.04 50.072 0.089 7.18 20.09 10.63
5/10/2021 9:00:00 PM 9.95 49.91 0.089 7.16 19.92 10.64
5/10/2021 9:15:00 PM 9.85 49.73 0.089 7.15 18.38 10.66
5/10/2021 9:30:00 PM 9.76 49.568 0.089 7.14 16.97 10.68
5/10/2021 9:45:00 PM 9.66 49.388 0.089 7.14 17.55 10.7
5/10/2021 10:00:00 PM 9.57 49.226 0.089 7.14 16.78 10.71
5/10/2021 10:15:00 PM 9.49 49.082 0.089 7.13 17.2 10.73
5/10/2021 10:30:00 PM 9.41 48.938 0.089 7.13 17.64 10.76
5/10/2021 10:45:00 PM 9.33 48.794 0.09 7.14 16.52 10.78
5/10/2021 11:00:00 PM 9.26 48.668 0.09 7.12 16.1 10.8
5/10/2021 11:15:00 PM 9.18 48.524 0.09 7.12 16.71 10.82
5/10/2021 11:30:00 PM 9.11 48.398 0.09 7.12 16.86 10.84
5/10/2021 11:45:00 PM 9.04 48.272 0.09 7.11 16.13 10.86
5/11/2021 12:00:00 AM 8.96 48.128 0.09 7.11 15.85 10.88
5/11/2021 12:15:00 AM 8.9 48.02 0.09 7.12 16.23 10.9
5/11/2021 12:30:00 AM 8.83 47.894 0.09 7.12 15.63 10.91
5/11/2021 12:45:00 AM 8.77 47.786 0.09 7.12 16.67 10.92
5/11/2021 1:00:00 AM 8.71 47.678 0.09 7.12 16.43 10.95
5/11/2021 1:15:00 AM 8.66 47.588 0.09 7.11 15.74 10.96
5/11/2021 1:30:00 AM 8.6 47.48 0.091 7.1 14.69 10.97
5/11/2021 1:45:00 AM 8.55 47.39 0.091 7.11 14.94 10.99
5/11/2021 2:00:00 AM 8.51 47.318 0.091 7.12 14.95 11
5/11/2021 2:15:00 AM 8.47 47.246 0.091 7.11 14.15 11.02
5/11/2021 2:30:00 AM 8.43 47.174 0.091 7.1 14.64 11.03
5/11/2021 2:45:00 AM 8.4 47.12 0.091 7.11 15.31 11.05
5/11/2021 3:00:00 AM 8.36 47.048 0.091 7.1 14.4 11.05
5/11/2021 3:15:00 AM 8.32 46.976 0.091 7.11 14.29 11.07
5/11/2021 3:30:00 AM 8.28 46.904 0.091 7.09 14.89 11.07
5/11/2021 3:45:00 AM 8.23 46.814 0.091 7.1 14.56 11.08
5/11/2021 4:00:00 AM 8.18 46.724 0.091 7.1 14.65 11.09
5/11/2021 4:15:00 AM 8.12 46.616 0.091 7.08 14.22 11.1
5/11/2021 4:30:00 AM 8.07 46.526 0.092 7.09 13.42 11.12
5/11/2021 4:45:00 AM 8.02 46.436 0.092 7.07 15.4 11.14
5/11/2021 5:00:00 AM 7.96 46.328 0.092 7.07 14.43 11.15
5/11/2021 5:15:00 AM 7.91 46.238 0.092 7.06 14.77 11.17
5/11/2021 5:30:00 AM 7.86 46.148 0.092 7.05 15.1 11.18
5/11/2021 5:45:00 AM 7.8 46.04 0.092 7.04 13.46 11.19
5/11/2021 6:00:00 AM 7.76 45.968 0.092 7.05 15.84 11.21
5/11/2021 6:15:00 AM 7.71 45.878 0.092 7.05 13.99 11.23
5/11/2021 6:30:00 AM 7.67 45.806 0.092 7.05 13.54 11.26
5/11/2021 6:45:00 AM 7.64 45.752 0.092 7.06 12.35 11.29
5/11/2021 7:00:00 AM 7.63 45.734 0.092 7.05 13.49 11.33
5/11/2021 7:15:00 AM 7.63 45.734 0.092 7.08 15.41 11.36
5/11/2021 7:30:00 AM 7.65 45.77 0.092 7.07 12.42 11.39
5/11/2021 7:45:00 AM 7.68 45.824 0.092 7.09 12.88 11.41
5/11/2021 8:00:00 AM 7.73 45.914 0.092 7.09 12.6 11.43
5/11/2021 8:15:00 AM 7.79 46.022 0.092 7.12 12.47 11.45
5/11/2021 8:30:00 AM 7.87 46.166 0.092 7.11 11.64 11.46
5/11/2021 8:45:00 AM 7.96 46.328 0.093 7.13 11.53 11.47
5/11/2021 9:00:00 AM 8.07 46.526 0.093 7.16 11.97 11.47
5/11/2021 9:15:00 AM 8.19 46.742 0.093 7.17 11.23 11.46
5/11/2021 9:30:00 AM 8.34 47.012 0.093 7.2 11.37 11.45
5/11/2021 9:45:00 AM 8.51 47.318 0.093 7.22 10.86 11.44
5/11/2021 10:00:00 AM 8.7 47.66 0.093 7.23 12.27 11.41
5/11/2021 10:15:00 AM 8.9 48.02 0.093 7.24 11.52 11.39
5/11/2021 10:30:00 AM 9.12 48.416 0.093 7.25 11.25 11.35
5/11/2021 10:45:00 AM 9.28 48.704 0.093 7.25 11.33 11.3
5/11/2021 11:00:00 AM 9.4 48.92 0.093 7.26 11.36 11.24
5/11/2021 11:15:00 AM 9.53 49.154 0.093 7.28 11.27 11.21
5/11/2021 11:30:00 AM 9.59 49.262 0.093 7.28 11.06 11.16
5/11/2021 11:45:00 AM 9.66 49.388 0.093 7.27 10.78 11.13
5/11/2021 12:00:00 PM 9.72 49.496 0.093 7.28 10.52 11.11
5/11/2021 12:15:00 PM 9.78 49.604 0.093 7.28 10.56 11.09
5/11/2021 12:30:00 PM 9.81 49.658 0.093 7.3 10.4 11.08
5/11/2021 12:45:00 PM 9.92 49.856 0.093 7.28 10.36 11.08
5/11/2021 1:00:00 PM 10.03 50.054 0.093 7.3 10.03 11.07
5/11/2021 1:15:00 PM 10.08 50.144 0.093 7.3 10.43 11.05
5/11/2021 1:30:00 PM 10.15 50.27 0.093 7.29 10.1 11.04
5/11/2021 1:45:00 PM 10.37 50.666 0.093 7.3 10.01 11.03
5/11/2021 2:00:00 PM 10.69 51.242 0.093 7.31 10.04 10.98
5/11/2021 2:15:00 PM 10.86 51.548 0.093 7.32 10.11 10.94
5/11/2021 2:30:00 PM 10.98 51.764 0.093 7.31 10 10.9
5/11/2021 2:45:00 PM 11.03 51.854 0.093 7.32 9.96 10.88
5/11/2021 3:00:00 PM 11.22 52.196 0.093 7.33 10.05 10.85
5/11/2021 3:15:00 PM 11.22 52.196 0.093 7.33 10.5 10.83
5/11/2021 3:30:00 PM 11.29 52.322 0.093 7.33 9.91 10.81
5/11/2021 3:45:00 PM 11.37 52.466 0.093 7.31 9.17 10.76
5/11/2021 4:00:00 PM 11.27 52.286 0.093 7.32 11.78 10.73
5/11/2021 4:15:00 PM 11.27 52.286 0.094 7.31 10.23 10.72
5/11/2021 4:30:00 PM 11.25 52.25 0.094 7.32 10.47 10.71
5/11/2021 4:45:00 PM 11.24 52.232 0.094 7.32 10.16 10.69
5/11/2021 5:00:00 PM 11.25 52.25 0.094 7.31 9.18 10.69
5/11/2021 5:15:00 PM 11.25 52.25 0.094 7.31 9.81 10.67
5/11/2021 5:30:00 PM 11.2 52.16 0.094 7.31 9.75 10.65
5/11/2021 5:45:00 PM 11.16 52.088 0.094 7.29 9.11 10.65
5/11/2021 6:00:00 PM 11.07 51.926 0.094 7.3 9.86 10.66
5/11/2021 6:15:00 PM 10.98 51.764 0.094 7.3 10 10.67
5/11/2021 6:30:00 PM 10.91 51.638 0.094 7.29 9.48 10.67
5/11/2021 6:45:00 PM 10.79 51.422 0.094 7.29 9.31 10.66
5/11/2021 7:00:00 PM 10.66 51.188 0.095 7.27 9.42 10.65
5/11/2021 7:15:00 PM 10.57 51.026 0.095 7.27 9.98 10.65
5/11/2021 7:30:00 PM 10.44 50.792 0.095 7.27 9.44 10.64
5/11/2021 7:45:00 PM 10.33 50.594 0.095 7.25 9.96 10.62
5/11/2021 8:00:00 PM 10.22 50.396 0.095 7.24 9.65 10.62
5/11/2021 8:15:00 PM 10.11 50.198 0.095 7.23 9.15 10.62
5/11/2021 8:30:00 PM 10.01 50.018 0.095 7.21 9.3 10.61
5/11/2021 8:45:00 PM 9.91 49.838 0.095 7.21 9.18 10.61
5/11/2021 9:00:00 PM 9.82 49.676 0.095 7.21 9.79 10.62
5/11/2021 9:15:00 PM 9.7 49.46 0.096 7.19 9.4 10.64
5/11/2021 9:30:00 PM 9.61 49.298 0.096 7.19 9.4 10.65
5/11/2021 9:45:00 PM 9.54 49.172 0.096 7.2 9.67 10.67
5/11/2021 10:00:00 PM 9.47 49.046 0.096 7.18 9.31 10.68
5/11/2021 10:15:00 PM 9.4 48.92 0.096 7.18 9.05 10.7
5/11/2021 10:30:00 PM 9.33 48.794 0.096 7.18 9.85 10.72
5/11/2021 10:45:00 PM 9.26 48.668 0.096 7.18 9.55 10.74
5/11/2021 11:00:00 PM 9.19 48.542 0.096 7.17 9.72 10.75
5/11/2021 11:15:00 PM 9.11 48.398 0.096 7.16 9.05 10.77
5/11/2021 11:30:00 PM 9.04 48.272 0.096 7.17 9.14 10.79
5/11/2021 11:45:00 PM 8.97 48.146 0.097 7.17 9.15 10.82
5/12/2021 12:00:00 AM 8.9 48.02 0.097 7.17 9.01 10.83
5/12/2021 12:15:00 AM 8.83 47.894 0.097 7.16 8.82 10.85
5/12/2021 12:30:00 AM 8.76 47.768 0.097 7.16 8.64 10.87
5/12/2021 12:45:00 AM 8.69 47.642 0.097 7.16 8.63 10.89
5/12/2021 1:00:00 AM 8.63 47.534 0.097 7.16 8.67 10.91
5/12/2021 1:15:00 AM 8.57 47.426 0.097 7.16 9.09 10.92
5/12/2021 1:30:00 AM 8.51 47.318 0.097 7.16 8.88 10.95
5/12/2021 1:45:00 AM 8.45 47.21 0.097 7.15 8.25 10.96
5/12/2021 2:00:00 AM 8.39 47.102 0.097 7.14 8.35 10.98
5/12/2021 2:15:00 AM 8.32 46.976 0.097 7.16 8.46 11
5/12/2021 2:30:00 AM 8.25 46.85 0.097 7.15 8.5 11.02
5/12/2021 2:45:00 AM 8.18 46.724 0.098 7.15 8.23 11.04
5/12/2021 3:00:00 AM 8.12 46.616 0.098 7.15 8.37 11.05
5/12/2021 3:15:00 AM 8.05 46.49 0.098 7.14 8.43 11.07
5/12/2021 3:30:00 AM 7.98 46.364 0.098 7.13 8.29 11.09
5/12/2021 3:45:00 AM 7.92 46.256 0.098 7.13 8.11 11.11
5/12/2021 4:00:00 AM 7.89 46.202 0.098 7.13 8.33 11.13
5/12/2021 4:15:00 AM 7.87 46.166 0.098 7.13 8.47 11.14
5/12/2021 4:30:00 AM 7.85 46.13 0.098 7.12 8.55 11.16
5/12/2021 4:45:00 AM 7.84 46.112 0.098 7.13 8.94 11.17
5/12/2021 5:00:00 AM 7.83 46.094 0.098 7.12 8.77 11.17
5/12/2021 5:15:00 AM 7.8 46.04 0.098 7.12 9.01 11.18
5/12/2021 5:30:00 AM 7.77 45.986 0.098 7.12 8.86 11.19
5/12/2021 5:45:00 AM 7.74 45.932 0.098 7.1 8.11 11.19
5/12/2021 6:00:00 AM 7.71 45.878 0.098 7.11 8.14 11.2
5/12/2021 6:15:00 AM 7.68 45.824 0.098 7.12 8.27 11.23
5/12/2021 6:30:00 AM 7.68 45.824 0.098 7.11 7.91 11.26
5/12/2021 6:45:00 AM 7.68 45.824 0.098 7.14 7.84 11.29
5/12/2021 7:00:00 AM 7.7 45.86 0.098 7.13 7.97 11.33
5/12/2021 7:15:00 AM 7.73 45.914 0.098 7.14 7.93 11.38
5/12/2021 7:30:00 AM 7.77 45.986 0.098 7.15 7.63 11.42
5/12/2021 7:45:00 AM 7.82 46.076 0.098 7.17 7.88 11.45
5/12/2021 8:00:00 AM 7.88 46.184 0.098 7.17 7.62 11.49
5/12/2021 8:15:00 AM 7.94 46.292 0.098 7.19 7.6 11.5
5/12/2021 8:30:00 AM 8 46.4 0.098 7.2 7.56 11.51
5/12/2021 8:45:00 AM 8.12 46.616 0.098 7.22 7.74 11.51
5/12/2021 9:00:00 AM 8.34 47.012 0.098 7.22 7.19 11.51
5/12/2021 9:15:00 AM 8.51 47.318 0.098 7.25 7.51 11.5
5/12/2021 9:30:00 AM 8.64 47.552 0.098 7.26 7.53 11.48
5/12/2021 9:45:00 AM 8.79 47.822 0.098 7.27 7.19 11.46
5/12/2021 10:00:00 AM 8.96 48.128 0.098 7.28 7.68 11.45
5/12/2021 10:15:00 AM 9.13 48.434 0.098 7.29 7.57 11.43
5/12/2021 10:30:00 AM 9.36 48.848 0.098 7.3 7.46 11.38
5/12/2021 10:45:00 AM 9.6 49.28 0.098 7.29 7.08 11.35
5/12/2021 11:00:00 AM 9.85 49.73 0.098 7.32 7.21 11.3
5/12/2021 11:15:00 AM 10.14 50.252 0.098 7.31 7.26 11.24
5/12/2021 11:30:00 AM 10.43 50.774 0.098 7.33 7.84 11.2
5/12/2021 11:45:00 AM 10.72 51.296 0.098 7.34 8.67 11.13
5/12/2021 12:00:00 PM 11.03 51.854 0.098 7.34 8.61 11.07
5/12/2021 12:15:00 PM 11.35 52.43 0.098 7.35 7.67 11
5/12/2021 12:30:00 PM 11.66 52.988 0.098 7.36 7.53 10.94
5/12/2021 12:45:00 PM 11.97 53.546 0.098 7.37 7.97 10.87
5/12/2021 1:00:00 PM 12.2 53.96 0.098 7.38 7.25 10.79
5/12/2021 1:15:00 PM 12.43 54.374 0.099 7.39 7.13 10.72
5/12/2021 1:30:00 PM 12.62 54.716 0.099 7.4 7.16 10.68
5/12/2021 1:45:00 PM 12.82 55.076 0.099 7.41 7.33 10.63
5/12/2021 2:00:00 PM 12.88 55.184 0.099 7.4 6.86 10.58
5/12/2021 2:15:00 PM 13.12 55.616 0.099 7.4 6.85 10.53
5/12/2021 2:30:00 PM 13.33 55.994 0.099 7.4 7.16 10.49
5/12/2021 2:45:00 PM 13.44 56.192 0.099 7.4 7.2 10.45
5/12/2021 3:00:00 PM 13.62 56.516 0.099 7.41 7.39 10.42
5/12/2021 3:15:00 PM 13.57 56.426 0.099 7.4 6.78 10.36
5/12/2021 3:30:00 PM 13.47 56.246 0.099 7.38 7.24 10.31
5/12/2021 3:45:00 PM 13.59 56.462 0.099 7.39 7.1 10.33
5/12/2021 4:00:00 PM 13.77 56.786 0.099 7.39 7.63 10.3
5/12/2021 4:15:00 PM 13.89 57.002 0.099 7.39 6.96 10.26
5/12/2021 4:30:00 PM 14.05 57.29 0.099 7.38 7.07 10.22
5/12/2021 4:45:00 PM 14.15 57.47 0.099 7.38 7.22 10.18
5/12/2021 5:00:00 PM 14.25 57.65 0.099 7.39 7.03 10.16
5/12/2021 5:15:00 PM 14.26 57.668 0.1 7.39 7.34 10.13
5/12/2021 5:30:00 PM 14.08 57.344 0.1 7.38 7.1 10.11
5/12/2021 5:45:00 PM 13.95 57.11 0.1 7.36 7.36 10.07
5/12/2021 6:00:00 PM 13.79 56.822 0.1 7.36 7.51 10.07
5/12/2021 6:15:00 PM 13.65 56.57 0.1 7.35 6.89 10.06
5/12/2021 6:30:00 PM 13.49 56.282 0.1 7.34 6.94 10.06
5/12/2021 6:45:00 PM 13.34 56.012 0.1 7.33 7.3 10.04
5/12/2021 7:00:00 PM 13.21 55.778 0.1 7.32 7.79 10.06
5/12/2021 7:15:00 PM 13.05 55.49 0.1 7.3 7.22 10.05
5/12/2021 7:30:00 PM 12.89 55.202 0.101 7.3 7 10.05
5/12/2021 7:45:00 PM 12.74 54.932 0.101 7.29 7.4 10.03
5/12/2021 8:00:00 PM 12.62 54.716 0.101 7.27 6.91 10
5/12/2021 8:15:00 PM 12.5 54.5 0.101 7.25 7.06 10
5/12/2021 8:30:00 PM 12.37 54.266 0.101 7.25 7.1 9.98
5/12/2021 8:45:00 PM 12.24 54.032 0.101 7.23 7.48 9.98
5/12/2021 9:00:00 PM 12.12 53.816 0.101 7.21 7.2 9.98
5/12/2021 9:15:00 PM 12 53.6 0.102 7.2 7.68 9.99
5/12/2021 9:30:00 PM 11.88 53.384 0.102 7.2 6.99 10.01
5/12/2021 9:45:00 PM 11.76 53.168 0.102 7.19 6.95 10.02
5/12/2021 10:00:00 PM 11.64 52.952 0.102 7.18 7.38 10.04
5/12/2021 10:15:00 PM 11.52 52.736 0.102 7.17 7.15 10.07
5/12/2021 10:30:00 PM 11.4 52.52 0.102 7.18 7.09 10.09
5/12/2021 10:45:00 PM 11.28 52.304 0.102 7.17 6.89 10.11
5/12/2021 11:00:00 PM 11.17 52.106 0.102 7.18 7.41 10.15
5/12/2021 11:15:00 PM 11.05 51.89 0.102 7.17 7.08 10.17
5/12/2021 11:30:00 PM 10.93 51.674 0.103 7.18 8.83 10.2
5/12/2021 11:45:00 PM 10.81 51.458 0.103 7.18 7.41 10.23
5/13/2021 12:00:00 AM 10.7 51.26 0.103 7.17 15.85 10.26
5/13/2021 12:15:00 AM 10.58 51.044 0.103 7.17 7.23 10.3
5/13/2021 12:30:00 AM 10.46 50.828 0.103 7.17 7.03 10.32
5/13/2021 12:45:00 AM 10.35 50.63 0.103 7.17 6.91 10.36
5/13/2021 1:00:00 AM 10.23 50.414 0.103 7.16 7.2 10.39
5/13/2021 1:15:00 AM 10.12 50.216 0.103 7.16 6.96 10.41
5/13/2021 1:30:00 AM 10.02 50.036 0.103 7.17 7.41 10.43
5/13/2021 1:45:00 AM 9.91 49.838 0.103 7.16 7.04 10.47
5/13/2021 2:00:00 AM 9.81 49.658 0.104 7.17 7.12 10.5
5/13/2021 2:15:00 AM 9.71 49.478 0.104 7.16 7.26 10.53
5/13/2021 2:30:00 AM 9.61 49.298 0.104 7.16 7.07 10.55
5/13/2021 2:45:00 AM 9.51 49.118 0.104 7.16 7.12 10.58
5/13/2021 3:00:00 AM 9.41 48.938 0.104 7.15 6.75 10.61
5/13/2021 3:15:00 AM 9.32 48.776 0.104 7.16 6.66 10.63
5/13/2021 3:30:00 AM 9.22 48.596 0.104 7.15 6.54 10.66
5/13/2021 3:45:00 AM 9.12 48.416 0.104 7.14 6.71 10.68
5/13/2021 4:00:00 AM 9.03 48.254 0.104 7.15 6.87 10.7
5/13/2021 4:15:00 AM 8.95 48.11 0.104 7.16 6.83 10.75
5/13/2021 4:30:00 AM 8.85 47.93 0.104 7.15 6.96 10.76
5/13/2021 4:45:00 AM 8.76 47.768 0.104 7.14 6.57 10.78
5/13/2021 5:00:00 AM 8.68 47.624 0.104 7.14 6.66 10.81
5/13/2021 5:15:00 AM 8.59 47.462 0.104 7.14 6.51 10.85
5/13/2021 5:30:00 AM 8.51 47.318 0.105 7.13 6.34 10.87
5/13/2021 5:45:00 AM 8.43 47.174 0.105 7.13 6.89 10.9
5/13/2021 6:00:00 AM 8.35 47.03 0.105 7.13 6.36 10.92
5/13/2021 6:15:00 AM 8.29 46.922 0.105 7.12 6.49 10.96
5/13/2021 6:30:00 AM 8.22 46.796 0.105 7.13 6.46 11.01
5/13/2021 6:45:00 AM 8.18 46.724 0.105 7.12 6.71 11.07
5/13/2021 7:00:00 AM 8.15 46.67 0.105 7.14 6.41 11.13
5/13/2021 7:15:00 AM 8.15 46.67 0.105 7.14 7.83 11.19
5/13/2021 7:30:00 AM 8.15 46.67 0.105 7.15 6.42 11.24
5/13/2021 7:45:00 AM 8.18 46.724 0.105 7.16 13.44 11.28
5/13/2021 8:00:00 AM 8.23 46.814 0.105 7.17 7.73 11.32
5/13/2021 8:15:00 AM 8.3 46.94 0.105 7.18 6.91 11.35
5/13/2021 8:30:00 AM 8.4 47.12 0.105 7.19 6.39 11.37
5/13/2021 8:45:00 AM 8.51 47.318 0.105 7.21 10.37 11.38
5/13/2021 9:00:00 AM 8.64 47.552 0.105 7.21 5.89 11.39
5/13/2021 9:15:00 AM 8.8 47.84 0.105 7.23 6.68 11.39
5/13/2021 9:30:00 AM 8.97 48.146 0.105 7.25 8.74 11.4
5/13/2021 9:45:00 AM 9.16 48.488 0.105 7.26 5.64 11.38
5/13/2021 10:00:00 AM 9.36 48.848 0.105 7.27 6.77 11.35
5/13/2021 10:15:00 AM 9.58 49.244 0.105 7.27 5.48 11.33
5/13/2021 10:30:00 AM 9.82 49.676 0.105 7.3 5.36 11.29
5/13/2021 10:45:00 AM 10.09 50.162 0.105 7.3 5.37 11.25
5/13/2021 11:00:00 AM 10.36 50.648 0.105 7.3 5.53 11.19
5/13/2021 11:15:00 AM 10.55 50.99 0.105 7.32 5.32 11.12
5/13/2021 11:30:00 AM 10.76 51.368 0.105 7.33 5.35 11.07
5/13/2021 11:45:00 AM 10.8 51.44 0.105 7.34 5.63 11.02
5/13/2021 12:00:00 PM 11.18 52.124 0.105 7.34 5.37 10.99
5/13/2021 12:15:00 PM 11.25 52.25 0.105 7.35 5.56 10.93
5/13/2021 12:30:00 PM 11.34 52.412 0.105 7.36 5.52 10.89
5/13/2021 12:45:00 PM 11.43 52.574 0.105 7.35 5.57 10.85
5/13/2021 1:00:00 PM 11.67 53.006 0.105 7.37 5.48 10.83
5/13/2021 1:15:00 PM 11.82 53.276 0.105 7.38 5.52 10.8
5/13/2021 1:30:00 PM 11.87 53.366 0.105 7.37 5.29 10.75
5/13/2021 1:45:00 PM 12.06 53.708 0.105 7.38 5.39 10.73
5/13/2021 2:00:00 PM 12.01 53.618 0.105 7.38 5.3 10.72
5/13/2021 2:15:00 PM 12.09 53.762 0.105 7.39 5.63 10.72
5/13/2021 2:30:00 PM 12.09 53.762 0.105 7.38 5.34 10.7
5/13/2021 2:45:00 PM 12.04 53.672 0.105 7.39 5.67 10.66
5/13/2021 3:00:00 PM 12.04 53.672 0.105 7.39 5.49 10.67
5/13/2021 3:15:00 PM 12.21 53.978 0.105 7.39 5.46 10.66
5/13/2021 3:30:00 PM 12.27 54.086 0.105 7.39 5.21 10.67
5/13/2021 3:45:00 PM 12.5 54.5 0.105 7.39 5.16 10.64
5/13/2021 4:00:00 PM 12.74 54.932 0.105 7.4 5.23 10.61
5/13/2021 4:15:00 PM 12.93 55.274 0.105 7.41 5.82 10.56
5/13/2021 4:30:00 PM 13.17 55.706 0.105 7.41 6.04 10.52
5/13/2021 4:45:00 PM 13.17 55.706 0.106 7.4 6.36 10.45
5/13/2021 5:00:00 PM 13.05 55.49 0.106 7.39 5.93 10.4
5/13/2021 5:15:00 PM 12.99 55.382 0.106 7.39 5.85 10.39
5/13/2021 5:30:00 PM 12.96 55.328 0.106 7.39 5.59 10.4
5/13/2021 5:45:00 PM 12.89 55.202 0.106 7.38 5.67 10.38
5/13/2021 6:00:00 PM 12.84 55.112 0.106 7.37 5.48 10.36
5/13/2021 6:15:00 PM 12.77 54.986 0.106 7.37 5.48 10.33
5/13/2021 6:30:00 PM 12.7 54.86 0.106 7.36 5.4 10.32
5/13/2021 6:45:00 PM 12.69 54.842 0.106 7.35 5.26 10.31
5/13/2021 7:00:00 PM 12.66 54.788 0.106 7.35 5.55 10.3
5/13/2021 7:15:00 PM 12.56 54.608 0.106 7.34 5.51 10.28
5/13/2021 7:30:00 PM 12.45 54.41 0.106 7.32 5.51 10.24
5/13/2021 7:45:00 PM 12.33 54.194 0.106 7.31 5.2 10.2
5/13/2021 8:00:00 PM 12.2 53.96 0.107 7.29 5.78 10.16
5/13/2021 8:15:00 PM 12.08 53.744 0.107 7.28 5.81 10.13
5/13/2021 8:30:00 PM 11.96 53.528 0.107 7.26 5.75 10.09
5/13/2021 8:45:00 PM 11.85 53.33 0.107 7.25 5.46 10.07
5/13/2021 9:00:00 PM 11.76 53.168 0.107 7.23 5.5 10.05
5/13/2021 9:15:00 PM 11.67 53.006 0.107 7.22 5.53 10.04
5/13/2021 9:30:00 PM 11.59 52.862 0.107 7.21 5.6 10.04
5/13/2021 9:45:00 PM 11.5 52.7 0.107 7.2 5.54 10.04
5/13/2021 10:00:00 PM 11.41 52.538 0.108 7.19 6.01 10.06
5/13/2021 10:15:00 PM 11.33 52.394 0.108 7.2 5.79 10.07
5/13/2021 10:30:00 PM 11.25 52.25 0.108 7.18 5.95 10.08
5/13/2021 10:45:00 PM 11.16 52.088 0.108 7.18 5.8 10.1
5/13/2021 11:00:00 PM 11.09 51.962 0.108 7.18 5.75 10.12
5/13/2021 11:15:00 PM 11 51.8 0.108 7.18 5.56 10.13
5/13/2021 11:30:00 PM 10.92 51.656 0.108 7.18 5.69 10.16
5/13/2021 11:45:00 PM 10.83 51.494 0.108 7.18 5.36 10.17
5/14/2021 12:00:00 AM 10.75 51.35 0.108 7.18 5.81 10.19
5/14/2021 12:15:00 AM 10.66 51.188 0.109 7.17 5.84 10.22
5/14/2021 12:30:00 AM 10.57 51.026 0.109 7.17 5.65 10.23
5/14/2021 12:45:00 AM 10.48 50.864 0.109 7.17 5.67 10.25
5/14/2021 1:00:00 AM 10.4 50.72 0.109 7.17 5.62 10.27
5/14/2021 1:15:00 AM 10.31 50.558 0.109 7.17 5.61 10.31
5/14/2021 1:30:00 AM 10.22 50.396 0.109 7.17 5.58 10.33
5/14/2021 1:45:00 AM 10.14 50.252 0.109 7.16 5.7 10.34
5/14/2021 2:00:00 AM 10.05 50.09 0.109 7.17 6.05 10.37
5/14/2021 2:15:00 AM 9.97 49.946 0.109 7.17 5.47 10.39
5/14/2021 2:30:00 AM 9.89 49.802 0.109 7.16 5.67 10.41
5/14/2021 2:45:00 AM 9.81 49.658 0.109 7.16 5.52 10.43
5/14/2021 3:00:00 AM 9.73 49.514 0.11 7.17 5.74 10.45
5/14/2021 3:15:00 AM 9.64 49.352 0.109 7.16 5.58 10.48
5/14/2021 3:30:00 AM 9.57 49.226 0.11 7.16 5.69 10.5
5/14/2021 3:45:00 AM 9.5 49.1 0.11 7.17 5.35 10.52
5/14/2021 4:00:00 AM 9.42 48.956 0.11 7.16 5.67 10.54
5/14/2021 4:15:00 AM 9.35 48.83 0.11 7.17 5.46 10.56
5/14/2021 4:30:00 AM 9.28 48.704 0.11 7.16 5.38 10.58
5/14/2021 4:45:00 AM 9.21 48.578 0.11 7.16 5.66 10.6
5/14/2021 5:00:00 AM 9.14 48.452 0.11 7.16 5.68 10.62
5/14/2021 5:15:00 AM 9.08 48.344 0.11 7.16 5.6 10.64
5/14/2021 5:30:00 AM 9.01 48.218 0.11 7.15 5.45 10.66
5/14/2021 5:45:00 AM 8.94 48.092 0.11 7.15 5.31 10.69
5/14/2021 6:00:00 AM 8.88 47.984 0.11 7.14 5.45 10.7
5/14/2021 6:15:00 AM 8.82 47.876 0.11 7.15 5.7 10.73
5/14/2021 6:30:00 AM 8.77 47.786 0.111 7.15 5.27 10.79
5/14/2021 6:45:00 AM 8.73 47.714 0.111 7.16 5.45 10.86
5/14/2021 7:00:00 AM 8.72 47.696 0.111 7.17 5.25 10.92
5/14/2021 7:15:00 AM 8.72 47.696 0.111 7.18 5.05 11
5/14/2021 7:30:00 AM 8.73 47.714 0.111 7.19 5.13 11.06
5/14/2021 7:45:00 AM 8.77 47.786 0.111 7.2 5.14 11.1
5/14/2021 8:00:00 AM 8.83 47.894 0.111 7.21 4.98 11.14
5/14/2021 8:15:00 AM 8.91 48.038 0.111 7.23 5.2 11.18
5/14/2021 8:30:00 AM 9 48.2 0.111 7.24 5.02 11.21
5/14/2021 8:45:00 AM 9.12 48.416 0.111 7.24 5.05 11.23
5/14/2021 9:00:00 AM 9.27 48.686 0.111 7.26 4.92 11.24
5/14/2021 9:15:00 AM 9.43 48.974 0.111 7.27 4.97 11.24
5/14/2021 9:30:00 AM 9.61 49.298 0.111 7.28 5.09 11.24
5/14/2021 9:45:00 AM 9.8 49.64 0.111 7.29 4.92 11.22
5/14/2021 10:00:00 AM 10.01 50.018 0.111 7.3 5.03 11.2
5/14/2021 10:15:00 AM 10.23 50.414 0.111 7.31 5.16 11.18
5/14/2021 10:30:00 AM 10.47 50.846 0.111 7.33 4.9 11.16
5/14/2021 10:45:00 AM 10.72 51.296 0.111 7.34 4.86 11.12
5/14/2021 11:00:00 AM 11 51.8 0.111 7.34 4.81 11.07
5/14/2021 11:15:00 AM 11.28 52.304 0.111 7.36 5.05 11.03
5/14/2021 11:30:00 AM 11.58 52.844 0.111 7.36 4.82 10.98
5/14/2021 11:45:00 AM 11.88 53.384 0.111 7.38 4.76 10.94
5/14/2021 12:00:00 PM 12.2 53.96 0.111 7.39 5.24 10.88
5/14/2021 12:15:00 PM 12.56 54.608 0.111 7.4 5.04 10.82
5/14/2021 12:30:00 PM 12.89 55.202 0.111 7.4 4.79 10.72
5/14/2021 12:45:00 PM 12.97 55.346 0.111 7.4 4.97 10.64
5/14/2021 1:00:00 PM 12.96 55.328 0.111 7.4 4.79 10.59
5/14/2021 1:15:00 PM 12.95 55.31 0.111 7.41 4.87 10.57
5/14/2021 1:30:00 PM 12.98 55.364 0.111 7.41 4.91 10.59
5/14/2021 1:45:00 PM 13.24 55.832 0.111 7.42 4.93 10.55
5/14/2021 2:00:00 PM 13.45 56.21 0.111 7.43 4.88 10.52
5/14/2021 2:15:00 PM 13.65 56.57 0.111 7.43 5.12 10.46
5/14/2021 2:30:00 PM 13.83 56.894 0.111 7.44 5.08 10.42
5/14/2021 2:45:00 PM 14.05 57.29 0.111 7.44 4.85 10.41
5/14/2021 3:00:00 PM 14.26 57.668 0.111 7.45 4.96 10.39
5/14/2021 3:15:00 PM 14.51 58.118 0.111 7.45 4.85 10.36
5/14/2021 3:30:00 PM 14.67 58.406 0.111 7.45 4.84 10.31
5/14/2021 3:45:00 PM 14.65 58.37 0.111 7.45 5 10.25
5/14/2021 4:00:00 PM 14.59 58.262 0.111 7.45 4.98 10.21
5/14/2021 4:15:00 PM 14.45 58.01 0.111 7.44 4.84 10.2
5/14/2021 4:30:00 PM 14.36 57.848 0.111 7.44 5.24 10.19
5/14/2021 4:45:00 PM 14.3 57.74 0.111 7.44 4.8 10.21
5/14/2021 5:00:00 PM 14.2 57.56 0.111 7.42 4.99 10.16
5/14/2021 5:15:00 PM 14.07 57.326 0.111 7.42 4.82 10.15
5/14/2021 5:30:00 PM 13.91 57.038 0.112 7.4 5.07 10.12
5/14/2021 5:45:00 PM 13.79 56.822 0.112 7.39 4.67 10.1
5/14/2021 6:00:00 PM 13.61 56.498 0.112 7.37 4.72 10.08
5/14/2021 6:15:00 PM 13.44 56.192 0.112 7.36 4.93 10.06
5/14/2021 6:30:00 PM 13.33 55.994 0.112 7.34 5 10.06
5/14/2021 6:45:00 PM 13.29 55.922 0.112 7.34 5.57 10.07
5/14/2021 7:00:00 PM 13.24 55.832 0.112 7.35 5.11 10.1
5/14/2021 7:15:00 PM 13.16 55.688 0.112 7.34 4.91 10.1
5/14/2021 7:30:00 PM 13.07 55.526 0.112 7.32 5.13 10.06
5/14/2021 7:45:00 PM 13 55.4 0.112 7.32 4.85 9.97
5/14/2021 8:00:00 PM 12.91 55.238 0.113 7.29 4.95 9.96
5/14/2021 8:15:00 PM 12.81 55.058 0.113 7.28 4.8 9.86
5/14/2021 8:30:00 PM 12.71 54.878 0.113 7.27 4.87 9.86
5/14/2021 8:45:00 PM 12.61 54.698 0.113 7.25 5 9.8
5/14/2021 9:00:00 PM 12.5 54.5 0.113 7.23 4.92 9.8
5/14/2021 9:15:00 PM 12.42 54.356 0.113 7.22 5.07 9.77
5/14/2021 9:30:00 PM 12.32 54.176 0.113 7.21 5.05 9.77
5/14/2021 9:45:00 PM 12.24 54.032 0.114 7.21 5.08 9.76
5/14/2021 10:00:00 PM 12.15 53.87 0.113 7.2 5.03 9.8
5/14/2021 10:15:00 PM 12.07 53.726 0.114 7.2 4.96 9.8
5/14/2021 10:30:00 PM 11.99 53.582 0.114 7.2 5.12 9.8
5/14/2021 10:45:00 PM 11.91 53.438 0.114 7.2 4.92 9.82
5/14/2021 11:00:00 PM 11.84 53.312 0.114 7.19 5.04 9.82
5/14/2021 11:15:00 PM 11.75 53.15 0.114 7.19 4.87 9.85
5/14/2021 11:30:00 PM 11.67 53.006 0.114 7.19 4.92 9.86
5/14/2021 11:45:00 PM 11.59 52.862 0.114 7.19 5.07 9.88
5/15/2021 12:00:00 AM 11.51 52.718 0.114 7.18 5.19 9.88
5/15/2021 12:15:00 AM 11.44 52.592 0.115 7.18 5.04 9.92
5/15/2021 12:30:00 AM 11.36 52.448 0.115 7.18 4.93 9.91
5/15/2021 12:45:00 AM 11.29 52.322 0.115 7.17 5.03 9.96
5/15/2021 1:00:00 AM 11.22 52.196 0.115 7.17 4.85 9.96
5/15/2021 1:15:00 AM 11.16 52.088 0.115 7.18 5.04 9.96
5/15/2021 1:30:00 AM 11.09 51.962 0.115 7.17 5.12 10
5/15/2021 1:45:00 AM 11.03 51.854 0.115 7.17 5.11 10.01
5/15/2021 2:00:00 AM 10.96 51.728 0.115 7.17 5.1 10.02
5/15/2021 2:15:00 AM 10.9 51.62 0.115 7.17 4.88 10.04
5/15/2021 2:30:00 AM 10.83 51.494 0.115 7.17 5.07 10.07
5/15/2021 2:45:00 AM 10.76 51.368 0.115 7.17 5.12 10.08
5/15/2021 3:00:00 AM 10.69 51.242 0.116 7.16 4.89 10.1
5/15/2021 3:15:00 AM 10.62 51.116 0.116 7.17 4.89 10.12
5/15/2021 3:30:00 AM 10.55 50.99 0.116 7.17 4.94 10.13
5/15/2021 3:45:00 AM 10.48 50.864 0.116 7.17 4.81 10.15
5/15/2021 4:00:00 AM 10.41 50.738 0.116 7.16 5.15 10.17
5/15/2021 4:15:00 AM 10.33 50.594 0.116 7.17 4.9 10.2
5/15/2021 4:30:00 AM 10.26 50.468 0.116 7.17 4.97 10.21
5/15/2021 4:45:00 AM 10.19 50.342 0.116 7.17 4.84 10.23
5/15/2021 5:00:00 AM 10.12 50.216 0.116 7.17 5.04 10.26
5/15/2021 5:15:00 AM 10.05 50.09 0.116 7.17 4.91 10.27
5/15/2021 5:30:00 AM 9.99 49.982 0.116 7.16 5 10.29
5/15/2021 5:45:00 AM 9.93 49.874 0.117 7.17 4.94 10.31
5/15/2021 6:00:00 AM 9.87 49.766 0.117 7.17 5 10.34
5/15/2021 6:15:00 AM 9.82 49.676 0.117 7.17 5 10.38
5/15/2021 6:30:00 AM 9.77 49.586 0.117 7.17 4.99 10.43
5/15/2021 6:45:00 AM 9.73 49.514 0.117 7.18 4.7 10.51
5/15/2021 7:00:00 AM 9.7 49.46 0.117 7.19 4.66 10.59
5/15/2021 7:15:00 AM 9.7 49.46 0.117 7.21 4.88 10.66
5/15/2021 7:30:00 AM 9.71 49.478 0.117 7.22 4.82 10.74
5/15/2021 7:45:00 AM 9.74 49.532 0.117 7.23 4.76 10.8
5/15/2021 8:00:00 AM 9.8 49.64 0.117 7.24 4.54 10.84
5/15/2021 8:15:00 AM 9.88 49.784 0.117 7.25 4.58 10.9
5/15/2021 8:30:00 AM 9.97 49.946 0.117 7.26 4.52 10.93
5/15/2021 8:45:00 AM 10.09 50.162 0.117 7.28 4.54 10.95
5/15/2021 9:00:00 AM 10.23 50.414 0.117 7.29 4.63 10.96
5/15/2021 9:15:00 AM 10.41 50.738 0.117 7.3 4.74 10.97
5/15/2021 9:30:00 AM 10.59 51.062 0.117 7.31 4.51 10.97
5/15/2021 9:45:00 AM 10.78 51.404 0.117 7.32 4.54 10.98
5/15/2021 10:00:00 AM 11 51.8 0.117 7.32 4.71 10.96
5/15/2021 10:15:00 AM 11.22 52.196 0.117 7.34 4.41 10.94
5/15/2021 10:30:00 AM 11.46 52.628 0.117 7.35 4.53 10.91
5/15/2021 10:45:00 AM 11.7 53.06 0.117 7.36 4.4 10.89
5/15/2021 11:00:00 AM 11.95 53.51 0.117 7.37 4.47 10.85
5/15/2021 11:15:00 AM 12.23 54.014 0.117 7.38 4.63 10.81
5/15/2021 11:30:00 AM 12.51 54.518 0.117 7.38 4.51 10.77
5/15/2021 11:45:00 AM 12.81 55.058 0.117 7.39 4.47 10.74
5/15/2021 12:00:00 PM 13.04 55.472 0.117 7.4 4.38 10.68
5/15/2021 12:15:00 PM 13.36 56.048 0.117 7.4 4.49 10.61
5/15/2021 12:30:00 PM 13.38 56.084 0.117 7.4 4.48 10.52
5/15/2021 12:45:00 PM 13.37 56.066 0.117 7.41 4.41 10.49
5/15/2021 1:00:00 PM 13.39 56.102 0.117 7.41 4.39 10.47
5/15/2021 1:15:00 PM 13.36 56.048 0.117 7.42 4.32 10.48
5/15/2021 1:30:00 PM 13.35 56.03 0.117 7.42 4.47 10.46
5/15/2021 1:45:00 PM 13.32 55.976 0.117 7.43 4.48 10.43
5/15/2021 2:00:00 PM 13.29 55.922 0.117 7.42 4.41 10.43
5/15/2021 2:15:00 PM 13.35 56.03 0.117 7.43 4.4 10.45
5/15/2021 2:30:00 PM 13.43 56.174 0.117 7.43 4.26 10.47
5/15/2021 2:45:00 PM 13.64 56.552 0.117 7.44 4.24 10.47
5/15/2021 3:00:00 PM 13.72 56.696 0.117 7.44 4.44 10.44
5/15/2021 3:15:00 PM 13.84 56.912 0.117 7.45 4.4 10.42
5/15/2021 3:30:00 PM 13.85 56.93 0.117 7.45 4.47 10.38
5/15/2021 3:45:00 PM 13.89 57.002 0.117 7.45 4.4 10.39
5/15/2021 4:00:00 PM 14.03 57.254 0.117 7.44 4.35 10.38
5/15/2021 4:15:00 PM 14.11 57.398 0.117 7.45 4.34 10.37
5/15/2021 4:30:00 PM 14.18 57.524 0.117 7.45 4.32 10.35
5/15/2021 4:45:00 PM 14.17 57.506 0.117 7.45 5.04 10.32
5/15/2021 5:00:00 PM 14.2 57.56 0.117 7.45 4.31 10.29
5/15/2021 5:15:00 PM 14.15 57.47 0.118 7.44 4.45 10.23
5/15/2021 5:30:00 PM 14.08 57.344 0.118 7.43 4.42 10.18
5/15/2021 5:45:00 PM 14.07 57.326 0.118 7.43 4.35 10.18
5/15/2021 6:00:00 PM 14.02 57.236 0.118 7.42 4.32 10.14
5/15/2021 6:15:00 PM 13.96 57.128 0.118 7.41 4.3 10.13
5/15/2021 6:30:00 PM 13.92 57.056 0.118 7.4 4.28 10.12
5/15/2021 6:45:00 PM 13.89 57.002 0.118 7.39 4.36 10.1
5/15/2021 7:00:00 PM 13.83 56.894 0.118 7.39 4.42 10.07
5/15/2021 7:15:00 PM 13.77 56.786 0.118 7.38 4.32 10.04
5/15/2021 7:30:00 PM 13.7 56.66 0.118 7.37 4.42 9.99
5/15/2021 7:45:00 PM 13.6 56.48 0.118 7.34 4.25 9.93
5/15/2021 8:00:00 PM 13.5 56.3 0.118 7.32 4.41 9.87
5/15/2021 8:15:00 PM 13.39 56.102 0.119 7.3 4.39 9.8
5/15/2021 8:30:00 PM 13.28 55.904 0.119 7.28 4.5 9.74
5/15/2021 8:45:00 PM 13.17 55.706 0.119 7.26 4.46 9.68
5/15/2021 9:00:00 PM 13.07 55.526 0.119 7.24 4.48 9.64
5/15/2021 9:15:00 PM 12.98 55.364 0.119 7.23 4.6 9.61
5/15/2021 9:30:00 PM 12.89 55.202 0.119 7.22 4.42 9.6
5/15/2021 9:45:00 PM 12.8 55.04 0.119 7.21 4.48 9.59
5/15/2021 10:00:00 PM 12.71 54.878 0.12 7.21 4.45 9.6
5/15/2021 10:15:00 PM 12.61 54.698 0.12 7.2 4.52 9.6
5/15/2021 10:30:00 PM 12.52 54.536 0.12 7.2 4.63 9.62
5/15/2021 10:45:00 PM 12.44 54.392 0.12 7.2 4.46 9.62
5/15/2021 11:00:00 PM 12.37 54.266 0.12 7.19 4.51 9.62
5/15/2021 11:15:00 PM 12.3 54.14 0.12 7.18 4.42 9.64
5/15/2021 11:30:00 PM 12.23 54.014 0.12 7.19 4.52 9.66
5/15/2021 11:45:00 PM 12.15 53.87 0.12 7.18 4.64 9.67
5/16/2021 12:00:00 AM 12.09 53.762 0.12 7.18 4.61 9.68
5/16/2021 12:15:00 AM 12.03 53.654 0.121 7.17 4.47 9.68
5/16/2021 12:30:00 AM 11.97 53.546 0.121 7.18 4.62 9.7
5/16/2021 12:45:00 AM 11.92 53.456 0.121 7.17 4.54 9.71
5/16/2021 1:00:00 AM 11.87 53.366 0.121 7.18 4.59 9.72
5/16/2021 1:15:00 AM 11.82 53.276 0.121 7.17 4.62 9.73
5/16/2021 1:30:00 AM 11.78 53.204 0.121 7.17 4.45 9.73
5/16/2021 1:45:00 AM 11.73 53.114 0.121 7.17 4.54 9.75
5/16/2021 2:00:00 AM 11.69 53.042 0.121 7.17 4.56 9.75
5/16/2021 2:15:00 AM 11.64 52.952 0.121 7.16 4.6 9.76
5/16/2021 2:30:00 AM 11.59 52.862 0.121 7.16 4.41 9.77
5/16/2021 2:45:00 AM 11.54 52.772 0.121 7.17 4.41 9.78
5/16/2021 3:00:00 AM 11.49 52.682 0.122 7.17 4.56 9.79
5/16/2021 3:15:00 AM 11.44 52.592 0.122 7.16 4.46 9.81
5/16/2021 3:30:00 AM 11.41 52.538 0.122 7.17 4.43 9.82
5/16/2021 3:45:00 AM 11.37 52.466 0.122 7.17 4.4 9.81
5/16/2021 4:00:00 AM 11.33 52.394 0.122 7.17 4.74 9.83
5/16/2021 4:15:00 AM 11.28 52.304 0.122 7.16 4.61 9.84
5/16/2021 4:30:00 AM 11.23 52.214 0.122 7.17 4.62 9.86
5/16/2021 4:45:00 AM 11.16 52.088 0.122 7.16 4.64 9.86
5/16/2021 5:00:00 AM 11.09 51.962 0.122 7.16 4.43 9.9
5/16/2021 5:15:00 AM 11.03 51.854 0.122 7.16 4.58 9.88
5/16/2021 5:30:00 AM 10.96 51.728 0.122 7.16 4.47 9.91
5/16/2021 5:45:00 AM 10.9 51.62 0.122 7.16 4.51 9.93
5/16/2021 6:00:00 AM 10.85 51.53 0.123 7.16 4.62 9.95
5/16/2021 6:15:00 AM 10.8 51.44 0.123 7.16 4.43 10
5/16/2021 6:30:00 AM 10.75 51.35 0.123 7.17 4.54 10.05
5/16/2021 6:45:00 AM 10.72 51.296 0.123 7.18 4.61 10.12
5/16/2021 7:00:00 AM 10.71 51.278 0.123 7.2 4.42 10.2
5/16/2021 7:15:00 AM 10.71 51.278 0.123 7.21 4.37 10.29
5/16/2021 7:30:00 AM 10.74 51.332 0.123 7.22 4.35 10.4
5/16/2021 7:45:00 AM 10.79 51.422 0.123 7.24 4.61 10.48
5/16/2021 8:00:00 AM 10.86 51.548 0.123 7.25 4.39 10.55
5/16/2021 8:15:00 AM 10.94 51.692 0.123 7.27 4.28 10.6
5/16/2021 8:30:00 AM 11.05 51.89 0.123 7.28 4.43 10.66
5/16/2021 8:45:00 AM 11.17 52.106 0.123 7.3 4.34 10.7
5/16/2021 9:00:00 AM 11.28 52.304 0.123 7.31 4.22 10.73
5/16/2021 9:15:00 AM 11.41 52.538 0.123 7.33 4.23 10.76
5/16/2021 9:30:00 AM 11.57 52.826 0.123 7.34 4.22 10.76
5/16/2021 9:45:00 AM 11.69 53.042 0.123 7.35 4.21 10.76
5/16/2021 10:00:00 AM 11.8 53.24 0.123 7.35 4.17 10.73
5/16/2021 10:15:00 AM 11.84 53.312 0.123 7.36 4.21 10.71
5/16/2021 10:30:00 AM 11.86 53.348 0.123 7.36 4.26 10.68
5/16/2021 10:45:00 AM 11.85 53.33 0.123 7.36 4.26 10.65
5/16/2021 11:00:00 AM 11.84 53.312 0.123 7.36 4.31 10.62
5/16/2021 11:15:00 AM 11.85 53.33 0.123 7.36 4.19 10.64
5/16/2021 11:30:00 AM 11.92 53.456 0.123 7.37 4.15 10.68
5/16/2021 11:45:00 AM 12.05 53.69 0.123 7.38 4.14 10.7
5/16/2021 12:00:00 PM 12.22 53.996 0.123 7.39 4.12 10.71
5/16/2021 12:15:00 PM 12.44 54.392 0.123 7.4 4.26 10.71
5/16/2021 12:30:00 PM 12.67 54.806 0.123 7.42 4.28 10.72
5/16/2021 12:45:00 PM 12.93 55.274 0.123 7.42 4.12 10.69
5/16/2021 1:00:00 PM 13.06 55.508 0.123 7.43 4.13 10.63
5/16/2021 1:15:00 PM 13.16 55.688 0.123 7.44 4.13 10.62
5/16/2021 1:30:00 PM 13.25 55.85 0.123 7.44 4.13 10.57
5/16/2021 1:45:00 PM 13.28 55.904 0.123 7.44 4.06 10.54
5/16/2021 2:00:00 PM 13.33 55.994 0.123 7.45 4.2 10.55
5/16/2021 2:15:00 PM 13.49 56.282 0.123 7.45 4.21 10.57
5/16/2021 2:30:00 PM 13.73 56.714 0.123 7.46 4.05 10.56
5/16/2021 2:45:00 PM 13.94 57.092 0.123 7.47 4.06 10.51
5/16/2021 3:00:00 PM 14.17 57.506 0.123 7.46 4.07 10.48
5/16/2021 3:15:00 PM 14.44 57.992 0.123 7.48 4.01 10.46
5/16/2021 3:30:00 PM 14.68 58.424 0.123 7.47 4.16 10.38
5/16/2021 3:45:00 PM 14.73 58.514 0.123 7.46 4.08 10.31
5/16/2021 4:00:00 PM 14.85 58.73 0.123 7.46 4.09 10.3
5/16/2021 4:15:00 PM 14.99 58.982 0.123 7.47 4.52 10.25
5/16/2021 4:30:00 PM 14.98 58.964 0.123 7.47 4.28 10.2
5/16/2021 4:45:00 PM 15.03 59.054 0.124 7.47 4.23 10.17
5/16/2021 5:00:00 PM 14.92 58.856 0.124 7.45 4.05 10.05
5/16/2021 5:15:00 PM 14.81 58.658 0.124 7.43 4.17 9.99
5/16/2021 5:30:00 PM 14.66 58.388 0.124 7.42 4.11 9.92
5/16/2021 5:45:00 PM 14.51 58.118 0.124 7.4 4.22 9.93
5/16/2021 6:00:00 PM 14.36 57.848 0.124 7.4 4.22 9.94
5/16/2021 6:15:00 PM 14.21 57.578 0.124 7.39 4.17 9.93
5/16/2021 6:30:00 PM 14.07 57.326 0.124 7.38 4.21 9.92
5/16/2021 6:45:00 PM 13.97 57.146 0.124 7.37 4.23 9.89
5/16/2021 7:00:00 PM 13.85 56.93 0.124 7.35 4.07 9.86
5/16/2021 7:15:00 PM 13.76 56.768 0.124 7.34 4.08 9.82
5/16/2021 7:30:00 PM 13.66 56.588 0.124 7.32 4.18 9.8
5/16/2021 7:45:00 PM 13.58 56.444 0.124 7.31 4.2 9.75
5/16/2021 8:00:00 PM 13.49 56.282 0.124 7.3 4.24 9.72
5/16/2021 8:15:00 PM 13.39 56.102 0.125 7.28 4.07 9.66
5/16/2021 8:30:00 PM 13.3 55.94 0.125 7.27 4.29 9.63
5/16/2021 8:45:00 PM 13.22 55.796 0.125 7.25 4.25 9.57
5/16/2021 9:00:00 PM 13.13 55.634 0.125 7.24 4.2 9.54
5/16/2021 9:15:00 PM 13.04 55.472 0.125 7.23 4.32 9.5
5/16/2021 9:30:00 PM 12.96 55.328 0.125 7.22 4.25 9.5
5/16/2021 9:45:00 PM 12.88 55.184 0.125 7.21 4.21 9.5
5/16/2021 10:00:00 PM 12.81 55.058 0.125 7.21 4.47 9.48
5/16/2021 10:15:00 PM 12.73 54.914 0.125 7.2 4.34 9.48
5/16/2021 10:30:00 PM 12.68 54.824 0.126 7.2 4.32 9.49
5/16/2021 10:45:00 PM 12.62 54.716 0.126 7.18 4.46 9.5
5/16/2021 11:00:00 PM 12.57 54.626 0.126 7.19 4.25 9.51
5/16/2021 11:15:00 PM 12.52 54.536 0.126 7.19 4.19 9.5
5/16/2021 11:30:00 PM 12.48 54.464 0.126 7.19 4.23 9.51
5/16/2021 11:45:00 PM 12.44 54.392 0.126 7.18 4.34 9.51
5/17/2021 12:00:00 AM 12.4 54.32 0.126 7.18 4.46 9.52
5/17/2021 12:15:00 AM 12.36 54.248 0.126 7.18 4.53 9.53
5/17/2021 12:30:00 AM 12.31 54.158 0.126 7.18 4.35 9.55
5/17/2021 12:45:00 AM 12.25 54.05 0.126 7.18 4.43 9.56
5/17/2021 1:00:00 AM 12.18 53.924 0.126 7.18 4.26 9.57
5/17/2021 1:15:00 AM 12.12 53.816 0.126 7.18 4.39 9.57
5/17/2021 1:30:00 AM 12.05 53.69 0.126 7.17 4.38 9.57
5/17/2021 1:45:00 AM 11.99 53.582 0.126 7.18 4.37 9.6
5/17/2021 2:00:00 AM 11.93 53.474 0.126 7.17 4.26 9.63
5/17/2021 2:15:00 AM 11.88 53.384 0.126 7.17 4.22 9.63
5/17/2021 2:30:00 AM 11.84 53.312 0.126 7.17 4.27 9.63
5/17/2021 2:45:00 AM 11.8 53.24 0.126 7.17 4.3 9.65
5/17/2021 3:00:00 AM 11.76 53.168 0.126 7.17 4.37 9.66
5/17/2021 3:15:00 AM 11.72 53.096 0.126 7.17 4.37 9.67
5/17/2021 3:30:00 AM 11.67 53.006 0.126 7.17 4.34 9.66
5/17/2021 3:45:00 AM 11.63 52.934 0.126 7.17 4.32 9.7
5/17/2021 4:00:00 AM 11.59 52.862 0.127 7.17 4.28 9.71
5/17/2021 4:15:00 AM 11.54 52.772 0.127 7.17 4.34 9.72
5/17/2021 4:30:00 AM 11.48 52.664 0.127 7.17 4.31 9.72
5/17/2021 4:45:00 AM 11.42 52.556 0.127 7.17 4.47 9.73
5/17/2021 5:00:00 AM 11.36 52.448 0.127 7.17 4.25 9.74
5/17/2021 5:15:00 AM 11.3 52.34 0.127 7.17 4.49 9.77
5/17/2021 5:30:00 AM 11.24 52.232 0.127 7.17 4.47 9.79
5/17/2021 5:45:00 AM 11.18 52.124 0.127 7.17 4.41 9.79
5/17/2021 6:00:00 AM 11.12 52.016 0.127 7.17 4.32 9.83
5/17/2021 6:15:00 AM 11.07 51.926 0.127 7.17 4.43 9.85
5/17/2021 6:30:00 AM 11.03 51.854 0.127 7.18 4.36 9.93
5/17/2021 6:45:00 AM 11.01 51.818 0.127 7.19 4.53 9.99
5/17/2021 7:00:00 AM 11 51.8 0.127 7.2 4.11 10.09
5/17/2021 7:15:00 AM 11.01 51.818 0.127 7.22 4.21 10.19
5/17/2021 7:30:00 AM 11.04 51.872 0.127 7.23 4.21 10.28
5/17/2021 7:45:00 AM 11.09 51.962 0.127 7.25 4.15 10.36
5/17/2021 8:00:00 AM 11.16 52.088 0.127 7.26 4.22 10.44
5/17/2021 8:15:00 AM 11.25 52.25 0.127 7.27 4.05 10.48
5/17/2021 8:30:00 AM 11.37 52.466 0.127 7.29 4.16 10.56
5/17/2021 8:45:00 AM 11.5 52.7 0.127 7.3 4.27 10.56
5/17/2021 9:00:00 AM 11.67 53.006 0.127 7.31 4.04 10.6
5/17/2021 9:15:00 AM 11.84 53.312 0.127 7.33 4.07 10.62
5/17/2021 9:30:00 AM 12.06 53.708 0.127 7.34 4.24 10.65
5/17/2021 9:45:00 AM 12.27 54.086 0.127 7.35 3.97 10.65
5/17/2021 10:00:00 AM 12.5 54.5 0.127 7.36 3.98 10.61
5/17/2021 10:15:00 AM 12.73 54.914 0.127 7.37 4.03 10.61
5/17/2021 10:30:00 AM 12.97 55.346 0.127 7.38 3.99 10.6
5/17/2021 10:45:00 AM 13.22 55.796 0.127 7.39 3.97 10.59
5/17/2021 11:00:00 AM 13.46 56.228 0.127 7.4 4.09 10.55
5/17/2021 11:15:00 AM 13.7 56.66 0.127 7.4 3.98 10.51
5/17/2021 11:30:00 AM 13.96 57.128 0.127 7.41 3.97 10.48
5/17/2021 11:45:00 AM 14.2 57.56 0.127 7.42 4.03 10.47
5/17/2021 12:00:00 PM 14.48 58.064 0.127 7.42 4.01 10.43
5/17/2021 12:15:00 PM 14.65 58.37 0.127 7.43 4.12 10.36
5/17/2021 12:30:00 PM 14.81 58.658 0.127 7.43 3.98 10.3
5/17/2021 12:45:00 PM 14.94 58.892 0.127 7.44 4.01 10.23
5/17/2021 1:00:00 PM 15.29 59.522 0.127 7.45 3.9 10.26
5/17/2021 1:15:00 PM 15.75 60.35 0.127 7.46 4.01 10.23
5/17/2021 1:30:00 PM 16.08 60.944 0.127 7.47 3.99 10.17
5/17/2021 1:45:00 PM 16.4 61.52 0.127 7.48 3.97 10.14
5/17/2021 2:00:00 PM 16.7 62.06 0.128 7.48 4.16 10.1
5/17/2021 2:15:00 PM 16.9 62.42 0.128 7.5 3.99 10.03
5/17/2021 2:30:00 PM 17.16 62.888 0.128 7.49 3.91 9.96
5/17/2021 2:45:00 PM 17.41 63.338 0.127 7.51 4 9.93
5/17/2021 3:00:00 PM 17.61 63.698 0.128 7.5 3.9 9.88
5/17/2021 3:15:00 PM 17.75 63.95 0.128 7.52 3.94 9.83
5/17/2021 3:30:00 PM 17.83 64.094 0.128 7.51 3.81 9.79
5/17/2021 3:45:00 PM 17.91 64.238 0.128 7.52 3.88 9.73
5/17/2021 4:00:00 PM 17.89 64.202 0.128 7.49 3.87 9.7
5/17/2021 4:15:00 PM 17.94 64.292 0.128 7.5 3.93 9.69
5/17/2021 4:30:00 PM 17.9 64.22 0.128 7.5 3.88 9.67
5/17/2021 4:45:00 PM 17.82 64.076 0.128 7.5 3.95 9.66
5/17/2021 5:00:00 PM 17.71 63.878 0.128 7.5 3.95 9.65
5/17/2021 5:15:00 PM 17.58 63.644 0.128 7.49 3.92 9.62
5/17/2021 5:30:00 PM 17.4 63.32 0.128 7.48 3.94 9.6
5/17/2021 5:45:00 PM 17.21 62.978 0.128 7.47 3.89 9.62
5/17/2021 6:00:00 PM 17.02 62.636 0.128 7.46 3.93 9.62
5/17/2021 6:15:00 PM 16.8 62.24 0.128 7.44 4 9.58
5/17/2021 6:30:00 PM 16.55 61.79 0.128 7.42 4.21 9.55
5/17/2021 6:45:00 PM 16.38 61.484 0.128 7.41 4.14 9.51
5/17/2021 7:00:00 PM 16.19 61.142 0.129 7.4 4.12 9.48
5/17/2021 7:15:00 PM 16 60.8 0.129 7.38 4.18 9.42
5/17/2021 7:30:00 PM 15.82 60.476 0.129 7.36 4.14 9.4
5/17/2021 7:45:00 PM 15.65 60.17 0.129 7.34 4.08 9.33
5/17/2021 8:00:00 PM 15.48 59.864 0.129 7.32 4.13 9.28
5/17/2021 8:15:00 PM 15.33 59.594 0.129 7.3 4.2 9.19
5/17/2021 8:30:00 PM 15.17 59.306 0.129 7.28 4.74 9.13
5/17/2021 8:45:00 PM 15.03 59.054 0.129 7.26 4.75 9.08
5/17/2021 9:00:00 PM 14.89 58.802 0.129 7.24 4.79 9.05
5/17/2021 9:15:00 PM 14.75 58.55 0.13 7.22 4.51 9.01
5/17/2021 9:30:00 PM 14.62 58.316 0.13 7.21 4.41 8.99
5/17/2021 9:45:00 PM 14.5 58.1 0.13 7.2 4.23 8.99
5/17/2021 10:00:00 PM 14.38 57.884 0.13 7.19 4.27 9
5/17/2021 10:15:00 PM 14.27 57.686 0.13 7.19 4.17 8.99
5/17/2021 10:30:00 PM 14.16 57.488 0.13 7.19 4.11 9.01
5/17/2021 10:45:00 PM 14.05 57.29 0.13 7.18 4.23 9.02
5/17/2021 11:00:00 PM 13.95 57.11 0.13 7.18 4.22 9.02
5/17/2021 11:15:00 PM 13.85 56.93 0.131 7.17 4.22 9.05
5/17/2021 11:30:00 PM 13.75 56.75 0.131 7.17 4.34 9.09
5/17/2021 11:45:00 PM 13.67 56.606 0.131 7.17 4.12 9.06
5/18/2021 12:00:00 AM 13.58 56.444 0.131 7.17 4.11 9.11
5/18/2021 12:15:00 AM 13.49 56.282 0.131 7.17 4.14 9.12
5/18/2021 12:30:00 AM 13.41 56.138 0.131 7.16 4.13 9.12
5/18/2021 12:45:00 AM 13.34 56.012 0.131 7.16 4.2 9.15
5/18/2021 1:00:00 AM 13.26 55.868 0.131 7.16 4.27 9.14
5/18/2021 1:15:00 AM 13.19 55.742 0.131 7.16 4.2 9.17
5/18/2021 1:30:00 AM 13.12 55.616 0.132 7.16 4.16 9.19
5/18/2021 1:45:00 AM 13.05 55.49 0.132 7.16 4.08 9.2
5/18/2021 2:00:00 AM 12.98 55.364 0.132 7.16 4.36 9.2
5/18/2021 2:15:00 AM 12.93 55.274 0.132 7.16 400.72 9.22
5/18/2021 2:30:00 AM 12.87 55.166 0.132 7.16 4.16 9.24
5/18/2021 2:45:00 AM 12.8 55.04 0.132 7.15 4.18 9.25
5/18/2021 3:00:00 AM 12.74 54.932 0.132 7.15 4.11 9.23
5/18/2021 3:15:00 AM 12.69 54.842 0.132 7.15 4.16 9.28
5/18/2021 3:30:00 AM 12.63 54.734 0.132 7.15 4.36 9.28
5/18/2021 3:45:00 AM 12.57 54.626 0.132 7.15 4.29 9.29
5/18/2021 4:00:00 AM 12.51 54.518 0.132 7.15 4.48 9.32
5/18/2021 4:15:00 AM 12.45 54.41 0.133 7.15 4.23 9.31
5/18/2021 4:30:00 AM 12.4 54.32 0.133 7.15 4.22 9.33
5/18/2021 4:45:00 AM 12.34 54.212 0.133 7.15 4.37 9.33
5/18/2021 5:00:00 AM 12.29 54.122 0.133 7.15 4.28 9.33
5/18/2021 5:15:00 AM 12.23 54.014 0.133 7.15 4.31 9.35
5/18/2021 5:30:00 AM 12.18 53.924 0.133 7.15 4.1 9.39
5/18/2021 5:45:00 AM 12.13 53.834 0.133 7.15 4.15 9.38
5/18/2021 6:00:00 AM 12.07 53.726 0.133 7.15 4.11 9.39
5/18/2021 6:15:00 AM 12.02 53.636 0.133 7.16 4.34 9.44
5/18/2021 6:30:00 AM 11.98 53.564 0.133 7.16 4.05 9.54
5/18/2021 6:45:00 AM 11.96 53.528 0.133 7.17 4.04 9.56
5/18/2021 7:00:00 AM 11.94 53.492 0.133 7.18 4.11 9.65
5/18/2021 7:15:00 AM 11.95 53.51 0.133 7.2 4.19 9.77
5/18/2021 7:30:00 AM 11.96 53.528 0.133 7.21 4.09 9.84
5/18/2021 7:45:00 AM 11.99 53.582 0.133 7.22 4.12 9.93
5/18/2021 8:00:00 AM 12.06 53.708 0.133 7.24 4.02 10.04
5/18/2021 8:15:00 AM 12.15 53.87 0.133 7.25 4.02 10.1
5/18/2021 8:30:00 AM 12.26 54.068 0.133 7.27 3.98 10.19
5/18/2021 8:45:00 AM 12.42 54.356 0.133 7.28 4.09 10.27
5/18/2021 9:00:00 AM 12.58 54.644 0.133 7.3 3.97 10.29
5/18/2021 9:15:00 AM 12.77 54.986 0.133 7.31 3.93 10.3
5/18/2021 9:30:00 AM 13 55.4 0.133 7.33 3.89 10.36
5/18/2021 9:45:00 AM 13.24 55.832 0.133 7.34 3.94 10.36
5/18/2021 10:00:00 AM 13.48 56.264 0.133 7.35 3.92 10.36
5/18/2021 10:15:00 AM 13.72 56.696 0.133 7.36 3.87 10.35
5/18/2021 10:30:00 AM 13.98 57.164 0.133 7.37 4.18 10.36
5/18/2021 10:45:00 AM 14.24 57.632 0.133 7.38 3.91 10.31
5/18/2021 11:00:00 AM 14.5 58.1 0.133 7.39 3.91 10.31
5/18/2021 11:15:00 AM 14.77 58.586 0.133 7.4 3.84 10.29
5/18/2021 11:30:00 AM 15.03 59.054 0.133 7.41 3.8 10.23
5/18/2021 11:45:00 AM 15.3 59.54 0.133 7.42 3.87 10.18
5/18/2021 12:00:00 PM 15.56 60.008 0.133 7.42 3.88 9.93
5/18/2021 12:15:00 PM 15.83 60.494 0.134 7.43 3.83 10.17
5/18/2021 12:30:00 PM 16.08 60.944 0.134 7.44 3.87 10.12
5/18/2021 12:45:00 PM 16.3 61.34 0.134 7.45 3.81 10.09
5/18/2021 1:00:00 PM 16.54 61.772 0.134 7.46 3.86 10.05
5/18/2021 1:15:00 PM 16.74 62.132 0.134 7.46 3.91 10.02
5/18/2021 1:30:00 PM 16.96 62.528 0.134 7.47 4.05 10
5/18/2021 1:45:00 PM 17.22 62.996 0.134 7.48 3.88 9.96
5/18/2021 2:00:00 PM 17.36 63.248 0.134 7.48 3.9 9.94
5/18/2021 2:15:00 PM 17.54 63.572 0.134 7.48 3.92 9.89
5/18/2021 2:30:00 PM 17.77 63.986 0.134 7.49 3.81 9.87
5/18/2021 2:45:00 PM 17.87 64.166 0.134 7.49 3.81 9.81
5/18/2021 3:00:00 PM 17.99 64.382 0.134 7.49 3.86 9.76
5/18/2021 3:15:00 PM 18.11 64.598 0.134 7.5 3.93 9.74
5/18/2021 3:30:00 PM 18.17 64.706 0.134 7.5 3.91 9.72
5/18/2021 3:45:00 PM 18.23 64.814 0.134 7.49 3.91 9.66
5/18/2021 4:00:00 PM 18.29 64.922 0.134 7.49 3.88 9.66
5/18/2021 4:15:00 PM 18.32 64.976 0.134 7.49 3.81 9.61
5/18/2021 4:30:00 PM 18.31 64.958 0.134 7.49 3.79 9.58
5/18/2021 4:45:00 PM 18.29 64.922 0.134 7.49 3.8 9.54
5/18/2021 5:00:00 PM 18.27 64.886 0.135 7.49 3.9 9.52
5/18/2021 5:15:00 PM 18.22 64.796 0.135 7.48 3.86 9.52
5/18/2021 5:30:00 PM 18.17 64.706 0.135 7.48 3.87 9.52
5/18/2021 5:45:00 PM 18.05 64.49 0.135 7.47 4.04 9.47
5/18/2021 6:00:00 PM 17.87 64.166 0.135 7.46 3.85 9.42
5/18/2021 6:15:00 PM 17.67 63.806 0.135 7.45 3.89 9.36
5/18/2021 6:30:00 PM 17.51 63.518 0.135 7.44 3.75 9.4
5/18/2021 6:45:00 PM 17.32 63.176 0.135 7.43 4.02 9.34
5/18/2021 7:00:00 PM 17.08 62.744 0.135 7.41 4.19 9.33
5/18/2021 7:15:00 PM 16.88 62.384 0.135 7.39 5.09 9.28
5/18/2021 7:30:00 PM 16.68 62.024 0.135 7.37 4.68 9.11
5/18/2021 7:45:00 PM 16.49 61.682 0.136 7.35 4.41 9.16
5/18/2021 8:00:00 PM 16.3 61.34 0.136 7.32 4.03 9.09
5/18/2021 8:15:00 PM 16.13 61.034 0.136 7.3 3.9 8.98
5/18/2021 8:30:00 PM 15.98 60.764 0.136 7.28 3.9 8.91
5/18/2021 8:45:00 PM 15.81 60.458 0.136 7.26 4.1 8.85
5/18/2021 9:00:00 PM 15.67 60.206 0.136 7.24 3.93 8.8
5/18/2021 9:15:00 PM 15.52 59.936 0.137 7.22 4.21 8.73
5/18/2021 9:30:00 PM 15.4 59.72 0.137 7.21 4.19 8.71
5/18/2021 9:45:00 PM 15.28 59.504 0.137 7.2 4.31 8.71
5/18/2021 10:00:00 PM 15.16 59.288 0.137 7.19 4.07 8.61
5/18/2021 10:15:00 PM 15.04 59.072 0.137 7.18 3.97 8.68
5/18/2021 10:30:00 PM 14.94 58.892 0.137 7.18 4.02 8.69
5/18/2021 10:45:00 PM 14.83 58.694 0.137 7.17 3.94 8.7
5/18/2021 11:00:00 PM 14.73 58.514 0.137 7.16 3.95 8.73
5/18/2021 11:15:00 PM 14.65 58.37 0.137 7.17 4.19 8.7
5/18/2021 11:30:00 PM 14.56 58.208 0.138 7.16 3.98 8.75
5/18/2021 11:45:00 PM 14.46 58.028 0.138 7.16 4.09 8.77
5/19/2021 12:00:00 AM 14.38 57.884 0.138 7.15 4.13 8.76
5/19/2021 12:15:00 AM 14.31 57.758 0.138 7.15 4.08 8.74
5/19/2021 12:30:00 AM 14.23 57.614 0.138 7.15 4.01 8.79
5/19/2021 12:45:00 AM 14.16 57.488 0.138 7.15 4.12 8.79
5/19/2021 1:00:00 AM 14.08 57.344 0.138 7.15 4.03 8.8
5/19/2021 1:15:00 AM 14.01 57.218 0.138 7.15 4.07 8.82
5/19/2021 1:30:00 AM 13.95 57.11 0.138 7.15 4.06 8.85
5/19/2021 1:45:00 AM 13.88 56.984 0.139 7.15 3.95 8.85
5/19/2021 2:00:00 AM 13.82 56.876 0.139 7.15 3.93 8.83
5/19/2021 2:15:00 AM 13.75 56.75 0.139 7.14 4.1 8.87
5/19/2021 2:30:00 AM 13.7 56.66 0.139 7.14 3.96 8.89
5/19/2021 2:45:00 AM 13.63 56.534 0.139 7.14 4.08 8.91
5/19/2021 3:00:00 AM 13.58 56.444 0.139 7.14 4.18 8.85
5/19/2021 3:15:00 AM 13.53 56.354 0.139 7.14 4.05 8.92
5/19/2021 3:30:00 AM 13.46 56.228 0.139 7.14 4.12 8.92
5/19/2021 3:45:00 AM 13.42 56.156 0.139 7.14 3.98 8.92
5/19/2021 4:00:00 AM 13.36 56.048 0.139 7.14 4.1 8.96
5/19/2021 4:15:00 AM 13.3 55.94 0.139 7.14 3.99 8.95
5/19/2021 4:30:00 AM 13.25 55.85 0.14 7.14 4.14 8.97
5/19/2021 4:45:00 AM 13.2 55.76 0.14 7.14 4.1 8.98
5/19/2021 5:00:00 AM 13.15 55.67 0.14 7.14 4.05 9.01
5/19/2021 5:15:00 AM 13.1 55.58 0.14 7.14 4.12 9
5/19/2021 5:30:00 AM 13.05 55.49 0.14 7.14 4.15 9.02
5/19/2021 5:45:00 AM 13 55.4 0.14 7.13 4.06 9.03
5/19/2021 6:00:00 AM 12.96 55.328 0.14 7.14 5.38 9.03
5/19/2021 6:15:00 AM 12.92 55.256 0.14 7.14 4.09 9.08
5/19/2021 6:30:00 AM 12.88 55.184 0.14 7.15 3.98 9.11
5/19/2021 6:45:00 AM 12.86 55.148 0.14 7.15 4 9.24
5/19/2021 7:00:00 AM 12.85 55.13 0.14 7.17 4.08 9.31
5/19/2021 7:15:00 AM 12.86 55.148 0.14 7.18 3.93 9.41
5/19/2021 7:30:00 AM 12.9 55.22 0.14 7.2 3.9 9.48
5/19/2021 7:45:00 AM 12.95 55.31 0.14 7.21 3.91 9.64
5/19/2021 8:00:00 AM 13.03 55.454 0.14 7.22 4.02 9.62
5/19/2021 8:15:00 AM 13.12 55.616 0.14 7.24 3.87 9.75
5/19/2021 8:30:00 AM 13.26 55.868 0.14 7.25 3.76 9.84
5/19/2021 8:45:00 AM 13.36 56.048 0.14 7.27 3.91 9.86
5/19/2021 9:00:00 AM 13.53 56.354 0.14 7.29 3.78 9.98
5/19/2021 9:15:00 AM 13.76 56.768 0.14 7.3 3.88 10.09
5/19/2021 9:30:00 AM 13.98 57.164 0.14 7.32 3.75 10.1
5/19/2021 9:45:00 AM 14.22 57.596 0.14 7.33 3.77 10.13
5/19/2021 10:00:00 AM 14.46 58.028 0.14 7.34 3.83 10.11
5/19/2021 10:15:00 AM 14.71 58.478 0.14 7.35 3.88 10.12
5/19/2021 10:30:00 AM 14.99 58.982 0.14 7.36 3.73 10.04
5/19/2021 10:45:00 AM 15.26 59.468 0.14 7.37 3.78 10.08
5/19/2021 11:00:00 AM 15.53 59.954 0.14 7.38 3.78 10.06
5/19/2021 11:15:00 AM 15.79 60.422 0.14 7.39 3.67 10.05
5/19/2021 11:30:00 AM 16.07 60.926 0.14 7.4 3.74 10.06
5/19/2021 11:45:00 AM 16.35 61.43 0.14 7.41 3.72 10.01
5/19/2021 12:00:00 PM 16.66 61.988 0.14 7.42 3.77 9.99
5/19/2021 12:15:00 PM 16.93 62.474 0.14 7.43 3.72 9.95
5/19/2021 12:30:00 PM 17.16 62.888 0.14 7.43 3.77 9.86
5/19/2021 12:45:00 PM 17.43 63.374 0.14 7.44 3.71 9.89
5/19/2021 1:00:00 PM 17.7 63.86 0.14 7.45 3.73 9.86
5/19/2021 1:15:00 PM 17.95 64.31 0.14 7.46 3.67 9.79
5/19/2021 1:30:00 PM 18.15 64.67 0.14 7.46 3.84 9.77
5/19/2021 1:45:00 PM 18.36 65.048 0.14 7.47 3.68 9.77
5/19/2021 2:00:00 PM 18.54 65.372 0.14 7.47 3.74 9.71
5/19/2021 2:15:00 PM 18.74 65.732 0.14 7.48 3.73 9.71
5/19/2021 2:30:00 PM 18.91 66.038 0.14 7.48 3.83 9.67
5/19/2021 2:45:00 PM 19.07 66.326 0.14 7.49 3.76 9.65
5/19/2021 3:00:00 PM 19.21 66.578 0.14 7.49 3.81 9.6
5/19/2021 3:15:00 PM 19.35 66.83 0.14 7.49 3.82 9.53
5/19/2021 3:30:00 PM 19.43 66.974 0.14 7.49 3.64 9.5
5/19/2021 3:45:00 PM 19.46 67.028 0.14 7.49 3.67 9.46
5/19/2021 4:00:00 PM 19.55 67.19 0.14 7.49 3.69 9.46
5/19/2021 4:15:00 PM 19.58 67.244 0.141 7.5 3.71 9.45
5/19/2021 4:30:00 PM 19.58 67.244 0.141 7.49 3.69 9.42
5/19/2021 4:45:00 PM 19.6 67.28 0.141 7.49 3.73 9.39
5/19/2021 5:00:00 PM 19.56 67.208 0.141 7.49 3.96 9.34
5/19/2021 5:15:00 PM 19.43 66.974 0.141 7.48 4.16 9.29
5/19/2021 5:30:00 PM 19.31 66.758 0.141 7.47 3.79 9.22
5/19/2021 5:45:00 PM 19.18 66.524 0.141 7.46 3.71 9.24
5/19/2021 6:00:00 PM 19.02 66.236 0.141 7.45 3.82 9.19
5/19/2021 6:15:00 PM 18.86 65.948 0.141 7.43 3.66 9.14
5/19/2021 6:30:00 PM 18.75 65.75 0.141 7.42 3.57 9.15
5/19/2021 6:45:00 PM 18.63 65.534 0.142 7.42 3.62 9.11
5/19/2021 7:00:00 PM 18.47 65.246 0.142 7.41 3.6 9.12
5/19/2021 7:15:00 PM 18.3 64.94 0.142 7.39 3.85 9.05
5/19/2021 7:30:00 PM 18.16 64.688 0.142 7.37 4.05 8.91
5/19/2021 7:45:00 PM 17.95 64.31 0.142 7.34 3.64 8.88
5/19/2021 8:00:00 PM 17.76 63.968 0.142 7.31 3.89 8.77
5/19/2021 8:15:00 PM 17.57 63.626 0.142 7.29 3.74 8.62
5/19/2021 8:30:00 PM 17.41 63.338 0.143 7.26 3.97 8.57
5/19/2021 8:45:00 PM 17.25 63.05 0.143 7.24 4.03 8.47
5/19/2021 9:00:00 PM 17.08 62.744 0.143 7.22 3.9 8.36
5/19/2021 9:15:00 PM 16.92 62.456 0.143 7.2 3.97 8.34
5/19/2021 9:30:00 PM 16.81 62.258 0.143 7.19 4.52 8.31
5/19/2021 9:45:00 PM 16.68 62.024 0.143 7.18 3.94 8.26
5/19/2021 10:00:00 PM 16.55 61.79 0.143 7.17 4.12 8.22
5/19/2021 10:15:00 PM 16.43 61.574 0.143 7.17 3.99 8.22
5/19/2021 10:30:00 PM 16.31 61.358 0.144 7.16 4.05 8.26
5/19/2021 10:45:00 PM 16.21 61.178 0.144 7.15 3.9 8.26
5/19/2021 11:00:00 PM 16.11 60.998 0.144 7.15 3.98 8.27
5/19/2021 11:15:00 PM 16.01 60.818 0.144 7.15 4.04 8.28
5/19/2021 11:30:00 PM 15.92 60.656 0.144 7.14 3.83 8.29
5/19/2021 11:45:00 PM 15.81 60.458 0.144 7.14 3.78 8.28
5/20/2021 12:00:00 AM 15.72 60.296 0.144 7.14 3.84 8.3
5/20/2021 12:15:00 AM 15.63 60.134 0.144 7.14 4.02 8.31
5/20/2021 12:30:00 AM 15.54 59.972 0.144 7.13 3.88 8.36
5/20/2021 12:45:00 AM 15.47 59.846 0.145 7.13 3.92 8.34
5/20/2021 1:00:00 AM 15.39 59.702 0.145 7.13 4.04 8.33
5/20/2021 1:15:00 AM 15.3 59.54 0.145 7.13 3.95 8.37
5/20/2021 1:30:00 AM 15.22 59.396 0.145 7.13 3.74 8.39
5/20/2021 1:45:00 AM 15.15 59.27 0.145 7.12 3.83 8.4
5/20/2021 2:00:00 AM 15.08 59.144 0.145 7.13 3.93 8.41
5/20/2021 2:15:00 AM 15.02 59.036 0.145 7.13 3.84 8.42
5/20/2021 2:30:00 AM 14.94 58.892 0.145 7.13 3.8 8.47
5/20/2021 2:45:00 AM 14.88 58.784 0.145 7.13 4.11 8.44
5/20/2021 3:00:00 AM 14.81 58.658 0.145 7.12 4.15 8.48
5/20/2021 3:15:00 AM 14.76 58.568 0.146 7.12 3.71 8.41
5/20/2021 3:30:00 AM 14.71 58.478 0.146 7.12 3.92 8.41
5/20/2021 3:45:00 AM 14.66 58.388 0.146 7.12 3.79 8.5
5/20/2021 4:00:00 AM 14.6 58.28 0.146 7.12 3.69 8.48
5/20/2021 4:15:00 AM 14.56 58.208 0.146 7.12 3.66 8.5
5/20/2021 4:30:00 AM 14.52 58.136 0.146 7.12 3.94 8.52
5/20/2021 4:45:00 AM 14.49 58.082 0.146 7.12 3.8 8.56
5/20/2021 5:00:00 AM 14.45 58.01 0.146 7.12 3.8 8.53
5/20/2021 5:15:00 AM 14.43 57.974 0.146 7.12 3.69 8.51
5/20/2021 5:30:00 AM 14.4 57.92 0.146 7.12 3.82 8.53
5/20/2021 5:45:00 AM 14.37 57.866 0.146 7.12 3.7 8.54
5/20/2021 6:00:00 AM 14.34 57.812 0.146 7.12 3.67 8.54
5/20/2021 6:15:00 AM 14.32 57.776 0.147 7.12 3.66 8.61
5/20/2021 6:30:00 AM 14.29 57.722 0.147 7.13 3.8 8.64
5/20/2021 6:45:00 AM 14.28 57.704 0.147 7.14 3.7 8.67
5/20/2021 7:00:00 AM 14.27 57.686 0.147 7.15 3.61 8.8
5/20/2021 7:15:00 AM 14.27 57.686 0.147 7.16 3.86 8.91
5/20/2021 7:30:00 AM 14.3 57.74 0.146 7.17 3.65 8.99
5/20/2021 7:45:00 AM 14.35 57.83 0.146 7.19 3.63 9.16
5/20/2021 8:00:00 AM 14.43 57.974 0.146 7.21 3.59 9.25
5/20/2021 8:15:00 AM 14.54 58.172 0.146 7.23 3.65 9.37
5/20/2021 8:30:00 AM 14.67 58.406 0.146 7.24 3.61 9.46
5/20/2021 8:45:00 AM 14.81 58.658 0.146 7.26 3.68 9.58
5/20/2021 9:00:00 AM 14.99 58.982 0.146 7.28 3.67 9.68
5/20/2021 9:15:00 AM 15.2 59.36 0.146 7.29 3.61 9.63
5/20/2021 9:30:00 AM 15.46 59.828 0.146 7.31 3.57 9.76
5/20/2021 9:45:00 AM 15.69 60.242 0.146 7.33 3.53 9.84
5/20/2021 10:00:00 AM 15.9 60.62 0.146 7.34 3.53 9.78
5/20/2021 10:15:00 AM 16.16 61.088 0.146 7.36 3.55 9.85
5/20/2021 10:30:00 AM 16.42 61.556 0.146 7.37 3.59 9.78
5/20/2021 10:45:00 AM 16.69 62.042 0.146 7.37 3.72 9.82
5/20/2021 11:00:00 AM 16.95 62.51 0.146 7.38 3.61 9.82
5/20/2021 11:15:00 AM 17.24 63.032 0.146 7.39 3.7 9.71
5/20/2021 11:30:00 AM 17.53 63.554 0.146 7.4 3.86 9.7
5/20/2021 11:45:00 AM 17.81 64.058 0.146 7.41 3.64 9.74
5/20/2021 12:00:00 PM 18.11 64.598 0.147 7.42 3.72 9.71
5/20/2021 12:15:00 PM 18.26 64.868 0.147 7.42 3.78 9.6
5/20/2021 12:30:00 PM 18.38 65.084 0.147 7.42 3.61 9.58
5/20/2021 12:45:00 PM 18.58 65.444 0.147 7.43 3.87 9.56
5/20/2021 1:00:00 PM 18.92 66.056 0.147 7.43 3.75 9.59
5/20/2021 1:15:00 PM 19.02 66.236 0.147 7.44 3.56 9.53
5/20/2021 1:30:00 PM 19.13 66.434 0.147 7.44 3.7 9.53
5/20/2021 1:45:00 PM 19.33 66.794 0.147 7.45 3.56 9.48
5/20/2021 2:00:00 PM 19.54 67.172 0.147 7.46 3.67 9.54
5/20/2021 2:15:00 PM 19.6 67.28 0.147 7.46 3.68 9.4
5/20/2021 2:30:00 PM 19.57 67.226 0.147 7.45 3.55 9.36
5/20/2021 2:45:00 PM 19.51 67.118 0.147 7.44 3.58 9.26
5/20/2021 3:00:00 PM 19.53 67.154 0.147 7.44 3.69 9.27
5/20/2021 3:15:00 PM 19.75 67.55 0.147 7.45 3.65 9.31
5/20/2021 3:30:00 PM 20.01 68.018 0.147 7.46 3.65 9.28
5/20/2021 3:45:00 PM 20.19 68.342 0.147 7.46 3.72 9.3
5/20/2021 4:00:00 PM 20.25 68.45 0.147 7.46 4.26 9.28
5/20/2021 4:15:00 PM 20.29 68.522 0.147 7.46 3.81 9.24
5/20/2021 4:30:00 PM 20.35 68.63 0.147 7.46 3.6 9.22
5/20/2021 4:45:00 PM 20.41 68.738 0.148 7.46 3.68 9.16
5/20/2021 5:00:00 PM 20.46 68.828 0.148 7.46 3.53 9.12
5/20/2021 5:15:00 PM 20.4 68.72 0.148 7.46 3.58 9.09
5/20/2021 5:30:00 PM 20.34 68.612 0.148 7.45 3.56 9.07
5/20/2021 5:45:00 PM 20.26 68.468 0.148 7.44 3.55 8.97
5/20/2021 6:00:00 PM 20.14 68.252 0.148 7.43 3.71 8.89
5/20/2021 6:15:00 PM 19.95 67.91 0.148 7.42 3.65 8.93
5/20/2021 6:30:00 PM 19.76 67.568 0.148 7.4 3.55 8.82
5/20/2021 6:45:00 PM 19.53 67.154 0.148 7.38 3.66 8.76
5/20/2021 7:00:00 PM 19.37 66.866 0.149 7.36 3.62 8.68
5/20/2021 7:15:00 PM 19.13 66.434 0.149 7.35 3.63 8.65
5/20/2021 7:30:00 PM 18.95 66.11 0.149 7.33 3.91 8.54
5/20/2021 7:45:00 PM 18.77 65.786 0.149 7.31 3.82 8.55
5/20/2021 8:00:00 PM 18.59 65.462 0.149 7.29 3.7 8.47
5/20/2021 8:15:00 PM 18.38 65.084 0.149 7.27 3.64 8.35
5/20/2021 8:30:00 PM 18.19 64.742 0.149 7.25 3.65 8.29
5/20/2021 8:45:00 PM 18.03 64.454 0.149 7.23 3.95 8.22
5/20/2021 9:00:00 PM 17.92 64.256 0.15 7.21 3.9 8.14
5/20/2021 9:15:00 PM 17.74 63.932 0.15 7.2 3.83 8.04
5/20/2021 9:30:00 PM 17.61 63.698 0.15 7.19 3.71 8.05
5/20/2021 9:45:00 PM 17.49 63.482 0.15 7.18 3.86 7.98
5/20/2021 10:00:00 PM 17.36 63.248 0.15 7.17 3.9 7.94
5/20/2021 10:15:00 PM 17.23 63.014 0.15 7.16 3.72 7.96
5/20/2021 10:30:00 PM 17.12 62.816 0.15 7.15 4.2 7.96
5/20/2021 10:45:00 PM 17.03 62.654 0.15 7.15 3.95 7.96
5/20/2021 11:00:00 PM 16.93 62.474 0.151 7.15 3.99 7.97
5/20/2021 11:15:00 PM 16.84 62.312 0.151 7.14 3.86 7.95
5/20/2021 11:30:00 PM 16.75 62.15 0.151 7.14 3.75 7.91
5/20/2021 11:45:00 PM 16.67 62.006 0.151 7.13 3.84 7.93
5/21/2021 12:00:00 AM 16.58 61.844 0.151 7.13 3.87 7.96
5/21/2021 12:15:00 AM 16.51 61.718 0.151 7.13 3.92 7.96
5/21/2021 12:30:00 AM 16.42 61.556 0.151 7.13 3.86 7.99
5/21/2021 12:45:00 AM 16.36 61.448 0.151 7.13 3.8 7.97
5/21/2021 1:00:00 AM 16.29 61.322 0.151 7.12 3.73 7.97
5/21/2021 1:15:00 AM 16.21 61.178 0.152 7.12 3.76 8.04
5/21/2021 1:30:00 AM 16.15 61.07 0.152 7.12 3.76 7.99
5/21/2021 1:45:00 AM 16.08 60.944 0.152 7.12 3.9 8.01
5/21/2021 2:00:00 AM 16.02 60.836 0.152 7.12 3.9 8.02
5/21/2021 2:15:00 AM 15.95 60.71 0.152 7.12 3.7 8.02
5/21/2021 2:30:00 AM 15.89 60.602 0.152 7.12 3.74 8.07
5/21/2021 2:45:00 AM 15.83 60.494 0.152 7.12 3.88 8.05
5/21/2021 3:00:00 AM 15.78 60.404 0.152 7.11 3.86 8.05
5/21/2021 3:15:00 AM 15.71 60.278 0.152 7.11 3.83 8.12
5/21/2021 3:30:00 AM 15.67 60.206 0.152 7.11 3.71 8.1
5/21/2021 3:45:00 AM 15.6 60.08 0.153 7.11 3.72 8.11
5/21/2021 4:00:00 AM 15.55 59.99 0.153 7.11 3.83 8.11
5/21/2021 4:15:00 AM 15.5 59.9 0.152 7.11 3.79 8.16
5/21/2021 4:30:00 AM 15.47 59.846 0.153 7.11 3.76 8.11
5/21/2021 4:45:00 AM 15.45 59.81 0.153 7.11 3.74 8.12
5/21/2021 5:00:00 AM 15.42 59.756 0.153 7.11 3.64 8.12
5/21/2021 5:15:00 AM 15.39 59.702 0.153 7.11 3.58 8.15
5/21/2021 5:30:00 AM 15.34 59.612 0.153 7.11 3.62 8.1
5/21/2021 5:45:00 AM 15.3 59.54 0.153 7.11 3.66 8.14
5/21/2021 6:00:00 AM 15.26 59.468 0.153 7.11 3.7 8.18
5/21/2021 6:15:00 AM 15.22 59.396 0.153 7.11 3.55 8.21
5/21/2021 6:30:00 AM 15.2 59.36 0.154 7.11 3.48 8.25
5/21/2021 6:45:00 AM 15.17 59.306 0.154 7.12 3.51 8.34
5/21/2021 7:00:00 AM 15.16 59.288 0.154 7.14 3.53 8.38
5/21/2021 7:15:00 AM 15.17 59.306 0.154 7.15 3.64 8.39
5/21/2021 7:30:00 AM 15.21 59.378 0.153 7.16 3.59 8.61
5/21/2021 7:45:00 AM 15.27 59.486 0.153 7.18 3.63 8.77
5/21/2021 8:00:00 AM 15.35 59.63 0.153 7.19 3.53 8.91
5/21/2021 8:15:00 AM 15.45 59.81 0.153 7.21 3.49 9.05
5/21/2021 8:30:00 AM 15.57 60.026 0.153 7.23 3.6 9.14
5/21/2021 8:45:00 AM 15.7 60.26 0.153 7.25 3.57 9.19
5/21/2021 9:00:00 AM 15.85 60.53 0.153 7.26 3.92 9.29
5/21/2021 9:15:00 AM 16.05 60.89 0.153 7.28 3.57 9.41
5/21/2021 9:30:00 AM 16.28 61.304 0.153 7.3 3.57 9.43
5/21/2021 9:45:00 AM 16.5 61.7 0.153 7.32 3.51 9.45
5/21/2021 10:00:00 AM 16.75 62.15 0.153 7.33 3.66 9.52
5/21/2021 10:15:00 AM 17 62.6 0.153 7.35 3.56 9.54
5/21/2021 10:30:00 AM 17.26 63.068 0.153 7.36 3.55 9.52
5/21/2021 10:45:00 AM 17.54 63.572 0.153 7.37 3.62 9.52
5/21/2021 11:00:00 AM 17.8 64.04 0.153 7.38 3.75 9.61
5/21/2021 11:15:00 AM 18.08 64.544 0.153 7.39 3.92 9.55
5/21/2021 11:30:00 AM 18.34 65.012 0.153 7.4 4.15 9.48
5/21/2021 11:45:00 AM 18.61 65.498 0.153 7.41 3.96 9.55
5/21/2021 12:00:00 PM 18.9 66.02 0.153 7.42 3.67 9.47
5/21/2021 12:15:00 PM 19.16 66.488 0.153 7.42 3.72 9.67
5/21/2021 12:30:00 PM 19.44 66.992 0.153 7.43 3.77 9.5
5/21/2021 12:45:00 PM 19.65 67.37 0.154 7.43 3.93 9.43
5/21/2021 1:00:00 PM 19.85 67.73 0.154 7.44 4.05 9.48
5/21/2021 1:15:00 PM 20.06 68.108 0.154 7.44 3.97 9.5
5/21/2021 1:30:00 PM 20.24 68.432 0.154 7.45 3.77 9.41
5/21/2021 1:45:00 PM 20.42 68.756 0.154 7.45 3.73 9.32
5/21/2021 2:00:00 PM 20.55 68.99 0.154 7.46 3.71 9.28
5/21/2021 2:15:00 PM 20.68 69.224 0.154 7.46 3.6 9.34
5/21/2021 2:30:00 PM 20.77 69.386 0.154 7.47 3.58 9.25
5/21/2021 2:45:00 PM 20.77 69.386 0.154 7.46 3.44 9.3
5/21/2021 3:00:00 PM 20.78 69.404 0.154 7.46 3.73 9.18
5/21/2021 3:15:00 PM 20.8 69.44 0.154 7.46 3.73 9.15
5/21/2021 3:30:00 PM 20.85 69.53 0.154 7.47 4.1 9.14
5/21/2021 3:45:00 PM 20.9 69.62 0.154 7.47 3.52 9.22
5/21/2021 4:00:00 PM 20.92 69.656 0.154 7.47 3.62 9.15
5/21/2021 4:15:00 PM 20.91 69.638 0.154 7.46 3.55 9.12
5/21/2021 4:30:00 PM 20.92 69.656 0.154 7.46 3.5 9.1
5/21/2021 4:45:00 PM 20.91 69.638 0.154 7.46 3.51 9.02
5/21/2021 5:00:00 PM 20.89 69.602 0.154 7.45 3.54 9.11
5/21/2021 5:15:00 PM 20.79 69.422 0.154 7.45 3.56 8.98
5/21/2021 5:30:00 PM 20.72 69.296 0.154 7.44 3.53 8.96
5/21/2021 5:45:00 PM 20.64 69.152 0.154 7.43 3.56 8.92
5/21/2021 6:00:00 PM 20.52 68.936 0.154 7.42 3.47 8.82
5/21/2021 6:15:00 PM 20.36 68.648 0.155 7.41 3.57 8.78
5/21/2021 6:30:00 PM 20.18 68.324 0.155 7.39 3.49 8.69
5/21/2021 6:45:00 PM 19.99 67.982 0.155 7.37 3.49 8.73
5/21/2021 7:00:00 PM 19.78 67.604 0.155 7.35 3.5 8.56
5/21/2021 7:15:00 PM 19.61 67.298 0.155 7.34 3.54 8.65
5/21/2021 7:30:00 PM 19.45 67.01 0.155 7.32 3.44 8.51
5/21/2021 7:45:00 PM 19.28 66.704 0.155 7.31 3.79 8.44
5/21/2021 8:00:00 PM 19.11 66.398 0.155 7.28 3.58 8.4
5/21/2021 8:15:00 PM 18.97 66.146 0.156 7.27 3.57 8.23
5/21/2021 8:30:00 PM 18.77 65.786 0.156 7.24 3.99 8.03
5/21/2021 8:45:00 PM 18.6 65.48 0.156 7.22 3.71 8.07
5/21/2021 9:00:00 PM 18.44 65.192 0.156 7.2 3.51 7.96
5/21/2021 9:15:00 PM 18.31 64.958 0.156 7.18 3.66 7.87
5/21/2021 9:30:00 PM 18.18 64.724 0.157 7.17 3.59 7.8
5/21/2021 9:45:00 PM 18.04 64.472 0.157 7.15 3.65 7.76
5/21/2021 10:00:00 PM 17.91 64.238 0.157 7.14 3.62 7.78
5/21/2021 10:15:00 PM 17.8 64.04 0.157 7.13 3.6 7.72
5/21/2021 10:30:00 PM 17.68 63.824 0.157 7.13 3.62 7.64
5/21/2021 10:45:00 PM 17.62 63.716 0.157 7.12 3.61 7.62
5/21/2021 11:00:00 PM 17.51 63.518 0.157 7.12 3.68 7.69
5/21/2021 11:15:00 PM 17.42 63.356 0.158 7.11 3.56 7.64
5/21/2021 11:30:00 PM 17.35 63.23 0.158 7.11 3.57 7.62
5/21/2021 11:45:00 PM 17.28 63.104 0.158 7.11 3.77 7.61
5/22/2021 12:00:00 AM 17.19 62.942 0.158 7.1 3.9 7.68
5/22/2021 12:15:00 AM 17.13 62.834 0.158 7.1 4.04 7.63
5/22/2021 12:30:00 AM 17.05 62.69 0.158 7.1 3.65 7.72
5/22/2021 12:45:00 AM 17 62.6 0.158 7.1 3.52 7.68
5/22/2021 1:00:00 AM 16.94 62.492 0.158 7.09 3.72 7.69
5/22/2021 1:15:00 AM 16.9 62.42 0.158 7.09 3.67 7.61
5/22/2021 1:30:00 AM 16.85 62.33 0.158 7.09 3.72 7.6
5/22/2021 1:45:00 AM 16.8 62.24 0.159 7.09 3.71 7.66
5/22/2021 2:00:00 AM 16.72 62.096 0.159 7.09 3.6 7.6
5/22/2021 2:15:00 AM 16.67 62.006 0.159 7.09 3.75 7.72
5/22/2021 2:30:00 AM 16.62 61.916 0.159 7.09 3.7 7.66
5/22/2021 2:45:00 AM 16.55 61.79 0.159 7.09 3.77 7.69
5/22/2021 3:00:00 AM 16.51 61.718 0.159 7.09 3.66 7.75
5/22/2021 3:15:00 AM 16.47 61.646 0.159 7.09 3.86 7.7
5/22/2021 3:30:00 AM 16.43 61.574 0.159 7.09 3.7 7.72
5/22/2021 3:45:00 AM 16.4 61.52 0.16 7.09 3.55 7.68
5/22/2021 4:00:00 AM 16.36 61.448 0.16 7.09 3.6 7.79
5/22/2021 4:15:00 AM 16.31 61.358 0.16 7.08 3.7 7.72
5/22/2021 4:30:00 AM 16.26 61.268 0.16 7.08 3.93 7.78
5/22/2021 4:45:00 AM 16.21 61.178 0.16 7.08 3.68 7.79
5/22/2021 5:00:00 AM 16.16 61.088 0.16 7.08 3.91 7.73
5/22/2021 5:15:00 AM 16.11 60.998 0.16 7.08 4.59 7.65
5/22/2021 5:30:00 AM 16.07 60.926 0.16 7.08 3.65 7.71
5/22/2021 5:45:00 AM 16.04 60.872 0.16 7.08 3.66 7.65
5/22/2021 6:00:00 AM 15.99 60.782 0.16 7.08 3.67 7.78
5/22/2021 6:15:00 AM 15.96 60.728 0.16 7.09 3.67 7.73
5/22/2021 6:30:00 AM 15.93 60.674 0.16 7.09 3.7 7.92
5/22/2021 6:45:00 AM 15.91 60.638 0.161 7.1 3.83 7.9
5/22/2021 7:00:00 AM 15.92 60.656 0.16 7.11 3.61 8.1
5/22/2021 7:15:00 AM 15.93 60.674 0.161 7.11 3.75 8.04
5/22/2021 7:30:00 AM 15.97 60.746 0.161 7.13 3.66 8.12
5/22/2021 7:45:00 AM 16.02 60.836 0.16 7.15 3.79 8.48
5/22/2021 8:00:00 AM 16.06 60.908 0.16 7.16 3.62 8.38
5/22/2021 8:15:00 AM 16.11 60.998 0.16 7.18 3.52 8.6
5/22/2021 8:30:00 AM 16.17 61.106 0.16 7.19 3.61 8.64
5/22/2021 8:45:00 AM 16.27 61.286 0.16 7.21 3.49 8.75
5/22/2021 9:00:00 AM 16.36 61.448 0.16 7.22 3.39 8.95
5/22/2021 9:15:00 AM 16.51 61.718 0.16 7.24 3.29 9.15
5/22/2021 9:30:00 AM 16.67 62.006 0.16 7.26 3.49 9.28
5/22/2021 9:45:00 AM 16.82 62.276 0.16 7.28 3.52 9.22
5/22/2021 10:00:00 AM 16.97 62.546 0.16 7.29 3.62 9.23
5/22/2021 10:15:00 AM 17.22 62.996 0.16 7.3 3.79 9.42
5/22/2021 10:30:00 AM 17.53 63.554 0.16 7.32 4.19 9.39
5/22/2021 10:45:00 AM 17.86 64.148 0.16 7.34 4.74 9.45
5/22/2021 11:00:00 AM 18.18 64.724 0.16 7.35 3.66 9.4
5/22/2021 11:15:00 AM 18.47 65.246 0.16 7.37 3.59 9.34
5/22/2021 11:30:00 AM 18.76 65.768 0.16 7.38 3.6 9.34
5/22/2021 11:45:00 AM 18.91 66.038 0.16 7.39 3.85 9.38
5/22/2021 12:00:00 PM 19.11 66.398 0.16 7.4 3.68 9.33
5/22/2021 12:15:00 PM 19.34 66.812 0.16 7.41 3.56 9.39
5/22/2021 12:30:00 PM 19.52 67.136 0.16 7.42 3.46 9.27
5/22/2021 12:45:00 PM 19.63 67.334 0.16 7.42 3.48 9.41
5/22/2021 1:00:00 PM 19.67 67.406 0.16 7.43 3.66 9.27
5/22/2021 1:15:00 PM 19.67 67.406 0.16 7.43 3.4 9.29
5/22/2021 1:30:00 PM 19.69 67.442 0.16 7.42 3.51 9.13
5/22/2021 1:45:00 PM 19.73 67.514 0.16 7.43 3.4 9.09
5/22/2021 2:00:00 PM 19.82 67.676 0.16 7.44 3.42 9.25
5/22/2021 2:15:00 PM 19.9 67.82 0.16 7.43 3.44 9.2
5/22/2021 2:30:00 PM 19.95 67.91 0.16 7.43 3.41 9.21
5/22/2021 2:45:00 PM 19.96 67.92799 0.16 7.44 3.38 9.16
5/22/2021 3:00:00 PM 19.98 67.964 0.16 7.45 3.37 9.11
5/22/2021 3:15:00 PM 20 68 0.16 7.45 3.48 9.16
5/22/2021 3:30:00 PM 20.02 68.036 0.16 7.44 3.35 9.13
5/22/2021 3:45:00 PM 20.03 68.054 0.161 7.44 3.59 9.14
5/22/2021 4:00:00 PM 19.98 67.964 0.161 7.44 3.43 9.1
5/22/2021 4:15:00 PM 19.93 67.874 0.161 7.44 3.39 9.08
5/22/2021 4:30:00 PM 19.87 67.766 0.161 7.44 3.5 9.05
5/22/2021 4:45:00 PM 19.85 67.73 0.161 7.44 3.39 9.01
5/22/2021 5:00:00 PM 19.85 67.73 0.161 7.44 3.46 9.09
5/22/2021 5:15:00 PM 19.84 67.712 0.161 7.43 3.86 9.03
5/22/2021 5:30:00 PM 19.77 67.586 0.161 7.42 3.46 8.98
5/22/2021 5:45:00 PM 19.73 67.514 0.161 7.41 3.49 8.92
5/22/2021 6:00:00 PM 19.67 67.406 0.161 7.4 3.5 8.94
5/22/2021 6:15:00 PM 19.58 67.244 0.161 7.4 3.52 8.79
5/22/2021 6:30:00 PM 19.45 67.01 0.161 7.38 3.35 8.76
5/22/2021 6:45:00 PM 19.29 66.722 0.161 7.35 3.58 8.61
5/22/2021 7:00:00 PM 19.16 66.488 0.161 7.33 3.69 8.46
5/22/2021 7:15:00 PM 18.98 66.164 0.161 7.31 3.77 8.39
5/22/2021 7:30:00 PM 18.89 66.002 0.162 7.29 3.51 8.35
5/22/2021 7:45:00 PM 18.75 65.75 0.162 7.26 4.01 8.2
5/22/2021 8:00:00 PM 18.65 65.57 0.162 7.25 4.07 8.06
5/22/2021 8:15:00 PM 18.53 65.354 0.162 7.23 3.76 7.94
5/22/2021 8:30:00 PM 18.4 65.12 0.162 7.21 3.74 7.89
5/22/2021 8:45:00 PM 18.31 64.958 0.162 7.19 3.9 7.69
5/22/2021 9:00:00 PM 18.22 64.796 0.163 7.18 3.72 7.73
5/22/2021 9:15:00 PM 18.12 64.616 0.163 7.16 3.75 7.61
5/22/2021 9:30:00 PM 18.02 64.436 0.163 7.15 3.72 7.59
5/22/2021 9:45:00 PM 17.94 64.292 0.163 7.14 3.76 7.42
5/22/2021 10:00:00 PM 17.87 64.166 0.163 7.13 3.64 7.46
5/22/2021 10:15:00 PM 17.79 64.022 0.163 7.12 3.61 7.5
5/22/2021 10:30:00 PM 17.75 63.95 0.163 7.11 3.67 7.39
5/22/2021 10:45:00 PM 17.67 63.806 0.164 7.11 3.71 7.4
5/22/2021 11:00:00 PM 17.63 63.734 0.164 7.1 3.66 7.45
5/22/2021 11:15:00 PM 17.57 63.626 0.164 7.1 3.66 7.41
5/22/2021 11:30:00 PM 17.56 63.608 0.164 7.1 3.61 7.32
5/22/2021 11:45:00 PM 17.5 63.5 0.164 7.09 3.84 7.34
5/23/2021 12:00:00 AM 17.46 63.428 0.164 7.09 3.62 7.38
5/23/2021 12:15:00 AM 17.42 63.356 0.164 7.08 3.8 7.36
5/23/2021 12:30:00 AM 17.39 63.302 0.164 7.08 3.94 7.38
5/23/2021 12:45:00 AM 17.36 63.248 0.164 7.08 3.63 7.32
5/23/2021 1:00:00 AM 17.33 63.194 0.164 7.08 3.71 7.34
5/23/2021 1:15:00 AM 17.31 63.158 0.164 7.08 3.64 7.37
5/23/2021 1:30:00 AM 17.27 63.086 0.165 7.08 3.67 7.32
5/23/2021 1:45:00 AM 17.25 63.05 0.165 7.08 3.72 7.32
5/23/2021 2:00:00 AM 17.21 62.978 0.165 7.08 3.61 7.41
5/23/2021 2:15:00 AM 17.18 62.924 0.165 7.08 3.66 7.35
5/23/2021 2:30:00 AM 17.15 62.87 0.165 7.08 3.7 7.37
5/23/2021 2:45:00 AM 17.12 62.816 0.165 7.08 3.69 7.28
5/23/2021 3:00:00 AM 17.08 62.744 0.165 7.07 3.7 7.35
5/23/2021 3:15:00 AM 17.05 62.69 0.165 7.07 4.71 7.32
5/23/2021 3:30:00 AM 17.01 62.618 0.165 7.07 3.54 7.26
5/23/2021 3:45:00 AM 16.98 62.564 0.165 7.07 3.78 7.28
5/23/2021 4:00:00 AM 16.95 62.51 0.166 7.07 3.82 7.35
5/23/2021 4:15:00 AM 16.91 62.438 0.166 7.07 3.58 7.38
5/23/2021 4:30:00 AM 16.87 62.366 0.166 7.07 4 7.31
5/23/2021 4:45:00 AM 16.84 62.312 0.166 7.06 3.54 7.38
5/23/2021 5:00:00 AM 16.82 62.276 0.166 7.06 3.7 7.35
5/23/2021 5:15:00 AM 16.79 62.222 0.166 7.06 3.64 7.36
5/23/2021 5:30:00 AM 16.77 62.186 0.166 7.06 3.44 7.33
5/23/2021 5:45:00 AM 16.74 62.132 0.166 7.06 3.6 7.26
5/23/2021 6:00:00 AM 16.71 62.078 0.166 7.06 3.76 7.4
5/23/2021 6:15:00 AM 16.69 62.042 0.166 7.07 3.51 7.34
5/23/2021 6:30:00 AM 16.68 62.024 0.166 7.07 3.62 7.35
5/23/2021 6:45:00 AM 16.67 62.006 0.166 7.07 3.6 7.41
5/23/2021 7:00:00 AM 16.67 62.006 0.166 7.08 3.63 7.55
5/23/2021 7:15:00 AM 16.68 62.024 0.166 7.09 3.64 7.57
5/23/2021 7:30:00 AM 16.7 62.06 0.166 7.1 3.39 7.69
5/23/2021 7:45:00 AM 16.74 62.132 0.166 7.12 3.57 7.89
5/23/2021 8:00:00 AM 16.8 62.24 0.166 7.14 3.48 8.15
5/23/2021 8:15:00 AM 16.88 62.384 0.166 7.16 3.54 8.2
5/23/2021 8:30:00 AM 16.97 62.546 0.166 7.17 3.42 8.23
5/23/2021 8:45:00 AM 17.12 62.816 0.166 7.2 3.36 8.39
5/23/2021 9:00:00 AM 17.27 63.086 0.166 7.21 3.4 8.6
5/23/2021 9:15:00 AM 17.46 63.428 0.166 7.24 3.57 8.69
5/23/2021 9:30:00 AM 17.69 63.842 0.166 7.25 3.39 8.79
5/23/2021 9:45:00 AM 17.87 64.166 0.166 7.27 3.51 8.84
5/23/2021 10:00:00 AM 18.1 64.58 0.166 7.29 3.34 8.94
5/23/2021 10:15:00 AM 18.32 64.976 0.166 7.3 4.01 9.07
5/23/2021 10:30:00 AM 18.55 65.39 0.166 7.32 3.56 8.99
5/23/2021 10:45:00 AM 18.72 65.696 0.166 7.33 3.6 8.99
5/23/2021 11:00:00 AM 18.86 65.948 0.166 7.34 3.71 8.97
5/23/2021 11:15:00 AM 19.06 66.308 0.166 7.34 3.44 9.08
5/23/2021 11:30:00 AM 19.37 66.866 0.166 7.35 3.67 8.96
5/23/2021 11:45:00 AM 19.57 67.226 0.166 7.36 3.69 8.99
5/23/2021 12:00:00 PM 19.62 67.316 0.166 7.36 3.6 8.92
5/23/2021 12:15:00 PM 19.7 67.46 0.166 7.36 3.64 8.9
5/23/2021 12:30:00 PM 19.79 67.622 0.166 7.36 3.59 8.94
5/23/2021 12:45:00 PM 19.9 67.82 0.166 7.35 3.63 8.94
5/23/2021 1:00:00 PM 20 68 0.166 7.38 3.6 8.93
5/23/2021 1:15:00 PM 20.03 68.054 0.166 7.4 3.56 8.94
5/23/2021 1:30:00 PM 20.06 68.108 0.166 7.39 3.59 8.83
5/23/2021 1:45:00 PM 20 68 0.166 7.39 3.58 8.66
5/23/2021 2:00:00 PM 19.89 67.802 0.166 7.38 3.86 8.56
5/23/2021 2:15:00 PM 19.86 67.748 0.166 7.37 4.59 8.6
5/23/2021 2:30:00 PM 19.87 67.766 0.166 7.37 5.56 8.72
5/23/2021 2:45:00 PM 19.88 67.784 0.166 7.38 4.11 8.83
5/23/2021 3:00:00 PM 19.84 67.712 0.166 7.38 3.71 8.76
5/23/2021 3:15:00 PM 19.77 67.586 0.166 7.37 3.65 8.79
5/23/2021 3:30:00 PM 19.72 67.496 0.166 7.37 3.99 8.67
5/23/2021 3:45:00 PM 19.68 67.424 0.167 7.36 3.86 8.56
5/23/2021 4:00:00 PM 19.74 67.532 0.166 7.37 4.56 8.65
5/23/2021 4:15:00 PM 19.77 67.586 0.166 7.37 5 8.79
5/23/2021 4:30:00 PM 19.73 67.514 0.166 7.37 5.16 8.76
5/23/2021 4:45:00 PM 19.69 67.442 0.167 7.36 4.46 8.79
5/23/2021 5:00:00 PM 19.62 67.316 0.167 7.35 4.06 8.73
5/23/2021 5:15:00 PM 19.54 67.172 0.167 7.35 3.94 8.68
5/23/2021 5:30:00 PM 19.42 66.956 0.167 7.34 3.77 8.58
5/23/2021 5:45:00 PM 19.3 66.74 0.167 7.33 5.42 8.44
5/23/2021 6:00:00 PM 19.19 66.542 0.167 7.3 5.19 8.37
5/23/2021 6:15:00 PM 19.02 66.236 0.167 7.28 4.26 8.27
5/23/2021 6:30:00 PM 18.89 66.002 0.167 7.26 4.06 8.08
5/23/2021 6:45:00 PM 18.76 65.768 0.167 7.24 4.12 7.95
5/23/2021 7:00:00 PM 18.63 65.534 0.167 7.23 3.94 7.95
5/23/2021 7:15:00 PM 18.5 65.3 0.167 7.21 3.96 7.9
5/23/2021 7:30:00 PM 18.38 65.084 0.167 7.21 3.91 7.84
5/23/2021 7:45:00 PM 18.26 64.868 0.168 7.21 3.68 7.8
5/23/2021 8:00:00 PM 18.16 64.688 0.168 7.2 3.91 7.81
5/23/2021 8:15:00 PM 18.03 64.454 0.168 7.19 3.82 7.8
5/23/2021 8:30:00 PM 17.92 64.256 0.168 7.18 3.89 7.76
5/23/2021 8:45:00 PM 17.8 64.04 0.168 7.17 3.59 7.69
5/23/2021 9:00:00 PM 17.66 63.788 0.168 7.15 3.86 7.55
5/23/2021 9:15:00 PM 17.55 63.59 0.168 7.15 3.88 7.61
5/23/2021 9:30:00 PM 17.46 63.428 0.168 7.14 3.96 7.45
5/23/2021 9:45:00 PM 17.33 63.194 0.168 7.13 4.52 7.49
5/23/2021 10:00:00 PM 17.25 63.05 0.168 7.12 4.58 7.52
5/23/2021 10:15:00 PM 17.17 62.906 0.168 7.11 4.39 7.4
5/23/2021 10:30:00 PM 17.08 62.744 0.168 7.11 4.37 7.34
5/23/2021 10:45:00 PM 16.98 62.564 0.169 7.1 3.87 7.44
5/23/2021 11:00:00 PM 16.93 62.474 0.169 7.1 4.33 7.35
5/23/2021 11:15:00 PM 16.84 62.312 0.169 7.1 4.5 7.31
5/23/2021 11:30:00 PM 16.76 62.168 0.162 7.09 10.81 7.37
5/23/2021 11:45:00 PM 16.69 62.042 0.169 7.09 4.46 7.27
5/24/2021 12:00:00 AM 16.61 61.898 0.169 7.09 9.92 7.35
5/24/2021 12:15:00 AM 16.55 61.79 0.169 7.09 4.38 7.46
5/24/2021 12:30:00 AM 16.5 61.7 0.169 7.09 4.72 7.4
5/24/2021 12:45:00 AM 16.46 61.628 0.169 7.09 4.66 7.51
5/24/2021 1:00:00 AM 16.39 61.502 0.169 7.08 4.46 7.44
5/24/2021 1:15:00 AM 16.34 61.412 0.169 7.08 4.06 7.38
5/24/2021 1:30:00 AM 16.28 61.304 0.169 7.08 4.6 7.46
5/24/2021 1:45:00 AM 16.22 61.196 0.17 7.08 4.26 7.42
5/24/2021 2:00:00 AM 16.18 61.124 0.17 7.08 4.43 7.48
5/24/2021 2:15:00 AM 16.13 61.034 0.17 7.08 4.65 7.45
5/24/2021 2:30:00 AM 16.08 60.944 0.17 7.08 4.32 7.45
5/24/2021 2:45:00 AM 16.02 60.836 0.17 7.08 4.02 7.47
5/24/2021 3:00:00 AM 15.97 60.746 0.17 7.08 3.92 7.47
5/24/2021 3:15:00 AM 15.93 60.674 0.17 7.08 4.78 7.54
5/24/2021 3:30:00 AM 15.89 60.602 0.17 7.08 4.26 7.46
5/24/2021 3:45:00 AM 15.86 60.548 0.17 7.08 4.54 7.48
5/24/2021 4:00:00 AM 15.83 60.494 0.17 7.08 3.79 7.38
5/24/2021 4:15:00 AM 15.81 60.458 0.17 7.08 3.85 7.54
5/24/2021 4:30:00 AM 15.79 60.422 0.17 7.07 4.29 7.46
5/24/2021 4:45:00 AM 15.76 60.368 0.17 7.08 3.95 7.46
5/24/2021 5:00:00 AM 15.74 60.332 0.171 7.08 4.39 7.54
5/24/2021 5:15:00 AM 15.72 60.296 0.171 7.07 4.25 7.51
5/24/2021 5:30:00 AM 15.69 60.242 0.171 7.08 4.81 7.49
5/24/2021 5:45:00 AM 15.67 60.206 0.171 7.08 4.45 7.51
5/24/2021 6:00:00 AM 15.63 60.134 0.171 7.07 4.34 7.48
5/24/2021 6:15:00 AM 15.6 60.08 0.171 7.07 4.45 7.51
5/24/2021 6:30:00 AM 15.58 60.044 0.171 7.08 4.64 7.54
5/24/2021 6:45:00 AM 15.57 60.026 0.171 7.09 4.54 7.63
5/24/2021 7:00:00 AM 15.58 60.044 0.171 7.1 4.84 7.72
5/24/2021 7:15:00 AM 15.6 60.08 0.171 7.11 4.3 7.81
5/24/2021 7:30:00 AM 15.62 60.116 0.171 7.12 5.06 7.79
5/24/2021 7:45:00 AM 15.66 60.188 0.171 7.13 5.33 7.84
5/24/2021 8:00:00 AM 15.71 60.278 0.171 7.15 4.7 8.3
5/24/2021 8:15:00 AM 15.81 60.458 0.171 7.17 4.9 8.26
5/24/2021 8:30:00 AM 15.92 60.656 0.171 7.18 4.38 8.48
5/24/2021 8:45:00 AM 16.03 60.854 0.17 7.21 3.81 8.66
5/24/2021 9:00:00 AM 16.18 61.124 0.17 7.22 3.48 8.85
5/24/2021 9:15:00 AM 16.29 61.322 0.17 7.24 4.4 8.97
5/24/2021 9:30:00 AM 16.41 61.538 0.17 7.25 4.08 9.01
5/24/2021 9:45:00 AM 16.54 61.772 0.17 7.27 4.75 9.14
5/24/2021 10:00:00 AM 16.69 62.042 0.17 7.27 3.96 9.14
5/24/2021 10:15:00 AM 16.86 62.348 0.17 7.29 4.36 9.19
5/24/2021 10:30:00 AM 17.05 62.69 0.17 7.31 5.04 9.27
5/24/2021 10:45:00 AM 17.26 63.068 0.17 7.31 3.96 9.24
5/24/2021 11:00:00 AM 17.48 63.464 0.17 7.32 4.42 9.32
5/24/2021 11:15:00 AM 17.71 63.878 0.17 7.33 4.22 9.29
5/24/2021 11:30:00 AM 17.89 64.202 0.17 7.34 4.24 9.33
5/24/2021 11:45:00 AM 18.08 64.544 0.17 7.35 4.52 9.27
5/24/2021 12:00:00 PM 18.31 64.958 0.17 7.35 3.89 9.28
5/24/2021 12:15:00 PM 18.68 65.624 0.17 7.36 4.53 9.24
5/24/2021 12:30:00 PM 19.07 66.326 0.17 7.37 4.41 9.3
5/24/2021 12:45:00 PM 19.3 66.74 0.171 7.38 4.73 9.2
5/24/2021 1:00:00 PM 19.45 67.01 0.171 7.37 4.52 9.14
5/24/2021 1:15:00 PM 19.69 67.442 0.171 7.38 4.7 9.13
5/24/2021 1:30:00 PM 19.78 67.604 0.171 7.37 4.64 9.12
5/24/2021 1:45:00 PM 19.96 67.92799 0.171 7.38 4.79 9.11
5/24/2021 2:00:00 PM 20.15 68.27 0.171 7.38 4.65 9.01
5/24/2021 2:15:00 PM 20.33 68.594 0.171 7.39 4.99 8.96
5/24/2021 2:30:00 PM 20.41 68.738 0.171 7.38 5.11 9
5/24/2021 2:45:00 PM 20.53 68.954 0.171 7.38 4.57 9
5/24/2021 3:00:00 PM 20.63 69.134 0.171 7.39 3.95 8.81
5/24/2021 3:15:00 PM 20.61 69.098 0.171 7.38 4.66 8.88
5/24/2021 3:30:00 PM 20.5 68.9 0.171 7.38 4.44 8.85
5/24/2021 3:45:00 PM 20.4 68.72 0.171 7.37 4.6 8.82
5/24/2021 4:00:00 PM 20.26 68.468 0.172 7.38 4.63 8.81
5/24/2021 4:15:00 PM 20.22 68.396 0.172 7.37 4.72 8.8
5/24/2021 4:30:00 PM 20.17 68.306 0.172 7.37 4.85 8.84
5/24/2021 4:45:00 PM 20.18 68.324 0.172 7.37 4.45 8.75
5/24/2021 5:00:00 PM 20.1 68.18 0.171 7.37 4.95 8.71
5/24/2021 5:15:00 PM 19.94 67.892 0.172 7.37 4.95 8.69
5/24/2021 5:30:00 PM 19.83 67.694 0.172 7.35 4.36 8.76
5/24/2021 5:45:00 PM 19.59 67.262 0.172 7.34 4.79 8.63
5/24/2021 6:00:00 PM 19.39 66.902 0.172 7.32 4.82 8.6
5/24/2021 6:15:00 PM 19.19 66.542 0.172 7.31 4.85 8.53
5/24/2021 6:30:00 PM 18.98 66.164 0.172 7.3 4.67 8.43
5/24/2021 6:45:00 PM 18.83 65.894 0.172 7.28 5.11 8.41
5/24/2021 7:00:00 PM 18.66 65.588 0.172 7.27 4.91 8.32
5/24/2021 7:15:00 PM 18.48 65.264 0.172 7.26 4.88 8.32
5/24/2021 7:30:00 PM 18.32 64.976 0.172 7.25 5 8.13
5/24/2021 7:45:00 PM 18.17 64.706 0.172 7.23 5.03 8.17
5/24/2021 8:00:00 PM 18.03 64.454 0.172 7.21 4.8 8.1
5/24/2021 8:15:00 PM 17.92 64.256 0.172 7.2 4.98 8
5/24/2021 8:30:00 PM 17.75 63.95 0.173 7.19 4.34 7.87
5/24/2021 8:45:00 PM 17.67 63.806 0.173 7.17 4.6 7.62
5/24/2021 9:00:00 PM 17.55 63.59 0.173 7.15 4.25 7.64
5/24/2021 9:15:00 PM 17.45 63.41 0.173 7.14 5.33 7.63
5/24/2021 9:30:00 PM 17.36 63.248 0.173 7.13 4.27 7.5
5/24/2021 9:45:00 PM 17.27 63.086 0.173 7.12 4.99 7.45
5/24/2021 10:00:00 PM 17.19 62.942 0.173 7.11 5.25 7.35
5/24/2021 10:15:00 PM 17.13 62.834 0.173 7.11 5.02 7.31
5/24/2021 10:30:00 PM 17.07 62.726 0.173 7.1 5.12 7.26
5/24/2021 10:45:00 PM 17 62.6 0.173 7.09 5.23 7.3
5/24/2021 11:00:00 PM 16.95 62.51 0.174 7.09 5.01 7.24
5/24/2021 11:15:00 PM 16.91 62.438 0.174 7.09 4.97 7.23
5/24/2021 11:30:00 PM 16.86 62.348 0.174 7.09 4.72 7.25
5/24/2021 11:45:00 PM 16.81 62.258 0.174 7.08 4.82 7.33
5/25/2021 12:00:00 AM 16.78 62.204 0.174 7.08 5.12 7.38
5/25/2021 12:15:00 AM 16.73 62.114 0.174 7.08 5.13 7.16
5/25/2021 12:30:00 AM 16.69 62.042 0.174 7.08 4.93 7.33
5/25/2021 12:45:00 AM 16.66 61.988 0.174 7.08 5.01 7.24
5/25/2021 1:00:00 AM 16.62 61.916 0.174 7.08 4.98 7.26
5/25/2021 1:15:00 AM 16.6 61.88 0.174 7.08 5.41 7.32
5/25/2021 1:30:00 AM 16.57 61.826 0.174 7.08 5.03 7.37
5/25/2021 1:45:00 AM 16.53 61.754 0.173 7.07 5.18 7.32
5/25/2021 2:00:00 AM 16.51 61.718 0.174 7.07 5.48 7.26
5/25/2021 2:15:00 AM 16.48 61.664 0.174 7.07 4.74 7.23
5/25/2021 2:30:00 AM 16.46 61.628 0.174 7.07 5.01 7.13
5/25/2021 2:45:00 AM 16.42 61.556 0.174 7.07 5.14 7.15
5/25/2021 3:00:00 AM 16.4 61.52 0.174 7.07 5.51 7.33
5/25/2021 3:15:00 AM 16.38 61.484 0.174 7.07 5.43 7.27
5/25/2021 3:30:00 AM 16.36 61.448 0.174 7.07 5.63 7.22
5/25/2021 3:45:00 AM 16.34 61.412 0.174 7.07 5.47 7.36
5/25/2021 4:00:00 AM 16.31 61.358 0.175 7.07 5.78 7.32
5/25/2021 4:15:00 AM 16.28 61.304 0.175 7.07 5.44 7.27
5/25/2021 4:30:00 AM 16.26 61.268 0.175 7.07 5.5 7.26
5/25/2021 4:45:00 AM 16.24 61.232 0.175 7.07 4.97 7.32
5/25/2021 5:00:00 AM 16.22 61.196 0.175 7.07 5.21 7.3
5/25/2021 5:15:00 AM 16.2 61.16 0.175 7.07 5.04 7.39
5/25/2021 5:30:00 AM 16.17 61.106 0.175 7.07 4.43 7.26
5/25/2021 5:45:00 AM 16.16 61.088 0.175 7.07 5.2 7.29
5/25/2021 6:00:00 AM 16.14 61.052 0.175 7.07 5.06 7.29
5/25/2021 6:15:00 AM 16.12 61.016 0.175 7.07 4.19 7.31
5/25/2021 6:30:00 AM 16.1 60.98 0.175 7.07 4.92 7.29
5/25/2021 6:45:00 AM 16.1 60.98 0.175 7.08 5.3 7.56
5/25/2021 7:00:00 AM 16.09 60.962 0.175 7.08 5.08 7.49
5/25/2021 7:15:00 AM 16.08 60.944 0.175 7.08 5.06 7.33
5/25/2021 7:30:00 AM 16.08 60.944 0.175 7.09 4.2 7.61
5/25/2021 7:45:00 AM 16.1 60.98 0.175 7.1 4.99 7.49
5/25/2021 8:00:00 AM 16.11 60.998 0.175 7.11 4.76 7.64
5/25/2021 8:15:00 AM 16.14 61.052 0.175 7.12 5.29 7.74
5/25/2021 8:30:00 AM 16.2 61.16 0.175 7.14 4.54 7.95
5/25/2021 8:45:00 AM 16.25 61.25 0.175 7.15 4.53 8.12
5/25/2021 9:00:00 AM 16.33 61.394 0.175 7.17 4.98 8.28
5/25/2021 9:15:00 AM 16.45 61.61 0.175 7.19 5.02 8.71
5/25/2021 9:30:00 AM 16.54 61.772 0.174 7.2 5.01 8.28
5/25/2021 9:45:00 AM 16.65 61.97 0.174 7.22 4.86 8.64
5/25/2021 10:00:00 AM 16.77 62.186 0.174 7.24 3.14 8.76
5/25/2021 10:15:00 AM 16.95 62.51 0.174 7.26 3.07 9.12
5/25/2021 10:30:00 AM 17.11 62.798 0.174 7.28 3.1 9.13
5/25/2021 10:45:00 AM 17.24 63.032 0.174 7.29 3.25 9.04
5/25/2021 11:00:00 AM 17.35 63.23 0.174 7.3 3.37 8.9
5/25/2021 11:15:00 AM 17.57 63.626 0.174 7.31 3.17 8.95
5/25/2021 11:30:00 AM 17.83 64.094 0.174 7.32 3.14 9.13
5/25/2021 11:45:00 AM 18.22 64.796 0.174 7.33 3.16 9.16
5/25/2021 12:00:00 PM 18.54 65.372 0.174 7.34 3.22 9.26
5/25/2021 12:15:00 PM 18.95 66.11 0.174 7.35 3.1 9.28
5/25/2021 12:30:00 PM 19.22 66.596 0.174 7.35 5.23 9.13
5/25/2021 12:45:00 PM 19.38 66.884 0.174 7.36 4.02 9.18
5/25/2021 1:00:00 PM 19.53 67.154 0.174 7.36 3.77 9.03
5/25/2021 1:15:00 PM 19.79 67.622 0.174 7.37 3.17 9.07
5/25/2021 1:30:00 PM 20.08 68.144 0.175 7.37 3.14 9.07
5/25/2021 1:45:00 PM 20.31 68.558 0.175 7.38 3.11 8.99
5/25/2021 2:00:00 PM 20.51 68.918 0.175 7.38 5.59 8.91
5/25/2021 2:15:00 PM 20.67 69.206 0.175 7.38 3.3 9.06
5/25/2021 2:30:00 PM 20.87 69.566 0.175 7.39 3.06 9.04
5/25/2021 2:45:00 PM 21.02 69.836 0.175 7.39 3.06 8.81
5/25/2021 3:00:00 PM 21.13 70.034 0.175 7.4 3.11 8.71
5/25/2021 3:15:00 PM 21.14 70.052 0.175 7.39 3.1 8.91
5/25/2021 3:30:00 PM 21.08 69.944 0.175 7.39 3.14 8.79
5/25/2021 3:45:00 PM 21.1 69.98 0.175 7.39 3.1 8.72
5/25/2021 4:00:00 PM 21.11 69.998 0.175 7.39 3.33 8.59
5/25/2021 4:15:00 PM 21.1 69.98 0.175 7.39 3.17 8.71
5/25/2021 4:30:00 PM 21.06 69.908 0.176 7.37 3.03 8.67
5/25/2021 4:45:00 PM 21.02 69.836 0.176 7.38 3.11 8.64
5/25/2021 5:00:00 PM 21 69.8 0.176 7.37 3.07 8.64
5/25/2021 5:15:00 PM 20.91 69.638 0.176 7.36 3.08 8.62
5/25/2021 5:30:00 PM 20.83 69.494 0.176 7.35 3.24 8.57
5/25/2021 5:45:00 PM 20.76 69.368 0.176 7.35 3.2 8.56
5/25/2021 6:00:00 PM 20.61 69.098 0.176 7.34 3.29 8.5
5/25/2021 6:15:00 PM 20.46 68.828 0.176 7.32 3.17 8.46
5/25/2021 6:30:00 PM 20.28 68.504 0.176 7.31 3.16 8.33
5/25/2021 6:45:00 PM 20.17 68.306 0.176 7.29 3.28 8.24
5/25/2021 7:00:00 PM 19.98 67.964 0.176 7.28 3.19 8.2
5/25/2021 7:15:00 PM 19.8 67.64 0.176 7.26 3.15 8.14
5/25/2021 7:30:00 PM 19.64 67.352 0.176 7.25 3.2 8.05
5/25/2021 7:45:00 PM 19.42 66.956 0.176 7.22 3.37 7.96
5/25/2021 8:00:00 PM 19.27 66.686 0.176 7.21 3.34 7.86
5/25/2021 8:15:00 PM 19.11 66.398 0.176 7.19 3.07 7.77
5/25/2021 8:30:00 PM 18.96 66.128 0.177 7.17 3.21 7.68
5/25/2021 8:45:00 PM 18.8 65.84 0.177 7.16 3.27 7.54
5/25/2021 9:00:00 PM 18.68 65.624 0.177 7.14 3.6 7.44
5/25/2021 9:15:00 PM 18.55 65.39 0.177 7.12 3.4 7.31
5/25/2021 9:30:00 PM 18.45 65.21 0.177 7.11 3.49 7.27
5/25/2021 9:45:00 PM 18.36 65.048 0.177 7.1 3.61 7.14
5/25/2021 10:00:00 PM 18.26 64.868 0.177 7.09 3.31 7.11
5/25/2021 10:15:00 PM 18.18 64.724 0.177 7.08 3.39 7.01
5/25/2021 10:30:00 PM 18.1 64.58 0.177 7.08 3.37 6.96
5/25/2021 10:45:00 PM 18.03 64.454 0.178 7.07 3.5 6.99
5/25/2021 11:00:00 PM 17.96 64.328 0.178 7.07 3.69 6.91
5/25/2021 11:15:00 PM 17.86 64.148 0.178 7.06 3.87 6.83
5/25/2021 11:30:00 PM 17.8 64.04 0.178 7.06 3.53 6.81
5/25/2021 11:45:00 PM 17.74 63.932 0.178 7.06 3.34 6.81
5/26/2021 12:00:00 AM 17.66 63.788 0.178 7.06 3.37 6.7
5/26/2021 12:15:00 AM 17.61 63.698 0.178 7.05 3.57 6.81
5/26/2021 12:30:00 AM 17.57 63.626 0.178 7.05 3.49 6.64
5/26/2021 12:45:00 AM 17.51 63.518 0.178 7.05 3.43 6.85
5/26/2021 1:00:00 AM 17.45 63.41 0.178 7.05 3.39 6.79
5/26/2021 1:15:00 AM 17.39 63.302 0.178 7.05 3.42 6.76
5/26/2021 1:30:00 AM 17.35 63.23 0.178 7.05 3.25 6.82
5/26/2021 1:45:00 AM 17.28 63.104 0.178 7.05 3.24 6.77
5/26/2021 2:00:00 AM 17.23 63.014 0.178 7.05 3.31 6.79
5/26/2021 2:15:00 AM 17.17 62.906 0.178 7.04 3.72 6.8
5/26/2021 2:30:00 AM 17.14 62.852 0.178 7.05 3.42 6.97
5/26/2021 2:45:00 AM 17.1 62.78 0.178 7.04 3.41 6.86
5/26/2021 3:00:00 AM 17.03 62.654 0.179 7.04 3.4 6.8
5/26/2021 3:15:00 AM 16.99 62.582 0.179 7.04 3.39 6.9
5/26/2021 3:30:00 AM 16.95 62.51 0.179 7.04 3.6 6.86
5/26/2021 3:45:00 AM 16.9 62.42 0.179 7.04 3.48 6.91
5/26/2021 4:00:00 AM 16.87 62.366 0.179 7.04 3.56 6.87
5/26/2021 4:15:00 AM 16.83 62.294 0.179 7.04 3.58 6.88
5/26/2021 4:30:00 AM 16.8 62.24 0.179 7.04 3.49 6.9
5/26/2021 4:45:00 AM 16.76 62.168 0.179 7.04 3.49 6.93
5/26/2021 5:00:00 AM 16.72 62.096 0.179 7.04 3.3 6.84
5/26/2021 5:15:00 AM 16.71 62.078 0.179 7.04 3.38 6.92
5/26/2021 5:30:00 AM 16.69 62.042 0.179 7.04 3.27 6.95
5/26/2021 5:45:00 AM 16.67 62.006 0.179 7.04 3.33 6.91
5/26/2021 6:00:00 AM 16.67 62.006 0.179 7.04 3.32 6.99
5/26/2021 6:15:00 AM 16.66 61.988 0.179 7.04 3.31 6.95
5/26/2021 6:30:00 AM 16.66 61.988 0.179 7.04 3.2 7.02
5/26/2021 6:45:00 AM 16.68 62.024 0.179 7.05 3.28 6.92
5/26/2021 7:00:00 AM 16.7 62.06 0.179 7.05 3.31 7.15
5/26/2021 7:15:00 AM 16.73 62.114 0.179 7.06 3.35 7.16
5/26/2021 7:30:00 AM 16.78 62.204 0.179 7.08 3.26 7.62
5/26/2021 7:45:00 AM 16.82 62.276 0.179 7.09 3.34 7.41
5/26/2021 8:00:00 AM 16.88 62.384 0.179 7.1 3.34 7.45
5/26/2021 8:15:00 AM 16.96 62.528 0.179 7.11 3.23 7.62
5/26/2021 8:30:00 AM 17.06 62.708 0.179 7.13 3.33 7.9
5/26/2021 8:45:00 AM 17.16 62.888 0.179 7.14 3.27 7.98
5/26/2021 9:00:00 AM 17.3 63.14 0.179 7.16 3.23 8.46
5/26/2021 9:15:00 AM 17.46 63.428 0.178 7.18 3.09 8.21
5/26/2021 9:30:00 AM 17.66 63.788 0.179 7.2 3.18 8.46
5/26/2021 9:45:00 AM 17.8 64.04 0.178 7.21 3.2 8.56
5/26/2021 10:00:00 AM 17.97 64.346 0.179 7.23 3.05 8.62
5/26/2021 10:15:00 AM 18.09 64.562 0.179 7.24 3.12 8.66
5/26/2021 10:30:00 AM 18.24 64.832 0.178 7.25 3.17 8.66
5/26/2021 10:45:00 AM 18.53 65.354 0.179 7.26 3.29 8.78
5/26/2021 11:00:00 AM 18.81 65.858 0.179 7.28 3.12 8.82
5/26/2021 11:15:00 AM 19.08 66.344 0.178 7.29 3.14 8.83
5/26/2021 11:30:00 AM 19.34 66.812 0.179 7.3 3.18 8.79
5/26/2021 11:45:00 AM 19.64 67.352 0.179 7.3 3.28 8.88
5/26/2021 12:00:00 PM 19.96 67.92799 0.179 7.31 3.17 8.84
5/26/2021 12:15:00 PM 20.27 68.486 0.179 7.32 3.07 8.8
5/26/2021 12:30:00 PM 20.57 69.026 0.179 7.32 3.23 8.88
5/26/2021 12:45:00 PM 20.74 69.332 0.179 7.33 3.21 8.82
5/26/2021 1:00:00 PM 20.99 69.782 0.179 7.34 3.31 8.7
5/26/2021 1:15:00 PM 21.19 70.142 0.179 7.34 3.1 8.77
5/26/2021 1:30:00 PM 21.33 70.394 0.179 7.34 3.5 8.7
5/26/2021 1:45:00 PM 21.47 70.646 0.18 7.34 3.26 8.8
5/26/2021 2:00:00 PM 21.55 70.79 0.18 7.35 3.19 8.6
5/26/2021 2:15:00 PM 21.62 70.916 0.18 7.35 3.28 8.62
5/26/2021 2:30:00 PM 21.6 70.88 0.18 7.35 3.27 8.48
5/26/2021 2:45:00 PM 21.45 70.61 0.18 7.33 3.33 8.52
5/26/2021 3:00:00 PM 21.37 70.466 0.18 7.32 3.17 8.43
5/26/2021 3:15:00 PM 21.17 70.106 0.18 7.31 3.35 8.03
5/26/2021 3:30:00 PM 20.92 69.656 0.18 7.27 3.5 7.64
5/26/2021 3:45:00 PM 20.81 69.458 0.18 7.24 3.53 7.71
5/26/2021 4:00:00 PM 20.83 69.494 0.18 7.24 3.28 7.81
5/26/2021 4:15:00 PM 20.82 69.476 0.18 7.26 3.09 7.89
5/26/2021 4:30:00 PM 20.81 69.458 0.18 7.26 3.09 7.85
5/26/2021 4:45:00 PM 20.69 69.242 0.18 7.26 3.29 8.04
5/26/2021 5:00:00 PM 20.65 69.17 0.18 7.25 3.14 8.04
5/26/2021 5:15:00 PM 20.65 69.17 0.18 7.26 3.63 7.95
5/26/2021 5:30:00 PM 20.6 69.08 0.18 7.26 3.17 7.95
5/26/2021 5:45:00 PM 20.52 68.936 0.18 7.26 3.46 8.05
5/26/2021 6:00:00 PM 20.4 68.72 0.18 7.25 3.3 8.05
5/26/2021 6:15:00 PM 20.22 68.396 0.181 7.23 3.64 7.98
5/26/2021 6:30:00 PM 20.06 68.108 0.18 7.2 4.7 7.73
5/26/2021 6:45:00 PM 19.89 67.802 0.179 7.18 3.95 7.47
5/26/2021 7:00:00 PM 19.75 67.55 0.178 7.16 3.57 7.31
5/26/2021 7:15:00 PM 19.61 67.298 0.178 7.15 3.64 7.19
5/26/2021 7:30:00 PM 19.5 67.1 0.177 7.13 3.66 7.08
5/26/2021 7:45:00 PM 19.4 66.92 0.178 7.12 4.02 6.99
5/26/2021 8:00:00 PM 19.3 66.74 0.178 7.12 3.78 7.06
5/26/2021 8:15:00 PM 19.16 66.488 0.178 7.11 3.47 6.97
5/26/2021 8:30:00 PM 19.07 66.326 0.178 7.1 3.37 6.95
5/26/2021 8:45:00 PM 18.97 66.146 0.178 7.09 3.83 6.84
5/26/2021 9:00:00 PM 18.85 65.93 0.178 7.08 3.49 6.6
5/26/2021 9:15:00 PM 18.78 65.804 0.178 7.07 3.59 6.67
5/26/2021 9:30:00 PM 18.7 65.66 0.178 7.06 3.53 6.6
5/26/2021 9:45:00 PM 18.63 65.534 0.178 7.06 3.52 6.62
5/26/2021 10:00:00 PM 18.54 65.372 0.178 7.06 3.38 6.55
5/26/2021 10:15:00 PM 18.47 65.246 0.179 7.05 3.36 6.39
5/26/2021 10:30:00 PM 18.42 65.156 0.179 7.05 3.46 6.65
5/26/2021 10:45:00 PM 18.36 65.048 0.179 7.04 3.55 6.53
5/26/2021 11:00:00 PM 18.32 64.976 0.179 7.04 3.71 6.28
5/26/2021 11:15:00 PM 18.25 64.85 0.179 7.04 3.34 6.42
5/26/2021 11:30:00 PM 18.21 64.778 0.179 7.04 3.49 6.4
5/26/2021 11:45:00 PM 18.16 64.688 0.179 7.04 3.48 6.51
5/27/2021 12:00:00 AM 18.08 64.544 0.179 7.04 3.33 6.39
5/27/2021 12:15:00 AM 18.04 64.472 0.18 7.05 3.53 6.46
5/27/2021 12:30:00 AM 17.97 64.346 0.18 7.05 3.47 6.5
5/27/2021 12:45:00 AM 17.91 64.238 0.18 7.05 3.34 6.52
5/27/2021 1:00:00 AM 17.85 64.13 0.18 7.05 3.39 6.48
5/27/2021 1:15:00 AM 17.8 64.04 0.18 7.05 3.72 6.66
5/27/2021 1:30:00 AM 17.74 63.932 0.18 7.05 3.4 6.52
5/27/2021 1:45:00 AM 17.68 63.824 0.18 7.05 5.45 6.59
5/27/2021 2:00:00 AM 17.62 63.716 0.18 7.05 3.48 6.79
5/27/2021 2:15:00 AM 17.56 63.608 0.181 7.05 3.33 6.67
5/27/2021 2:30:00 AM 17.51 63.518 0.181 7.05 3.42 6.68
5/27/2021 2:45:00 AM 17.46 63.428 0.181 7.05 3.64 6.58
5/27/2021 3:00:00 AM 17.42 63.356 0.181 7.05 3.63 6.55
5/27/2021 3:15:00 AM 17.37 63.266 0.181 7.05 3.47 6.53
5/27/2021 3:30:00 AM 17.34 63.212 0.181 7.05 3.6 6.53
5/27/2021 3:45:00 AM 17.29 63.122 0.181 7.05 3.58 6.68
5/27/2021 4:00:00 AM 17.26 63.068 0.181 7.05 3.42 6.75
5/27/2021 4:15:00 AM 17.24 63.032 0.181 7.05 3.54 6.45
5/27/2021 4:30:00 AM 17.21 62.978 0.181 7.05 3.34 6.68
5/27/2021 4:45:00 AM 17.19 62.942 0.182 7.05 3.62 6.62
5/27/2021 5:00:00 AM 17.16 62.888 0.182 7.05 3.51 6.61
5/27/2021 5:15:00 AM 17.12 62.816 0.182 7.05 3.75 6.93
5/27/2021 5:30:00 AM 17.08 62.744 0.182 7.05 3.66 6.65
5/27/2021 5:45:00 AM 17.06 62.708 0.182 7.05 3.79 6.13
5/27/2021 6:00:00 AM 17.03 62.654 0.182 7.05 3.72 6.34
5/27/2021 6:15:00 AM 17.01 62.618 0.182 7.05 3.61 6.68
5/27/2021 6:30:00 AM 17 62.6 0.182 7.06 3.83 6.61
5/27/2021 6:45:00 AM 16.98 62.564 0.182 7.07 3.68 6.82
5/27/2021 7:00:00 AM 16.97 62.546 0.182 7.08 3.63 6.93
5/27/2021 7:15:00 AM 16.98 62.564 0.182 7.09 3.55 6.81
5/27/2021 7:30:00 AM 17.01 62.618 0.181 7.11 3.54 6.99
5/27/2021 7:45:00 AM 17.04 62.672 0.181 7.13 3.84 7.29
5/27/2021 8:00:00 AM 17.09 62.762 0.18 7.16 3.47 7.38
5/27/2021 8:15:00 AM 17.15 62.87 0.179 7.18 3.76 7.7
5/27/2021 8:30:00 AM 17.27 63.086 0.179 7.2 3.94 7.81
5/27/2021 8:45:00 AM 17.36 63.248 0.178 7.22 7.09 8.15
5/27/2021 9:00:00 AM 17.44 63.392 0.178 7.24 6.13 8.09
5/27/2021 9:15:00 AM 17.55 63.59 0.177 7.25 3.23 8.21
5/27/2021 9:30:00 AM 17.63 63.734 0.177 7.27 3.49 8.22
5/27/2021 9:45:00 AM 17.73 63.914 0.176 7.28 3.14 8.41
5/27/2021 10:00:00 AM 17.88 64.184 0.176 7.3 3.18 8.51
5/27/2021 10:15:00 AM 18.04 64.472 0.176 7.31 3.39 8.69
5/27/2021 10:30:00 AM 18.29 64.922 0.176 7.33 3.21 8.86
5/27/2021 10:45:00 AM 18.5 65.3 0.176 7.35 3.42 8.77
5/27/2021 11:00:00 AM 18.73 65.714 0.176 7.36 3.29 8.79
5/27/2021 11:15:00 AM 19 66.2 0.176 7.37 3.62 8.77
5/27/2021 11:30:00 AM 19.24 66.632 0.176 7.38 3.2 8.77
5/27/2021 11:45:00 AM 19.49 67.082 0.176 7.39 3.22 8.69
5/27/2021 12:00:00 PM 19.72 67.496 0.176 7.4 3.31 8.91
5/27/2021 12:15:00 PM 19.93 67.874 0.176 7.4 3.34 8.88
5/27/2021 12:30:00 PM 20.18 68.324 0.176 7.41 3.29 8.92
5/27/2021 12:45:00 PM 20.29 68.522 0.176 7.41 3.29 8.71
5/27/2021 1:00:00 PM 20.45 68.81 0.176 7.41 3.23 8.74
5/27/2021 1:15:00 PM 20.69 69.242 0.176 7.42 3.43 8.68
5/27/2021 1:30:00 PM 20.83 69.494 0.176 7.43 3.4 8.74
5/27/2021 1:45:00 PM 20.94 69.692 0.176 7.43 3.38 8.83
5/27/2021 2:00:00 PM 20.97 69.746 0.176 7.44 3.55 8.7
5/27/2021 2:15:00 PM 21.08 69.944 0.176 7.44 3.35 8.67
5/27/2021 2:30:00 PM 21.18 70.124 0.176 7.44 3.44 8.71
5/27/2021 2:45:00 PM 21.18 70.124 0.176 7.42 3.36 8.72
5/27/2021 3:00:00 PM 21.13 70.034 0.176 7.42 3.28 8.74
5/27/2021 3:15:00 PM 21.1 69.98 0.176 7.4 3.48 8.51
5/27/2021 3:30:00 PM 21.09 69.962 0.176 7.43 3.7 8.45
5/27/2021 3:45:00 PM 21.06 69.908 0.176 7.43 3.52 8.48
5/27/2021 4:00:00 PM 21.05 69.89 0.176 7.42 3.53 8.32
5/27/2021 4:15:00 PM 21.08 69.944 0.176 7.43 3.59 8.8
5/27/2021 4:30:00 PM 21.03 69.854 0.176 7.42 3.66 8.69
5/27/2021 4:45:00 PM 20.97 69.746 0.176 7.42 3.87 8.53
5/27/2021 5:00:00 PM 20.88 69.584 0.176 7.41 3.9 8.55
5/27/2021 5:15:00 PM 20.77 69.386 0.176 7.4 4.22 8.55
5/27/2021 5:30:00 PM 20.65 69.17 0.176 7.39 4.26 8.5
5/27/2021 5:45:00 PM 20.53 68.954 0.176 7.38 4.19 8.15
5/27/2021 6:00:00 PM 20.39 68.702 0.176 7.37 4.23 8.42
5/27/2021 6:15:00 PM 20.23 68.414 0.176 7.36 4.05 8.38
5/27/2021 6:30:00 PM 20.03 68.054 0.176 7.34 3.91 8.3
5/27/2021 6:45:00 PM 19.84 67.712 0.176 7.32 3.98 8.02
5/27/2021 7:00:00 PM 19.66 67.388 0.176 7.31 3.65 8
5/27/2021 7:15:00 PM 19.45 67.01 0.15 7.29 3.17 8.03
5/27/2021 7:30:00 PM 19.18 66.524 0.177 7.27 3.09 7.98
5/27/2021 7:45:00 PM 19.03 66.254 0.177 7.25 3.23 7.97
5/27/2021 8:00:00 PM 18.85 65.93 0.177 7.24 3.07 7.87
5/27/2021 8:15:00 PM 18.64 65.552 0.177 7.22 3.19 7.78
5/27/2021 8:30:00 PM 18.47 65.246 0.177 7.21 3.4 7.7
5/27/2021 8:45:00 PM 18.32 64.976 0.177 7.19 3.35 7.59
5/27/2021 9:00:00 PM 18.11 64.598 0.177 7.17 3.13 7.34
5/27/2021 9:15:00 PM 18.01 64.418 0.177 7.15 3.31 7.35
5/27/2021 9:30:00 PM 17.86 64.148 0.177 7.14 3.23 7.22
5/27/2021 9:45:00 PM 17.74 63.932 0.178 7.13 3.18 7.21
5/27/2021 10:00:00 PM 17.65 63.77 0.178 7.12 3.19 6.94
5/27/2021 10:15:00 PM 17.52 63.536 0.178 7.11 3.19 7.06
5/27/2021 10:30:00 PM 17.41 63.338 0.178 7.11 3.32 7.1
5/27/2021 10:45:00 PM 17.32 63.176 0.178 7.1 3.33 7.12
5/27/2021 11:00:00 PM 17.23 63.014 0.178 7.09 3.39 6.95
5/27/2021 11:15:00 PM 17.12 62.816 0.178 7.09 3.53 7.19
5/27/2021 11:30:00 PM 17.02 62.636 0.178 7.09 3.12 6.94
5/27/2021 11:45:00 PM 16.93 62.474 0.176 7.08 3.18 7.01
5/28/2021 12:00:00 AM 16.84 62.312 0.178 7.08 3.18 7.15
5/28/2021 12:15:00 AM 16.75 62.15 0.178 7.08 3.12 7.23
5/28/2021 12:30:00 AM 16.7 62.06 0.178 7.08 3.14 7.06
5/28/2021 12:45:00 AM 16.64 61.952 0.178 7.07 3.25 7.01
5/28/2021 1:00:00 AM 16.55 61.79 0.178 7.07 3.25 7.11
5/28/2021 1:15:00 AM 16.51 61.718 0.179 7.07 3.2 7.14
5/28/2021 1:30:00 AM 16.45 61.61 0.179 7.07 3.23 7.16
5/28/2021 1:45:00 AM 16.38 61.484 0.179 7.07 3.22 7.1
5/28/2021 2:00:00 AM 16.34 61.412 0.179 7.06 3.21 7.11
5/28/2021 2:15:00 AM 16.28 61.304 0.179 7.06 3.28 7.12
5/28/2021 2:30:00 AM 16.24 61.232 0.179 7.07 3.18 7.09
5/28/2021 2:45:00 AM 16.21 61.178 0.179 7.07 3.16 6.99
5/28/2021 3:00:00 AM 16.17 61.106 0.168 7.06 3.27 7.1
5/28/2021 3:15:00 AM 16.15 61.07 0.179 7.06 3.21 7.04
5/28/2021 3:30:00 AM 16.12 61.016 0.179 7.06 3.17 7.08
5/28/2021 3:45:00 AM 16.09 60.962 0.179 7.06 3.1 7.1
5/28/2021 4:00:00 AM 16.06 60.908 0.179 7.06 3.16 7.15
5/28/2021 4:15:00 AM 16.05 60.89 0.179 7.06 3.22 7.02
5/28/2021 4:30:00 AM 16.01 60.818 0.179 7.06 3.15 7.16
5/28/2021 4:45:00 AM 15.99 60.782 0.179 7.06 3.22 7
5/28/2021 5:00:00 AM 15.96 60.728 0.179 7.06 3.14 7.1
5/28/2021 5:15:00 AM 15.94 60.692 0.179 7.06 3.21 7.2
5/28/2021 5:30:00 AM 15.92 60.656 0.18 7.06 3.24 7.1
5/28/2021 5:45:00 AM 15.9 60.62 0.18 7.06 3.26 7.17
5/28/2021 6:00:00 AM 15.89 60.602 0.18 7.06 3.24 7.21
5/28/2021 6:15:00 AM 15.87 60.566 0.18 7.06 3.12 7.03
5/28/2021 6:30:00 AM 15.86 60.548 0.18 7.06 3.25 7.15
5/28/2021 6:45:00 AM 15.84 60.512 0.18 7.07 3.12 7.43
5/28/2021 7:00:00 AM 15.85 60.53 0.18 7.08 3.18 7.29
5/28/2021 7:15:00 AM 15.85 60.53 0.18 7.08 3.19 7.31
5/28/2021 7:30:00 AM 15.85 60.53 0.18 7.09 3.1 7.42
5/28/2021 7:45:00 AM 15.89 60.602 0.18 7.1 3.16 7.46
5/28/2021 8:00:00 AM 15.9 60.62 0.18 7.11 3.05 7.54
5/28/2021 8:15:00 AM 15.93 60.674 0.18 7.12 3.1 7.83
5/28/2021 8:30:00 AM 15.96 60.728 0.18 7.13 3.09 7.82
5/28/2021 8:45:00 AM 15.99 60.782 0.18 7.15 3.25 7.93
5/28/2021 9:00:00 AM 16.02 60.836 0.179 7.15 3 8.15
5/28/2021 9:15:00 AM 16.05 60.89 0.179 7.16 3.19 8.07
5/28/2021 9:30:00 AM 16.05 60.89 0.179 7.17 3.2 8.11
5/28/2021 9:45:00 AM 16.08 60.944 0.179 7.17 3.03 8.25
5/28/2021 10:00:00 AM 16.11 60.998 0.179 7.18 3.04 8.3
5/28/2021 10:15:00 AM 16.16 61.088